Provisional Data: Meshoppen Creek near Kaiserville, PA


Please select a monitoring station.
Please select start date.
Please select start date.

Toggle Unit: C/F Toggle Unit: C/F
Sample Time Temperature (C) Temperature (F) Specific Conductivity (mS/cm) pH   Turbidity (NTU+) DO (mg/L)
12/4/2020 12:00:00 AM 3.31 37.958 0.167 7.53 2.86 13
12/4/2020 12:15:00 AM 3.31 37.958 0.167 7.52 2.98 13
12/4/2020 12:30:00 AM 3.31 37.958 0.167 7.52 3.54 13
12/4/2020 12:45:00 AM 3.31 37.958 0.167 7.52 2.62 12.99
12/4/2020 1:00:00 AM 3.31 37.958 0.167 7.52 2.93 12.99
12/4/2020 1:15:00 AM 3.32 37.976 0.167 7.52 2.91 12.98
12/4/2020 1:30:00 AM 3.33 37.994 0.167 7.51 2.88 12.98
12/4/2020 1:45:00 AM 3.33 37.994 0.167 7.52 2.67 12.97
12/4/2020 2:00:00 AM 3.34 38.012 0.167 7.51 2.69 12.97
12/4/2020 2:15:00 AM 3.35 38.03 0.167 7.51 2.91 12.97
12/4/2020 2:30:00 AM 3.36 38.048 0.167 7.51 2.85 12.96
12/4/2020 2:45:00 AM 3.36 38.048 0.167 7.52 2.86 12.95
12/4/2020 3:00:00 AM 3.37 38.066 0.167 7.51 3.86 12.95
12/4/2020 3:15:00 AM 3.38 38.084 0.167 7.52 2.65 12.95
12/4/2020 3:30:00 AM 3.38 38.084 0.167 7.52 2.9 12.95
12/4/2020 3:45:00 AM 3.39 38.102 0.167 7.51 2.7 12.94
12/4/2020 4:00:00 AM 3.39 38.102 0.167 7.52 3.14 12.94
12/4/2020 4:15:00 AM 3.39 38.102 0.167 7.52 2.66 12.94
12/4/2020 4:30:00 AM 3.39 38.102 0.167 7.51 2.7 12.94
12/4/2020 4:45:00 AM 3.4 38.12 0.167 7.51 2.66 12.94
12/4/2020 5:00:00 AM 3.4 38.12 0.167 7.52 2.65 12.94
12/4/2020 5:15:00 AM 3.39 38.102 0.167 7.52 2.86 12.94
12/4/2020 5:30:00 AM 3.4 38.12 0.167 7.52 3.24 12.94
12/4/2020 5:45:00 AM 3.4 38.12 0.167 7.52 2.81 12.94
12/4/2020 6:00:00 AM 3.41 38.138 0.167 7.51 2.7 12.94
12/4/2020 6:15:00 AM 3.41 38.138 0.167 7.52 2.68 12.94
12/4/2020 6:30:00 AM 3.42 38.156 0.167 7.52 2.64 12.93
12/4/2020 6:45:00 AM 3.43 38.174 0.167 7.52 2.81 12.93
12/4/2020 7:00:00 AM 3.43 38.174 0.167 7.52 2.67 12.92
12/4/2020 7:15:00 AM 3.44 38.192 0.167 7.52 2.71 12.94
12/4/2020 7:30:00 AM 3.44 38.192 0.167 7.52 2.7 12.95
12/4/2020 7:45:00 AM 3.45 38.21 0.167 7.53 2.7 12.99
12/4/2020 8:00:00 AM 3.46 38.228 0.167 7.55 2.68 13.11
12/4/2020 8:15:00 AM 3.5 38.3 0.167 7.59 2.77 13.23
12/4/2020 8:30:00 AM 3.54 38.372 0.167 7.63 2.73 13.31
12/4/2020 8:45:00 AM 3.59 38.462 0.166 7.68 2.75 13.39
12/4/2020 9:00:00 AM 3.65 38.57 0.166 7.73 2.72 13.45
12/4/2020 9:15:00 AM 3.7 38.66 0.166 7.79 2.71 13.51
12/4/2020 9:30:00 AM 3.74 38.732 0.166 7.82 2.69 13.53
12/4/2020 9:45:00 AM 3.8 38.84 0.166 7.87 2.68 13.58
12/4/2020 10:00:00 AM 3.87 38.966 0.166 7.93 2.71 13.61
12/4/2020 10:15:00 AM 3.97 39.146 0.166 7.98 2.66 13.64
12/4/2020 10:30:00 AM 4.07 39.326 0.166 8.02 2.69 13.65
12/4/2020 10:45:00 AM 4.18 39.524 0.166 8.08 2.72 13.66
12/4/2020 11:00:00 AM 4.27 39.686 0.165 8.12 2.69 13.64
12/4/2020 11:15:00 AM 4.35 39.83 0.165 8.15 2.64 13.59
12/4/2020 11:30:00 AM 4.45 40.01 0.165 8.19 2.63 13.56
12/4/2020 11:45:00 AM 4.55 40.19 0.165 8.2 2.61 13.49
12/4/2020 12:00:00 PM 4.67 40.406 0.165 8.22 2.57 13.44
12/4/2020 12:15:00 PM 4.77 40.586 0.165 8.22 2.57 13.38
12/4/2020 12:30:00 PM 4.86 40.748 0.164 8.23 2.59 13.33
12/4/2020 12:45:00 PM 4.95 40.91 0.164 8.24 2.6 13.32
12/4/2020 1:00:00 PM 5.04 41.072 0.164 8.27 2.55 13.29
12/4/2020 1:15:00 PM 5.13 41.234 0.164 8.29 2.51 13.26
12/4/2020 1:30:00 PM 5.23 41.414 0.164 8.32 2.48 13.25
12/4/2020 1:45:00 PM 5.27 41.486 0.164 8.32 2.49 13.2
12/4/2020 2:00:00 PM 5.3 41.54 0.164 8.31 2.49 13.14
12/4/2020 2:15:00 PM 5.32 41.576 0.164 8.32 2.45 13.13
12/4/2020 2:30:00 PM 5.33 41.594 0.164 8.31 2.46 13.1
12/4/2020 2:45:00 PM 5.36 41.648 0.164 8.32 2.45 13.12
12/4/2020 3:00:00 PM 5.36 41.648 0.164 8.31 2.42 13.09
12/4/2020 3:15:00 PM 5.35 41.63 0.164 8.28 2.42 13.03
12/4/2020 3:30:00 PM 5.32 41.576 0.164 8.21 2.39 12.96
12/4/2020 3:45:00 PM 5.3 41.54 0.164 8.17 2.36 12.93
12/4/2020 4:00:00 PM 5.28 41.504 0.164 8.11 2.4 12.87
12/4/2020 4:15:00 PM 5.25 41.45 0.164 8.03 2.37 12.78
12/4/2020 4:30:00 PM 5.2 41.36 0.164 7.95 2.34 12.7
12/4/2020 4:45:00 PM 5.16 41.288 0.164 7.88 2.32 12.62
12/4/2020 5:00:00 PM 5.09 41.162 0.164 7.82 2.36 12.56
12/4/2020 5:15:00 PM 5.03 41.054 0.164 7.77 2.31 12.51
12/4/2020 5:30:00 PM 4.97 40.946 0.165 7.73 2.32 12.49
12/4/2020 5:45:00 PM 4.91 40.838 0.165 7.69 2.37 12.47
12/4/2020 6:00:00 PM 4.85 40.73 0.165 7.67 2.38 12.47
12/4/2020 6:15:00 PM 4.8 40.64 0.165 7.65 2.34 12.46
12/4/2020 6:30:00 PM 4.74 40.532 0.165 7.62 2.3 12.46
12/4/2020 6:45:00 PM 4.71 40.478 0.165 7.61 2.3 12.46
12/4/2020 7:00:00 PM 4.67 40.406 0.165 7.6 2.32 12.46
12/4/2020 7:15:00 PM 4.64 40.352 0.165 7.59 2.22 12.46
12/4/2020 7:30:00 PM 4.62 40.316 0.165 7.58 2.26 12.46
12/4/2020 7:45:00 PM 4.59 40.262 0.165 7.57 2.23 12.46
12/4/2020 8:00:00 PM 4.58 40.244 0.165 7.56 2.24 12.47
12/4/2020 8:15:00 PM 4.57 40.226 0.165 7.56 2.3 12.46
12/4/2020 8:30:00 PM 4.57 40.226 0.166 7.56 2.29 12.46
12/4/2020 8:45:00 PM 4.56 40.208 0.165 7.56 2.23 12.46
12/4/2020 9:00:00 PM 4.56 40.208 0.165 7.56 2.26 12.46
12/4/2020 9:15:00 PM 4.55 40.19 0.165 7.56 2.23 12.46
12/4/2020 9:30:00 PM 4.55 40.19 0.165 7.56 2.19 12.47
12/4/2020 9:45:00 PM 4.56 40.208 0.165 7.54 2.25 12.46
12/4/2020 10:00:00 PM 4.57 40.226 0.165 7.55 2.24 12.46
12/4/2020 10:15:00 PM 4.57 40.226 0.165 7.54 2.24 12.46
12/4/2020 10:30:00 PM 4.57 40.226 0.165 7.54 2.21 12.46
12/4/2020 10:45:00 PM 4.57 40.226 0.165 7.53 2.18 12.45
12/4/2020 11:00:00 PM 4.57 40.226 0.165 7.53 2.22 12.46
12/4/2020 11:15:00 PM 4.57 40.226 0.165 7.52 2.2 12.45
12/4/2020 11:30:00 PM 4.58 40.244 0.165 7.53 2.2 12.45
12/4/2020 11:45:00 PM 4.59 40.262 0.165 7.53 2.16 12.44
12/5/2020 12:00:00 AM 4.59 40.262 0.165 7.52 2.23 12.44
12/5/2020 12:15:00 AM 4.6 40.28 0.165 7.52 2.22 12.43
12/5/2020 12:30:00 AM 4.6 40.28 0.165 7.52 2.15 12.43
12/5/2020 12:45:00 AM 4.6 40.28 0.165 7.51 2.19 12.42
12/5/2020 1:00:00 AM 4.6 40.28 0.165 7.51 2.17 12.42
12/5/2020 1:15:00 AM 4.6 40.28 0.165 7.5 2.14 12.42
12/5/2020 1:30:00 AM 4.61 40.298 0.165 7.51 2.18 12.41
12/5/2020 1:45:00 AM 4.61 40.298 0.165 7.5 2.13 12.41
12/5/2020 2:00:00 AM 4.61 40.298 0.165 7.5 2.14 12.41
12/5/2020 2:15:00 AM 4.62 40.316 0.165 7.5 2.16 12.41
12/5/2020 2:30:00 AM 4.61 40.298 0.165 7.5 2.12 12.4
12/5/2020 2:45:00 AM 4.6 40.28 0.165 7.5 2.16 12.4
12/5/2020 3:00:00 AM 4.59 40.262 0.165 7.5 2.13 12.4
12/5/2020 3:15:00 AM 4.57 40.226 0.165 7.5 2.11 12.4
12/5/2020 3:30:00 AM 4.56 40.208 0.165 7.49 2.14 12.4
12/5/2020 3:45:00 AM 4.56 40.208 0.165 7.49 2.1 12.4
12/5/2020 4:00:00 AM 4.55 40.19 0.165 7.49 2.16 12.4
12/5/2020 4:15:00 AM 4.53 40.154 0.165 7.49 2.14 12.4
12/5/2020 4:30:00 AM 4.52 40.136 0.165 7.49 2.11 12.41
12/5/2020 4:45:00 AM 4.51 40.118 0.165 7.49 2.13 12.41
12/5/2020 5:00:00 AM 4.49 40.082 0.165 7.49 2.17 12.42
12/5/2020 5:15:00 AM 4.48 40.064 0.165 7.49 2.08 12.42
12/5/2020 5:30:00 AM 4.47 40.046 0.165 7.49 2.08 12.43
12/5/2020 5:45:00 AM 4.46 40.028 0.165 7.49 2.07 12.43
12/5/2020 6:00:00 AM 4.45 40.01 0.165 7.49 2.14 12.43
12/5/2020 6:15:00 AM 4.44 39.992 0.165 7.5 2.17 12.44
12/5/2020 6:30:00 AM 4.43 39.974 0.165 7.49 2.09 12.45
12/5/2020 6:45:00 AM 4.42 39.956 0.165 7.5 2.12 12.45
12/5/2020 7:00:00 AM 4.42 39.956 0.165 7.5 2.1 12.45
12/5/2020 7:15:00 AM 4.41 39.938 0.165 7.5 2.1 12.46
12/5/2020 7:30:00 AM 4.41 39.938 0.165 7.5 2.07 12.46
12/5/2020 7:45:00 AM 4.4 39.92 0.165 7.51 2.05 12.48
12/5/2020 8:00:00 AM 4.39 39.902 0.165 7.52 2.1 12.5
12/5/2020 8:15:00 AM 4.39 39.902 0.165 7.54 2.08 12.55
12/5/2020 8:30:00 AM 4.38 39.884 0.165 7.55 2.11 12.6
12/5/2020 8:45:00 AM 4.39 39.902 0.165 7.57 2.06 12.68
12/5/2020 9:00:00 AM 4.4 39.92 0.165 7.6 2.12 12.79
12/5/2020 9:15:00 AM 4.4 39.92 0.165 7.63 2.05 12.8
12/5/2020 9:30:00 AM 4.4 39.92 0.165 7.64 2.11 12.81
12/5/2020 9:45:00 AM 4.41 39.938 0.165 7.67 2.1 12.88
12/5/2020 10:00:00 AM 4.4 39.92 0.165 7.67 2.08 12.86
12/5/2020 10:15:00 AM 4.41 39.938 0.165 7.71 2.1 12.96
12/5/2020 10:30:00 AM 4.41 39.938 0.165 7.71 2.1 12.94
12/5/2020 10:45:00 AM 4.4 39.92 0.165 7.72 2.11 12.94
12/5/2020 11:00:00 AM 4.4 39.92 0.165 7.72 2.08 12.94
12/5/2020 11:15:00 AM 4.41 39.938 0.165 7.77 2.07 13.06
12/5/2020 11:30:00 AM 4.44 39.992 0.165 7.81 2.03 13.14
12/5/2020 11:45:00 AM 4.48 40.064 0.165 7.86 2.06 13.21
12/5/2020 12:00:00 PM 4.51 40.118 0.165 7.91 2.04 13.24
12/5/2020 12:15:00 PM 4.53 40.154 0.165 7.94 2.1 13.24
12/5/2020 12:30:00 PM 4.53 40.154 0.165 7.92 2.13 13.15
12/5/2020 12:45:00 PM 4.54 40.172 0.165 7.97 2.07 13.22
12/5/2020 1:00:00 PM 4.55 40.19 0.164 7.99 2.08 13.24
12/5/2020 1:15:00 PM 4.56 40.208 0.164 8.02 2.04 13.26
12/5/2020 1:30:00 PM 4.57 40.226 0.164 8.06 2.02 13.3
12/5/2020 1:45:00 PM 4.6 40.28 0.164 8.11 2.05 13.34
12/5/2020 2:00:00 PM 4.61 40.298 0.164 8.12 2.05 13.31
12/5/2020 2:15:00 PM 4.62 40.316 0.164 8.12 2.08 13.27
12/5/2020 2:30:00 PM 4.62 40.316 0.164 8.14 2.02 13.26
12/5/2020 2:45:00 PM 4.62 40.316 0.164 8.15 2.01 13.27
12/5/2020 3:00:00 PM 4.62 40.316 0.164 8.15 2.02 13.25
12/5/2020 3:15:00 PM 4.6 40.28 0.164 8.13 2.02 13.23
12/5/2020 3:30:00 PM 4.58 40.244 0.164 8.13 2.03 13.22
12/5/2020 3:45:00 PM 4.55 40.19 0.164 8.08 1.98 13.12
12/5/2020 4:00:00 PM 4.53 40.154 0.164 8.05 2 13.12
12/5/2020 4:15:00 PM 4.49 40.082 0.164 8 2.01 13.05
12/5/2020 4:30:00 PM 4.46 40.028 0.164 7.92 1.96 12.93
12/5/2020 4:45:00 PM 4.42 39.956 0.164 7.85 2.02 12.85
12/5/2020 5:00:00 PM 4.4 39.92 0.164 7.79 2 12.78
12/5/2020 5:15:00 PM 4.37 39.866 0.165 7.74 2.02 12.73
12/5/2020 5:30:00 PM 4.34 39.812 0.165 7.7 2.03 12.69
12/5/2020 5:45:00 PM 4.31 39.758 0.165 7.67 2.04 12.67
12/5/2020 6:00:00 PM 4.29 39.722 0.165 7.65 2.02 12.65
12/5/2020 6:15:00 PM 4.26 39.668 0.165 7.64 2.01 12.64
12/5/2020 6:30:00 PM 4.23 39.614 0.165 7.62 2.03 12.63
12/5/2020 6:45:00 PM 4.2 39.56 0.165 7.61 2.02 12.63
12/5/2020 7:00:00 PM 4.17 39.506 0.165 7.6 2 12.63
12/5/2020 7:15:00 PM 4.12 39.416 0.166 7.59 1.97 12.63
12/5/2020 7:30:00 PM 4.07 39.326 0.166 7.59 1.98 12.65
12/5/2020 7:45:00 PM 4.04 39.272 0.166 7.58 1.98 12.65
12/5/2020 8:00:00 PM 4.01 39.218 0.166 7.57 1.96 12.67
12/5/2020 8:15:00 PM 3.98 39.164 0.166 7.57 1.97 12.67
12/5/2020 8:30:00 PM 3.97 39.146 0.166 7.57 1.97 12.67
12/5/2020 8:45:00 PM 3.93 39.074 0.166 7.56 1.98 12.68
12/5/2020 9:00:00 PM 3.89 39.002 0.166 7.55 1.99 12.69
12/5/2020 9:15:00 PM 3.86 38.948 0.166 7.56 1.96 12.7
12/5/2020 9:30:00 PM 3.84 38.912 0.166 7.55 1.97 12.7
12/5/2020 9:45:00 PM 3.82 38.876 0.166 7.56 1.98 12.71
12/5/2020 10:00:00 PM 3.8 38.84 0.166 7.55 1.96 12.72
12/5/2020 10:15:00 PM 3.78 38.804 0.166 7.55 1.97 12.73
12/5/2020 10:30:00 PM 3.76 38.768 0.166 7.55 2 12.73
12/5/2020 10:45:00 PM 3.73 38.714 0.166 7.55 1.97 12.74
12/5/2020 11:00:00 PM 3.65 38.57 0.166 7.54 1.93 12.74
12/5/2020 11:15:00 PM 3.63 38.534 0.166 7.54 1.91 12.75
12/5/2020 11:30:00 PM 3.59 38.462 0.166 7.54 1.95 12.77
12/5/2020 11:45:00 PM 3.56 38.408 0.166 7.54 1.97 12.79
12/6/2020 12:00:00 AM 3.52 38.336 0.166 7.53 2.01 12.8
12/6/2020 12:15:00 AM 3.51 38.318 0.166 7.54 1.96 12.81
12/6/2020 12:30:00 AM 3.49 38.282 0.166 7.54 1.96 12.82
12/6/2020 12:45:00 AM 3.47 38.246 0.166 7.54 2 12.83
12/6/2020 1:00:00 AM 3.45 38.21 0.166 7.54 1.95 12.83
12/6/2020 1:15:00 AM 3.43 38.174 0.166 7.54 1.96 12.84
12/6/2020 1:30:00 AM 3.41 38.138 0.166 7.53 1.96 12.85
12/6/2020 1:45:00 AM 3.38 38.084 0.166 7.53 1.94 12.86
12/6/2020 2:00:00 AM 3.36 38.048 0.166 7.53 1.95 12.87
12/6/2020 2:15:00 AM 3.33 37.994 0.166 7.53 1.94 12.89
12/6/2020 2:30:00 AM 3.3 37.94 0.166 7.53 1.94 12.9
12/6/2020 2:45:00 AM 3.27 37.886 0.166 7.53 1.93 12.91
12/6/2020 3:00:00 AM 3.24 37.832 0.166 7.53 1.96 12.92
12/6/2020 3:15:00 AM 3.21 37.778 0.166 7.53 1.99 12.93
12/6/2020 3:30:00 AM 3.19 37.742 0.166 7.53 1.96 12.94
12/6/2020 3:45:00 AM 3.15 37.67 0.166 7.52 1.95 12.96
12/6/2020 4:00:00 AM 3.12 37.616 0.166 7.53 1.93 12.97
12/6/2020 4:15:00 AM 3.09 37.562 0.166 7.53 1.94 12.98
12/6/2020 4:30:00 AM 3.05 37.49 0.166 7.53 1.93 12.99
12/6/2020 4:45:00 AM 3.01 37.418 0.166 7.52 1.96 13
12/6/2020 5:00:00 AM 2.98 37.364 0.166 7.52 1.98 13.01
12/6/2020 5:15:00 AM 2.96 37.328 0.166 7.53 1.93 13.02
12/6/2020 5:30:00 AM 2.93 37.274 0.166 7.53 1.97 13.03
12/6/2020 5:45:00 AM 2.9 37.22 0.166 7.53 1.98 13.04
12/6/2020 6:00:00 AM 2.86 37.148 0.166 7.53 1.93 13.05
12/6/2020 6:15:00 AM 2.84 37.112 0.166 7.51 2 13.06
12/6/2020 6:30:00 AM 2.8 37.04 0.166 7.52 1.96 13.08
12/6/2020 6:45:00 AM 2.77 36.986 0.166 7.53 1.99 13.09
12/6/2020 7:00:00 AM 2.72 36.896 0.166 7.52 1.97 13.11
12/6/2020 7:15:00 AM 2.68 36.824 0.166 7.53 1.93 13.13
12/6/2020 7:30:00 AM 2.64 36.752 0.166 7.53 1.94 13.17
12/6/2020 7:45:00 AM 2.59 36.662 0.167 7.54 1.97 13.21
12/6/2020 8:00:00 AM 2.55 36.59 0.167 7.55 1.93 13.29
12/6/2020 8:15:00 AM 2.52 36.536 0.167 7.57 1.94 13.38
12/6/2020 8:30:00 AM 2.49 36.482 0.167 7.6 1.94 13.48
12/6/2020 8:45:00 AM 2.47 36.446 0.166 7.64 1.96 13.57
12/6/2020 9:00:00 AM 2.45 36.41 0.166 7.66 1.93 13.67
12/6/2020 9:15:00 AM 2.45 36.41 0.166 7.71 1.91 13.78
12/6/2020 9:30:00 AM 2.46 36.428 0.166 7.76 1.94 13.86
12/6/2020 9:45:00 AM 2.47 36.446 0.166 7.8 1.97 13.92
12/6/2020 10:00:00 AM 2.48 36.464 0.166 7.85 1.93 13.99
12/6/2020 10:15:00 AM 2.5 36.5 0.166 7.89 1.86 14.03
12/6/2020 10:30:00 AM 2.51 36.518 0.166 7.93 1.94 14.07
12/6/2020 10:45:00 AM 2.53 36.554 0.166 7.97 1.92 14.1
12/6/2020 11:00:00 AM 2.56 36.608 0.165 8.01 1.93 14.14
12/6/2020 11:15:00 AM 2.59 36.662 0.165 8.05 1.94 14.15
12/6/2020 11:30:00 AM 2.61 36.698 0.165 8.08 1.94 14.17
12/6/2020 11:45:00 AM 2.62 36.716 0.165 8.12 1.88 14.17
12/6/2020 12:00:00 PM 2.64 36.752 0.165 8.14 1.87 14.18
12/6/2020 12:15:00 PM 2.65 36.77 0.165 8.17 1.9 14.18
12/6/2020 12:30:00 PM 2.67 36.806 0.165 8.2 1.88 14.18
12/6/2020 12:45:00 PM 2.69 36.842 0.165 8.23 1.87 14.19
12/6/2020 1:00:00 PM 2.72 36.896 0.165 8.26 1.87 14.19
12/6/2020 1:15:00 PM 2.75 36.95 0.165 8.29 1.87 14.19
12/6/2020 1:30:00 PM 2.77 36.986 0.164 8.31 1.89 14.17
12/6/2020 1:45:00 PM 2.79 37.022 0.164 8.33 1.89 14.15
12/6/2020 2:00:00 PM 2.81 37.058 0.164 8.34 1.89 14.14
12/6/2020 2:15:00 PM 2.83 37.094 0.164 8.37 1.87 14.14
12/6/2020 2:30:00 PM 2.87 37.166 0.164 8.39 1.87 14.13
12/6/2020 2:45:00 PM 2.91 37.238 0.164 8.41 1.85 14.1
12/6/2020 3:00:00 PM 2.9 37.22 0.164 8.4 1.87 14.05
12/6/2020 3:15:00 PM 2.88 37.184 0.164 8.39 1.89 14.03
12/6/2020 3:30:00 PM 2.85 37.13 0.164 8.38 1.88 14.01
12/6/2020 3:45:00 PM 2.81 37.058 0.164 8.33 1.88 13.96
12/6/2020 4:00:00 PM 2.78 37.004 0.164 8.27 1.9 13.87
12/6/2020 4:15:00 PM 2.74 36.932 0.165 8.18 1.89 13.79
12/6/2020 4:30:00 PM 2.69 36.842 0.165 8.07 1.9 13.7
12/6/2020 4:45:00 PM 2.66 36.788 0.165 7.98 1.84 13.61
12/6/2020 5:00:00 PM 2.61 36.698 0.165 7.9 1.93 13.54
12/6/2020 5:15:00 PM 2.59 36.662 0.166 7.84 1.92 13.49
12/6/2020 5:30:00 PM 2.55 36.59 0.166 7.79 1.89 13.45
12/6/2020 5:45:00 PM 2.53 36.554 0.166 7.76 1.89 13.42
12/6/2020 6:00:00 PM 2.51 36.518 0.166 7.72 1.88 13.39
12/6/2020 6:15:00 PM 2.49 36.482 0.166 7.7 1.89 13.37
12/6/2020 6:30:00 PM 2.47 36.446 0.167 7.68 1.88 13.36
12/6/2020 6:45:00 PM 2.44 36.392 0.167 7.66 1.87 13.35
12/6/2020 7:00:00 PM 2.41 36.338 0.167 7.65 1.87 13.34
12/6/2020 7:15:00 PM 2.39 36.302 0.167 7.64 1.87 13.34
12/6/2020 7:30:00 PM 2.36 36.248 0.167 7.63 1.86 13.34
12/6/2020 7:45:00 PM 2.33 36.194 0.167 7.63 1.87 13.34
12/6/2020 8:00:00 PM 2.3 36.14 0.167 7.62 1.86 13.34
12/6/2020 8:15:00 PM 2.27 36.086 0.168 7.61 1.89 13.35
12/6/2020 8:30:00 PM 2.25 36.05 0.168 7.61 1.87 13.35
12/6/2020 8:45:00 PM 2.23 36.014 0.168 7.6 1.91 13.36
12/6/2020 9:00:00 PM 2.2 35.96 0.168 7.59 1.88 13.36
12/6/2020 9:15:00 PM 2.18 35.924 0.168 7.59 1.88 13.37
12/6/2020 9:30:00 PM 2.15 35.87 0.168 7.59 1.86 13.37
12/6/2020 9:45:00 PM 2.13 35.834 0.168 7.59 1.86 13.39
12/6/2020 10:00:00 PM 2.1 35.78 0.168 7.58 1.89 13.39
12/6/2020 10:15:00 PM 2.08 35.744 0.168 7.58 1.86 13.4
12/6/2020 10:30:00 PM 2.05 35.69 0.168 7.58 1.87 13.41
12/6/2020 10:45:00 PM 2.02 35.636 0.168 7.58 1.88 13.42
12/6/2020 11:00:00 PM 2 35.6 0.168 7.58 1.82 13.43
12/6/2020 11:15:00 PM 1.97 35.546 0.168 7.58 1.91 13.44
12/6/2020 11:30:00 PM 1.94 35.492 0.168 7.57 1.86 13.45
12/6/2020 11:45:00 PM 1.91 35.438 0.168 7.57 1.85 13.46
12/7/2020 12:00:00 AM 1.88 35.384 0.168 7.57 1.84 13.47
12/7/2020 12:15:00 AM 1.86 35.348 0.168 7.57 1.89 13.48
12/7/2020 12:30:00 AM 1.84 35.312 0.168 7.57 1.88 13.5
12/7/2020 12:45:00 AM 1.81 35.258 0.168 7.56 1.83 13.51
12/7/2020 1:00:00 AM 1.78 35.204 0.168 7.57 1.83 13.51
12/7/2020 1:15:00 AM 1.77 35.186 0.168 7.57 1.87 13.52
12/7/2020 1:30:00 AM 1.76 35.168 0.168 7.57 1.87 13.51
12/7/2020 1:45:00 AM 1.74 35.132 0.168 7.56 1.87 13.52
12/7/2020 2:00:00 AM 1.73 35.114 0.168 7.56 1.89 13.53
12/7/2020 2:15:00 AM 1.71 35.078 0.168 7.56 1.86 13.54
12/7/2020 2:30:00 AM 1.7 35.06 0.168 7.56 1.89 13.55
12/7/2020 2:45:00 AM 1.68 35.024 0.168 7.56 1.91 13.55
12/7/2020 3:00:00 AM 1.67 35.006 0.168 7.56 1.85 13.56
12/7/2020 3:15:00 AM 1.66 34.988 0.168 7.56 1.83 13.56
12/7/2020 3:30:00 AM 1.65 34.97 0.168 7.56 1.84 13.56
12/7/2020 3:45:00 AM 1.64 34.952 0.168 7.56 1.93 13.56
12/7/2020 4:00:00 AM 1.62 34.916 0.168 7.56 1.83 13.57
12/7/2020 4:15:00 AM 1.61 34.898 0.168 7.56 1.84 13.57
12/7/2020 4:30:00 AM 1.59 34.862 0.168 7.56 1.88 13.58
12/7/2020 4:45:00 AM 1.58 34.844 0.168 7.56 1.93 13.58
12/7/2020 5:00:00 AM 1.57 34.826 0.168 7.56 1.94 13.59
12/7/2020 5:15:00 AM 1.55 34.79 0.168 7.56 1.92 13.6
12/7/2020 5:30:00 AM 1.54 34.772 0.168 7.55 1.94 13.6
12/7/2020 5:45:00 AM 1.53 34.754 0.168 7.55 1.87 13.6
12/7/2020 6:00:00 AM 1.52 34.736 0.168 7.56 1.88 13.6
12/7/2020 6:15:00 AM 1.51 34.718 0.168 7.55 1.85 13.61
12/7/2020 6:30:00 AM 1.5 34.7 0.168 7.55 1.88 13.61
12/7/2020 6:45:00 AM 1.49 34.682 0.168 7.55 1.9 13.61
12/7/2020 7:00:00 AM 1.47 34.646 0.168 7.55 1.87 13.62
12/7/2020 7:15:00 AM 1.45 34.61 0.168 7.56 1.87 13.63
12/7/2020 7:30:00 AM 1.44 34.592 0.168 7.56 1.88 13.65
12/7/2020 7:45:00 AM 1.42 34.556 0.168 7.56 1.87 13.69
12/7/2020 8:00:00 AM 1.42 34.556 0.168 7.57 1.89 13.75
12/7/2020 8:15:00 AM 1.41 34.538 0.167 7.59 1.88 13.82
12/7/2020 8:30:00 AM 1.41 34.538 0.167 7.63 1.86 13.92
12/7/2020 8:45:00 AM 1.42 34.556 0.167 7.66 1.88 14.01
12/7/2020 9:00:00 AM 1.44 34.592 0.167 7.7 1.86 14.11
12/7/2020 9:15:00 AM 1.45 34.61 0.167 7.74 1.82 14.21
12/7/2020 9:30:00 AM 1.48 34.664 0.167 7.78 1.85 14.28
12/7/2020 9:45:00 AM 1.52 34.736 0.166 7.84 1.89 14.35
12/7/2020 10:00:00 AM 1.55 34.79 0.166 7.88 1.88 14.4
12/7/2020 10:15:00 AM 1.59 34.862 0.166 7.93 1.83 14.45
12/7/2020 10:30:00 AM 1.64 34.952 0.166 7.97 1.86 14.47
12/7/2020 10:45:00 AM 1.7 35.06 0.166 8.01 1.86 14.5
12/7/2020 11:00:00 AM 1.77 35.186 0.166 8.05 1.86 14.51
12/7/2020 11:15:00 AM 1.85 35.33 0.165 8.11 1.85 14.52
12/7/2020 11:30:00 AM 1.91 35.438 0.165 8.14 1.85 14.51
12/7/2020 11:45:00 AM 1.99 35.582 0.165 8.17 1.86 14.5
12/7/2020 12:00:00 PM 2.06 35.708 0.165 8.21 1.86 14.48
12/7/2020 12:15:00 PM 2.14 35.852 0.165 8.25 1.84 14.46
12/7/2020 12:30:00 PM 2.22 35.996 0.165 8.28 1.87 14.44
12/7/2020 12:45:00 PM 2.28 36.104 0.164 8.31 1.88 14.4
12/7/2020 1:00:00 PM 2.34 36.212 0.164 8.34 1.9 14.38
12/7/2020 1:15:00 PM 2.37 36.266 0.164 8.35 1.88 14.35
12/7/2020 1:30:00 PM 2.38 36.284 0.164 8.37 1.83 14.33
12/7/2020 1:45:00 PM 2.37 36.266 0.164 8.37 1.81 14.3
12/7/2020 2:00:00 PM 2.38 36.284 0.164 8.38 1.85 14.29
12/7/2020 2:15:00 PM 2.39 36.302 0.164 8.4 1.84 14.29
12/7/2020 2:30:00 PM 2.38 36.284 0.164 8.4 1.83 14.27
12/7/2020 2:45:00 PM 2.38 36.284 0.164 8.41 1.83 14.26
12/7/2020 3:00:00 PM 2.39 36.302 0.164 8.43 1.85 14.25
12/7/2020 3:15:00 PM 2.39 36.302 0.164 8.43 1.85 14.23
12/7/2020 3:30:00 PM 2.37 36.266 0.164 8.43 1.83 14.18
12/7/2020 3:45:00 PM 2.33 36.194 0.164 8.39 1.81 14.12
12/7/2020 4:00:00 PM 2.29 36.122 0.164 8.34 1.83 14.07
12/7/2020 4:15:00 PM 2.23 36.014 0.164 8.26 1.77 13.98
12/7/2020 4:30:00 PM 2.17 35.906 0.165 8.16 1.83 13.89
12/7/2020 4:45:00 PM 2.11 35.798 0.165 8.05 1.85 13.81
12/7/2020 5:00:00 PM 2.06 35.708 0.165 7.96 1.86 13.74
12/7/2020 5:15:00 PM 2.01 35.618 0.166 7.89 1.89 13.68
12/7/2020 5:30:00 PM 1.96 35.528 0.166 7.83 1.83 13.64
12/7/2020 5:45:00 PM 1.92 35.456 0.166 7.78 1.87 13.61
12/7/2020 6:00:00 PM 1.88 35.384 0.166 7.75 1.9 13.59
12/7/2020 6:15:00 PM 1.83 35.294 0.167 7.73 1.9 13.57
12/7/2020 6:30:00 PM 1.79 35.222 0.167 7.7 1.88 13.57
12/7/2020 6:45:00 PM 1.76 35.168 0.167 7.68 1.88 13.57
12/7/2020 7:00:00 PM 1.72 35.096 0.167 7.67 1.82 13.56
12/7/2020 7:15:00 PM 1.7 35.06 0.167 7.66 1.83 13.57
12/7/2020 7:30:00 PM 1.67 35.006 0.168 7.65 1.84 13.56
12/7/2020 7:45:00 PM 1.65 34.97 0.168 7.64 1.87 13.56
12/7/2020 8:00:00 PM 1.63 34.934 0.168 7.64 1.84 13.56
12/7/2020 8:15:00 PM 1.61 34.898 0.168 7.63 1.88 13.56
12/7/2020 8:30:00 PM 1.59 34.862 0.168 7.62 1.91 13.56
12/7/2020 8:45:00 PM 1.57 34.826 0.168 7.62 1.84 13.57
12/7/2020 9:00:00 PM 1.55 34.79 0.168 7.61 1.82 13.57
12/7/2020 9:15:00 PM 1.54 34.772 0.168 7.61 1.86 13.58
12/7/2020 9:30:00 PM 1.52 34.736 0.168 7.61 1.84 13.58
12/7/2020 9:45:00 PM 1.49 34.682 0.168 7.6 1.85 13.59
12/7/2020 10:00:00 PM 1.48 34.664 0.168 7.6 1.83 13.59
12/7/2020 10:15:00 PM 1.46 34.628 0.168 7.6 1.84 13.6
12/7/2020 10:30:00 PM 1.43 34.574 0.169 7.6 1.8 13.6
12/7/2020 10:45:00 PM 1.42 34.556 0.169 7.6 1.84 13.61
12/7/2020 11:00:00 PM 1.4 34.52 0.169 7.59 1.86 13.62
12/7/2020 11:15:00 PM 1.39 34.502 0.169 7.59 1.87 13.62
12/7/2020 11:30:00 PM 1.37 34.466 0.169 7.59 1.86 13.63
12/7/2020 11:45:00 PM 1.36 34.448 0.169 7.59 1.85 13.63
12/8/2020 12:00:00 AM 1.34 34.412 0.169 7.59 1.84 13.63
12/8/2020 12:15:00 AM 1.31 34.358 0.169 7.58 1.87 13.64
12/8/2020 12:30:00 AM 1.3 34.34 0.169 7.58 1.83 13.64
12/8/2020 12:45:00 AM 1.29 34.322 0.168 7.58 1.88 13.65
12/8/2020 1:00:00 AM 1.27 34.286 0.168 7.57 1.84 13.66
12/8/2020 1:15:00 AM 1.26 34.268 0.168 7.58 1.82 13.67
12/8/2020 1:30:00 AM 1.24 34.232 0.168 7.58 1.85 13.67
12/8/2020 1:45:00 AM 1.23 34.214 0.168 7.57 1.87 13.67
12/8/2020 2:00:00 AM 1.22 34.196 0.168 7.57 1.84 13.68
12/8/2020 2:15:00 AM 1.21 34.178 0.168 7.57 1.84 13.69
12/8/2020 2:30:00 AM 1.19 34.142 0.168 7.57 1.88 13.7
12/8/2020 2:45:00 AM 1.18 34.124 0.168 7.57 1.87 13.69
12/8/2020 3:00:00 AM 1.17 34.106 0.168 7.57 1.8 13.7
12/8/2020 3:15:00 AM 1.16 34.088 0.168 7.57 1.87 13.7
12/8/2020 3:30:00 AM 1.16 34.088 0.168 7.57 1.84 13.71
12/8/2020 3:45:00 AM 1.14 34.052 0.168 7.57 1.85 13.72
12/8/2020 4:00:00 AM 1.13 34.034 0.168 7.57 1.85 13.72
12/8/2020 4:15:00 AM 1.12 34.016 0.168 7.57 1.84 13.72
12/8/2020 4:30:00 AM 1.11 33.998 0.168 7.56 1.88 13.73
12/8/2020 4:45:00 AM 1.09 33.962 0.168 7.56 1.84 13.73
12/8/2020 5:00:00 AM 1.08 33.944 0.168 7.56 1.87 13.74
12/8/2020 5:15:00 AM 1.07 33.926 0.168 7.55 1.87 13.74
12/8/2020 5:30:00 AM 1.06 33.908 0.168 7.55 1.84 13.75
12/8/2020 5:45:00 AM 1.05 33.89 0.168 7.55 1.89 13.75
12/8/2020 6:00:00 AM 1.04 33.872 0.168 7.55 1.89 13.76
12/8/2020 6:15:00 AM 1.03 33.854 0.168 7.55 1.85 13.77
12/8/2020 6:30:00 AM 1.01 33.818 0.168 7.56 1.83 13.77
12/8/2020 6:45:00 AM 1 33.8 0.168 7.55 1.84 13.79
12/8/2020 7:00:00 AM 0.98 33.764 0.168 7.55 1.86 13.79
12/8/2020 7:15:00 AM 0.97 33.746 0.168 7.55 1.83 13.8
12/8/2020 7:30:00 AM 0.96 33.728 0.168 7.55 1.83 13.81
12/8/2020 7:45:00 AM 0.94 33.692 0.168 7.56 1.83 13.85
12/8/2020 8:00:00 AM 0.93 33.674 0.168 7.57 1.84 13.9
12/8/2020 8:15:00 AM 0.93 33.674 0.167 7.59 1.86 13.99
12/8/2020 8:30:00 AM 0.93 33.674 0.167 7.61 1.88 14.05
12/8/2020 8:45:00 AM 0.93 33.674 0.167 7.64 1.83 14.16
12/8/2020 9:00:00 AM 0.94 33.692 0.167 7.67 1.82 14.24
12/8/2020 9:15:00 AM 0.97 33.746 0.167 7.71 1.84 14.34
12/8/2020 9:30:00 AM 1.01 33.818 0.167 7.76 1.85 14.43
12/8/2020 9:45:00 AM 1.07 33.926 0.166 7.8 1.88 14.51
12/8/2020 10:00:00 AM 1.14 34.052 0.166 7.85 1.86 14.57
12/8/2020 10:15:00 AM 1.2 34.16 0.166 7.9 1.83 14.6
12/8/2020 10:30:00 AM 1.25 34.25 0.166 7.94 1.83 14.61
12/8/2020 10:45:00 AM 1.29 34.322 0.166 7.97 1.84 14.61
12/8/2020 11:00:00 AM 1.36 34.448 0.165 8 1.86 14.64
12/8/2020 11:15:00 AM 1.38 34.484 0.165 8.04 1.87 14.64
12/8/2020 11:30:00 AM 1.41 34.538 0.165 8.06 1.83 14.63
12/8/2020 11:45:00 AM 1.44 34.592 0.165 8.08 1.85 14.6
12/8/2020 12:00:00 PM 1.53 34.754 0.165 8.11 1.81 14.6
12/8/2020 12:15:00 PM 1.61 34.898 0.165 8.13 1.83 14.56
12/8/2020 12:30:00 PM 1.67 35.006 0.165 8.14 1.85 14.51
12/8/2020 12:45:00 PM 1.73 35.114 0.164 8.15 1.82 14.47
12/8/2020 1:00:00 PM 1.78 35.204 0.164 8.16 1.82 14.44
12/8/2020 1:15:00 PM 1.83 35.294 0.164 8.17 1.85 14.42
12/8/2020 1:30:00 PM 1.88 35.384 0.164 8.17 1.82 14.39
12/8/2020 1:45:00 PM 1.9 35.42 0.164 8.18 1.81 14.35
12/8/2020 2:00:00 PM 1.92 35.456 0.164 8.18 1.82 14.33
12/8/2020 2:15:00 PM 1.92 35.456 0.164 8.16 1.79 14.3
12/8/2020 2:30:00 PM 1.91 35.438 0.164 8.15 1.81 14.28
12/8/2020 2:45:00 PM 1.89 35.402 0.164 8.14 1.78 14.25
12/8/2020 3:00:00 PM 1.86 35.348 0.164 8.11 1.78 14.23
12/8/2020 3:15:00 PM 1.81 35.258 0.164 8.09 1.79 14.21
12/8/2020 3:30:00 PM 1.75 35.15 0.165 8.07 1.78 14.19
12/8/2020 3:45:00 PM 1.67 35.006 0.165 8.01 1.8 14.17
12/8/2020 4:00:00 PM 1.58 34.844 0.165 7.98 1.82 14.15
12/8/2020 4:15:00 PM 1.5 34.7 0.165 7.93 1.81 14.12
12/8/2020 4:30:00 PM 1.43 34.574 0.166 7.89 1.81 14.07
12/8/2020 4:45:00 PM 1.36 34.448 0.166 7.83 1.79 14.01
12/8/2020 5:00:00 PM 1.3 34.34 0.166 7.79 1.79 13.97
12/8/2020 5:15:00 PM 1.24 34.232 0.166 7.75 1.87 13.93
12/8/2020 5:30:00 PM 1.19 34.142 0.167 7.71 1.84 13.91
12/8/2020 5:45:00 PM 1.14 34.052 0.167 7.69 1.82 13.89
12/8/2020 6:00:00 PM 1.09 33.962 0.167 7.66 1.81 13.89
12/8/2020 6:15:00 PM 1.03 33.854 0.167 7.64 1.76 13.88
12/8/2020 6:30:00 PM 0.97 33.746 0.167 7.63 1.85 13.89
12/8/2020 6:45:00 PM 0.91 33.638 0.168 7.62 1.81 13.9
12/8/2020 7:00:00 PM 0.85 33.53 0.168 7.6 1.84 13.91
12/8/2020 7:15:00 PM 0.8 33.44 0.168 7.6 1.8 13.93
12/8/2020 7:30:00 PM 0.75 33.35 0.168 7.59 1.8 13.94
12/8/2020 7:45:00 PM 0.71 33.278 0.168 7.58 1.83 13.95
12/8/2020 8:00:00 PM 0.66 33.188 0.168 7.58 1.81 13.96
12/8/2020 8:15:00 PM 0.61 33.098 0.169 7.58 1.82 13.98
12/8/2020 8:30:00 PM 0.56 33.008 0.169 7.57 1.83 13.99
12/8/2020 8:45:00 PM 0.51 32.918 0.169 7.57 1.83 14.01
12/8/2020 9:00:00 PM 0.46 32.828 0.169 7.56 1.84 14.03
12/8/2020 9:15:00 PM 0.41 32.738 0.169 7.56 1.86 14.06
12/8/2020 9:30:00 PM 0.36 32.648 0.169 7.56 1.81 14.08
12/8/2020 9:45:00 PM 0.31 32.558 0.169 7.56 1.85 14.09
12/8/2020 10:00:00 PM 0.28 32.504 0.169 7.55 1.86 14.11
12/8/2020 10:15:00 PM 0.23 32.414 0.169 7.56 1.85 14.14
12/8/2020 10:30:00 PM 0.2 32.36 0.169 7.55 1.84 14.15
12/8/2020 10:45:00 PM 0.18 32.324 0.169 7.55 1.81 14.16
12/8/2020 11:00:00 PM 0.16 32.288 0.169 7.55 1.8 14.18
12/8/2020 11:15:00 PM 0.16 32.288 0.169 7.55 1.8 14.19
12/8/2020 11:30:00 PM 0.16 32.288 0.169 7.55 1.84 14.19
12/8/2020 11:45:00 PM 0.16 32.288 0.169 7.55 1.8 14.19
12/9/2020 12:00:00 AM 0.16 32.288 0.169 7.55 1.83 14.19
12/9/2020 12:15:00 AM 0.16 32.288 0.169 7.55 1.79 14.19
12/9/2020 12:30:00 AM 0.15 32.27 0.169 7.55 1.82 14.19
12/9/2020 12:45:00 AM 0.13 32.234 0.169 7.55 1.82 14.19
12/9/2020 1:00:00 AM 0.12 32.216 0.169 7.55 1.88 14.2
12/9/2020 1:15:00 AM 0.11 32.198 0.169 7.55 1.84 14.2
12/9/2020 1:30:00 AM 0.1 32.18 0.169 7.55 1.87 14.21
12/9/2020 1:45:00 AM 0.09 32.162 0.169 7.55 1.83 14.21
12/9/2020 2:00:00 AM 0.09 32.162 0.169 7.54 1.84 14.21
12/9/2020 2:15:00 AM 0.08 32.144 0.169 7.54 1.85 14.22
12/9/2020 2:30:00 AM 0.08 32.144 0.169 7.54 1.83 14.22
12/9/2020 2:45:00 AM 0.07 32.126 0.169 7.54 1.82 14.22
12/9/2020 3:00:00 AM 0.06 32.108 0.169 7.54 1.82 14.22
12/9/2020 3:15:00 AM 0.05 32.09 0.169 7.54 1.83 14.22
12/9/2020 3:30:00 AM 0.05 32.09 0.169 7.54 1.82 14.23
12/9/2020 3:45:00 AM 0.04 32.072 0.169 7.54 1.83 14.23
12/9/2020 4:00:00 AM 0.04 32.072 0.169 7.54 1.81 14.23
12/9/2020 4:15:00 AM 0.05 32.09 0.169 7.54 1.83 14.23
12/9/2020 4:30:00 AM 0.05 32.09 0.169 7.54 1.87 14.22
12/9/2020 4:45:00 AM 0.05 32.09 0.169 7.54 1.86 14.22
12/9/2020 5:00:00 AM 0.05 32.09 0.169 7.54 1.82 14.22
12/9/2020 5:15:00 AM 0.05 32.09 0.169 7.54 1.86 14.22
12/9/2020 5:30:00 AM 0.05 32.09 0.169 7.54 1.86 14.22
12/9/2020 5:45:00 AM 0.06 32.108 0.169 7.54 1.86 14.21
12/9/2020 6:00:00 AM 0.06 32.108 0.169 7.54 1.84 14.21
12/9/2020 6:15:00 AM 0.07 32.126 0.169 7.54 1.85 14.21
12/9/2020 6:30:00 AM 0.08 32.144 0.169 7.53 1.87 14.21
12/9/2020 6:45:00 AM 0.09 32.162 0.168 7.54 1.86 14.21
12/9/2020 7:00:00 AM 0.1 32.18 0.168 7.54 1.85 14.2
12/9/2020 7:15:00 AM 0.11 32.198 0.168 7.54 1.88 14.2
12/9/2020 7:30:00 AM 0.12 32.216 0.168 7.54 1.87 14.2
12/9/2020 7:45:00 AM 0.14 32.252 0.168 7.54 1.86 14.2
12/9/2020 8:00:00 AM 0.12 32.216 0.168 7.55 1.91 14.21
12/9/2020 8:15:00 AM 0.05 32.09 0.168 7.55 2.02 14.23
12/9/2020 8:30:00 AM -0.02 31.964 0.168 7.55 2.01 14.28
12/9/2020 8:45:00 AM -0.07 31.874 0.167 7.56 2.37 14.33
12/9/2020 9:00:00 AM -0.08 31.856 0.167 7.59 4.02 14.39
12/9/2020 9:15:00 AM -0.09 31.838 0.167 7.61 2.84 14.47
12/9/2020 9:30:00 AM -0.09 31.838 0.167 7.63 2.72 14.52
12/9/2020 9:45:00 AM -0.09 31.838 0.167 7.65 2.87 14.57
12/9/2020 10:00:00 AM -0.09 31.838 0.167 7.66 2.86 14.61
12/9/2020 10:15:00 AM -0.09 31.838 0.167 7.69 2.92 14.7
12/9/2020 10:30:00 AM -0.08 31.856 0.166 7.7 2.79 14.78
12/9/2020 10:45:00 AM -0.07 31.874 0.166 7.74 2.24 14.84
12/9/2020 11:00:00 AM -0.05 31.91 0.166 7.77 2.05 14.88
12/9/2020 11:15:00 AM -0.03 31.946 0.166 7.78 2.13 14.89
12/9/2020 11:30:00 AM -0.03 31.946 0.165 7.8 2.09 14.93
12/9/2020 11:45:00 AM -0.02 31.964 0.165 7.82 2.06 14.98
12/9/2020 12:00:00 PM 0 32 0.165 7.85 2.05 15.01
12/9/2020 12:15:00 PM 0.02 32.036 0.165 7.87 1.97 15.03
12/9/2020 12:30:00 PM 0.03 32.054 0.165 7.89 1.93 15.05
12/9/2020 12:45:00 PM 0.08 32.144 0.164 7.91 1.89 15.04
12/9/2020 1:00:00 PM 0.11 32.198 0.164 7.93 1.89 15.04
12/9/2020 1:15:00 PM 0.13 32.234 0.164 7.95 1.9 15.03
12/9/2020 1:30:00 PM 0.14 32.252 0.164 7.96 1.92 15.01
12/9/2020 1:45:00 PM 0.16 32.288 0.164 7.97 1.91 15
12/9/2020 2:00:00 PM 0.18 32.324 0.164 7.99 1.93 14.99
12/9/2020 2:15:00 PM 0.21 32.378 0.163 8.01 1.9 14.99
12/9/2020 2:30:00 PM 0.21 32.378 0.163 8.02 1.95 14.96
12/9/2020 2:45:00 PM 0.23 32.414 0.163 7.99 1.95 14.9
12/9/2020 3:00:00 PM 0.24 32.432 0.163 7.97 1.96 14.85
12/9/2020 3:15:00 PM 0.25 32.45 0.163 7.94 1.98 14.79
12/9/2020 3:30:00 PM 0.25 32.45 0.163 7.89 1.94 14.72
12/9/2020 3:45:00 PM 0.24 32.432 0.164 7.85 1.95 14.65
12/9/2020 4:00:00 PM 0.24 32.432 0.164 7.82 1.95 14.59
12/9/2020 4:15:00 PM 0.23 32.414 0.164 7.78 1.95 14.53
12/9/2020 4:30:00 PM 0.23 32.414 0.164 7.75 1.95 14.47
12/9/2020 4:45:00 PM 0.22 32.396 0.164 7.72 1.91 14.42
12/9/2020 5:00:00 PM 0.22 32.396 0.164 7.7 1.94 14.38
12/9/2020 5:15:00 PM 0.22 32.396 0.164 7.67 1.92 14.34
12/9/2020 5:30:00 PM 0.22 32.396 0.164 7.66 1.9 14.31
12/9/2020 5:45:00 PM 0.23 32.414 0.164 7.64 1.93 14.28
12/9/2020 6:00:00 PM 0.23 32.414 0.165 7.63 1.95 14.26
12/9/2020 6:15:00 PM 0.24 32.432 0.165 7.62 1.95 14.24
12/9/2020 6:30:00 PM 0.25 32.45 0.165 7.61 1.93 14.22
12/9/2020 6:45:00 PM 0.26 32.468 0.165 7.6 1.92 14.21
12/9/2020 7:00:00 PM 0.27 32.486 0.165 7.6 1.92 14.19
12/9/2020 7:15:00 PM 0.29 32.522 0.165 7.6 1.91 14.18
12/9/2020 7:30:00 PM 0.3 32.54 0.165 7.59 1.89 14.17
12/9/2020 7:45:00 PM 0.32 32.576 0.165 7.58 1.93 14.16
12/9/2020 8:00:00 PM 0.34 32.612 0.165 7.58 1.96 14.15
12/9/2020 8:15:00 PM 0.36 32.648 0.165 7.58 1.91 14.13
12/9/2020 8:30:00 PM 0.38 32.684 0.165 7.57 1.9 14.12
12/9/2020 8:45:00 PM 0.4 32.72 0.166 7.57 1.9 14.11
12/9/2020 9:00:00 PM 0.42 32.756 0.166 7.57 1.92 14.1
12/9/2020 9:15:00 PM 0.44 32.792 0.166 7.56 1.9 14.09
12/9/2020 9:30:00 PM 0.46 32.828 0.166 7.57 1.88 14.08
12/9/2020 9:45:00 PM 0.47 32.846 0.166 7.56 1.89 14.07
12/9/2020 10:00:00 PM 0.49 32.882 0.166 7.56 1.9 14.06
12/9/2020 10:15:00 PM 0.51 32.918 0.166 7.56 1.9 14.05
12/9/2020 10:30:00 PM 0.52 32.936 0.166 7.56 1.88 14.04
12/9/2020 10:45:00 PM 0.54 32.972 0.166 7.56 1.87 14.04
12/9/2020 11:00:00 PM 0.55 32.99 0.167 7.56 1.89 14.03
12/9/2020 11:15:00 PM 0.57 33.026 0.167 7.55 1.9 14.02
12/9/2020 11:30:00 PM 0.58 33.044 0.167 7.55 1.89 14.01
12/9/2020 11:45:00 PM 0.59 33.062 0.167 7.56 1.86 14.01
12/10/2020 12:00:00 AM 0.61 33.098 0.167 7.56 1.87 14
12/10/2020 12:15:00 AM 0.62 33.116 0.167 7.55 1.87 14
12/10/2020 12:30:00 AM 0.64 33.152 0.167 7.55 1.88 13.99
12/10/2020 12:45:00 AM 0.65 33.17 0.167 7.54 1.89 13.99
12/10/2020 1:00:00 AM 0.66 33.188 0.166 7.55 1.88 13.98
12/10/2020 1:15:00 AM 0.68 33.224 0.166 7.54 1.83 13.98
12/10/2020 1:30:00 AM 0.69 33.242 0.166 7.54 1.86 13.97
12/10/2020 1:45:00 AM 0.7 33.26 0.166 7.55 1.84 13.96
12/10/2020 2:00:00 AM 0.71 33.278 0.166 7.54 1.86 13.96
12/10/2020 2:15:00 AM 0.72 33.296 0.166 7.55 1.82 13.96
12/10/2020 2:30:00 AM 0.73 33.314 0.166 7.55 1.84 13.96
12/10/2020 2:45:00 AM 0.74 33.332 0.165 7.55 1.85 13.95
12/10/2020 3:00:00 AM 0.75 33.35 0.165 7.54 1.84 13.95
12/10/2020 3:15:00 AM 0.76 33.368 0.165 7.54 1.89 13.95
12/10/2020 3:30:00 AM 0.77 33.386 0.165 7.54 1.84 13.95
12/10/2020 3:45:00 AM 0.78 33.404 0.165 7.54 1.86 13.94
12/10/2020 4:00:00 AM 0.79 33.422 0.165 7.54 1.84 13.94
12/10/2020 4:15:00 AM 0.8 33.44 0.165 7.55 1.88 13.94
12/10/2020 4:30:00 AM 0.81 33.458 0.165 7.54 1.86 13.94
12/10/2020 4:45:00 AM 0.82 33.476 0.165 7.54 1.83 13.94
12/10/2020 5:00:00 AM 0.83 33.494 0.165 7.54 1.87 13.94
12/10/2020 5:15:00 AM 0.84 33.512 0.165 7.54 1.86 13.94
12/10/2020 5:30:00 AM 0.85 33.53 0.165 7.53 1.86 13.94
12/10/2020 5:45:00 AM 0.85 33.53 0.165 7.53 1.9 13.93
12/10/2020 6:00:00 AM 0.86 33.548 0.165 7.53 1.89 13.94
12/10/2020 6:15:00 AM 0.87 33.566 0.165 7.53 1.84 13.94
12/10/2020 6:30:00 AM 0.87 33.566 0.165 7.53 2.44 13.94
12/10/2020 6:45:00 AM 0.88 33.584 0.165 7.53 2.58 13.94
12/10/2020 7:00:00 AM 0.88 33.584 0.165 7.53 3.78 13.94
12/10/2020 7:15:00 AM 0.88 33.584 0.164 7.53 4.43 13.94
12/10/2020 7:30:00 AM 0.89 33.602 0.164 7.53 1.95 13.97
12/10/2020 7:45:00 AM 0.88 33.584 0.164 7.54 1.97 14.03
12/10/2020 8:00:00 AM 0.89 33.602 0.164 7.55 2.03 14.11
12/10/2020 8:15:00 AM 0.91 33.638 0.164 7.58 1.95 14.21
12/10/2020 8:30:00 AM 0.94 33.692 0.164 7.61 2 14.31
12/10/2020 8:45:00 AM 0.95 33.71 0.164 7.65 438.77 14.38
12/10/2020 9:00:00 AM 1 33.8 0.164 7.69 1.9 14.46
12/10/2020 9:15:00 AM 1.06 33.908 0.163 7.73 1.84 14.53
12/10/2020 9:30:00 AM 1.13 34.034 0.163 7.77 1.89 14.6
12/10/2020 9:45:00 AM 1.18 34.124 0.163 7.81 1.87 14.64
12/10/2020 10:00:00 AM 1.28 34.304 0.163 7.86 1.87 14.68
12/10/2020 10:15:00 AM 1.38 34.484 0.162 7.9 1.89 14.7
12/10/2020 10:30:00 AM 1.49 34.682 0.162 7.94 1.85 14.71
12/10/2020 10:45:00 AM 1.59 34.862 0.162 7.98 1.88 14.7
12/10/2020 11:00:00 AM 1.67 35.006 0.162 8.01 1.84 14.68
12/10/2020 11:15:00 AM 1.75 35.15 0.162 8.05 1.85 14.66
12/10/2020 11:30:00 AM 1.82 35.276 0.161 8.08 1.87 14.65
12/10/2020 11:45:00 AM 1.9 35.42 0.161 8.1 1.87 14.64
12/10/2020 12:00:00 PM 1.99 35.582 0.161 8.13 1.88 14.63
12/10/2020 12:15:00 PM 2.05 35.69 0.161 8.16 1.85 14.61
12/10/2020 12:30:00 PM 2.11 35.798 0.161 8.17 1.83 14.58
12/10/2020 12:45:00 PM 2.17 35.906 0.161 8.2 1.86 14.57
12/10/2020 1:00:00 PM 2.23 36.014 0.161 8.22 1.82 14.56
12/10/2020 1:15:00 PM 2.29 36.122 0.161 8.24 1.82 14.54
12/10/2020 1:30:00 PM 2.35 36.23 0.161 8.26 1.84 14.51
12/10/2020 1:45:00 PM 2.4 36.32 0.161 8.28 1.87 14.47
12/10/2020 2:00:00 PM 2.45 36.41 0.161 8.29 1.83 14.44
12/10/2020 2:15:00 PM 2.49 36.482 0.162 8.3 1.85 14.41
12/10/2020 2:30:00 PM 2.53 36.554 0.162 8.31 1.84 14.38
12/10/2020 2:45:00 PM 2.53 36.554 0.162 8.29 1.87 14.31
12/10/2020 3:00:00 PM 2.52 36.536 0.162 8.26 1.82 14.23
12/10/2020 3:15:00 PM 2.5 36.5 0.162 8.23 1.82 14.17
12/10/2020 3:30:00 PM 2.48 36.464 0.162 8.2 1.82 14.13
12/10/2020 3:45:00 PM 2.45 36.41 0.162 8.15 1.85 14.09
12/10/2020 4:00:00 PM 2.41 36.338 0.163 8.1 1.82 14.04
12/10/2020 4:15:00 PM 2.36 36.248 0.163 8.03 1.83 13.99
12/10/2020 4:30:00 PM 2.3 36.14 0.163 7.97 1.82 13.92
12/10/2020 4:45:00 PM 2.25 36.05 0.163 7.9 1.79 13.85
12/10/2020 5:00:00 PM 2.19 35.942 0.163 7.84 1.82 13.78
12/10/2020 5:15:00 PM 2.14 35.852 0.164 7.78 1.8 13.74
12/10/2020 5:30:00 PM 2.08 35.744 0.164 7.74 1.82 13.7
12/10/2020 5:45:00 PM 2.03 35.654 0.164 7.7 1.83 13.67
12/10/2020 6:00:00 PM 1.98 35.564 0.164 7.68 1.83 13.65
12/10/2020 6:15:00 PM 1.93 35.474 0.165 7.66 1.81 13.64
12/10/2020 6:30:00 PM 1.89 35.402 0.165 7.64 1.84 13.64
12/10/2020 6:45:00 PM 1.84 35.312 0.165 7.63 1.81 13.63
12/10/2020 7:00:00 PM 1.8 35.24 0.165 7.62 1.81 13.64
12/10/2020 7:15:00 PM 1.76 35.168 0.166 7.61 1.81 13.65
12/10/2020 7:30:00 PM 1.71 35.078 0.166 7.6 1.81 13.65
12/10/2020 7:45:00 PM 1.67 35.006 0.166 7.59 1.83 13.67
12/10/2020 8:00:00 PM 1.62 34.916 0.166 7.58 1.82 13.68
12/10/2020 8:15:00 PM 1.57 34.826 0.167 7.57 1.81 13.7
12/10/2020 8:30:00 PM 1.53 34.754 0.167 7.57 1.82 13.71
12/10/2020 8:45:00 PM 1.48 34.664 0.167 7.56 1.83 13.74
12/10/2020 9:00:00 PM 1.44 34.592 0.167 7.56 1.83 13.75
12/10/2020 9:15:00 PM 1.4 34.52 0.167 7.56 1.83 13.76
12/10/2020 9:30:00 PM 1.36 34.448 0.167 7.55 1.8 13.78
12/10/2020 9:45:00 PM 1.33 34.394 0.167 7.55 1.83 13.79
12/10/2020 10:00:00 PM 1.3 34.34 0.167 7.55 1.81 13.81
12/10/2020 10:15:00 PM 1.28 34.304 0.167 7.54 1.82 13.82
12/10/2020 10:30:00 PM 1.25 34.25 0.167 7.54 1.82 13.83
12/10/2020 10:45:00 PM 1.23 34.214 0.167 7.54 1.82 13.84
12/10/2020 11:00:00 PM 1.19 34.142 0.167 7.55 1.78 13.86
12/10/2020 11:15:00 PM 1.14 34.052 0.167 7.54 1.8 13.86
12/10/2020 11:30:00 PM 1.1 33.98 0.167 7.53 1.8 13.89
12/10/2020 11:45:00 PM 1.05 33.89 0.167 7.53 1.8 13.9
12/11/2020 12:00:00 AM 1 33.8 0.167 7.53 1.85 13.92
12/11/2020 12:15:00 AM 0.95 33.71 0.167 7.53 1.83 13.93
12/11/2020 12:30:00 AM 0.91 33.638 0.167 7.53 1.8 13.95
12/11/2020 12:45:00 AM 0.87 33.566 0.167 7.53 1.82 13.96
12/11/2020 1:00:00 AM 0.83 33.494 0.167 7.52 1.86 13.97
12/11/2020 1:15:00 AM 0.79 33.422 0.167 7.52 1.84 13.99
12/11/2020 1:30:00 AM 0.74 33.332 0.167 7.52 1.83 14.01
12/11/2020 1:45:00 AM 0.7 33.26 0.167 7.52 1.84 14.03
12/11/2020 2:00:00 AM 0.67 33.206 0.167 7.52 1.81 14.04
12/11/2020 2:15:00 AM 0.63 33.134 0.167 7.52 1.85 14.06
12/11/2020 2:30:00 AM 0.6 33.08 0.167 7.51 1.83 14.08
12/11/2020 2:45:00 AM 0.56 33.008 0.167 7.51 1.78 14.1
12/11/2020 3:00:00 AM 0.53 32.954 0.167 7.51 1.81 14.11
12/11/2020 3:15:00 AM 0.5 32.9 0.167 7.51 1.84 14.12
12/11/2020 3:30:00 AM 0.46 32.828 0.167 7.52 1.83 14.15
12/11/2020 3:45:00 AM 0.43 32.774 0.167 7.51 1.84 14.15
12/11/2020 4:00:00 AM 0.4 32.72 0.167 7.51 1.83 14.17
12/11/2020 4:15:00 AM 0.36 32.648 0.167 7.51 1.86 14.18
12/11/2020 4:30:00 AM 0.33 32.594 0.167 7.51 1.84 14.2
12/11/2020 4:45:00 AM 0.3 32.54 0.167 7.51 1.84 14.21
12/11/2020 5:00:00 AM 0.27 32.486 0.167 7.51 1.85 14.23
12/11/2020 5:15:00 AM 0.24 32.432 0.167 7.52 1.81 14.24
12/11/2020 5:30:00 AM 0.21 32.378 0.167 7.51 1.88 14.25
12/11/2020 5:45:00 AM 0.19 32.342 0.167 7.51 1.86 14.27
12/11/2020 6:00:00 AM 0.16 32.288 0.167 7.51 1.85 14.27
12/11/2020 6:15:00 AM 0.14 32.252 0.167 7.51 1.86 14.28
12/11/2020 6:30:00 AM 0.12 32.216 0.167 7.51 1.83 14.29
12/11/2020 6:45:00 AM 0.1 32.18 0.167 7.51 1.89 14.31
12/11/2020 7:00:00 AM 0.08 32.144 0.167 7.51 1.83 14.32
12/11/2020 7:15:00 AM 0.06 32.108 0.167 7.51 1.86 14.33
12/11/2020 7:30:00 AM 0.05 32.09 0.167 7.51 1.88 14.35
12/11/2020 7:45:00 AM 0.04 32.072 0.167 7.53 1.83 14.41
12/11/2020 8:00:00 AM 0.03 32.054 0.167 7.54 1.86 14.47
12/11/2020 8:15:00 AM 0.03 32.054 0.167 7.56 1.86 14.54
12/11/2020 8:30:00 AM 0.04 32.072 0.167 7.59 1.86 14.63
12/11/2020 8:45:00 AM 0.05 32.09 0.166 7.61 1.85 14.7
12/11/2020 9:00:00 AM 0.08 32.144 0.166 7.64 1.87 14.77
12/11/2020 9:15:00 AM 0.13 32.234 0.166 7.67 1.87 14.84
12/11/2020 9:30:00 AM 0.19 32.342 0.166 7.7 1.83 14.9
12/11/2020 9:45:00 AM 0.26 32.468 0.166 7.74 1.83 14.94
12/11/2020 10:00:00 AM 0.34 32.612 0.165 7.77 1.85 14.95
12/11/2020 10:15:00 AM 0.44 32.792 0.165 7.81 1.81 14.95
12/11/2020 10:30:00 AM 0.56 33.008 0.165 7.83 1.83 14.96
12/11/2020 10:45:00 AM 0.69 33.242 0.165 7.86 1.86 14.93
12/11/2020 11:00:00 AM 0.83 33.494 0.164 7.9 1.84 14.9
12/11/2020 11:15:00 AM 0.98 33.764 0.164 7.93 1.85 14.88
12/11/2020 11:30:00 AM 1.12 34.016 0.164 7.95 1.85 14.85
12/11/2020 11:45:00 AM 1.22 34.196 0.164 7.97 1.84 14.81
12/11/2020 12:00:00 PM 1.37 34.466 0.164 8 1.84 14.8
12/11/2020 12:15:00 PM 1.45 34.61 0.163 8.01 1.83 14.73
12/11/2020 12:30:00 PM 1.56 34.808 0.163 8.02 1.83 14.71
12/11/2020 12:45:00 PM 1.66 34.988 0.163 8.05 1.82 14.68
12/11/2020 1:00:00 PM 1.74 35.132 0.163 8.06 1.77 14.62
12/11/2020 1:15:00 PM 1.85 35.33 0.163 8.06 1.82 14.57
12/11/2020 1:30:00 PM 1.93 35.474 0.163 8.07 1.83 14.5
12/11/2020 1:45:00 PM 2.01 35.618 0.163 8.07 1.83 14.45
12/11/2020 2:00:00 PM 2.08 35.744 0.162 8.08 1.82 14.42
12/11/2020 2:15:00 PM 2.14 35.852 0.162 8.08 1.8 14.38
12/11/2020 2:30:00 PM 2.21 35.978 0.162 8.09 1.82 14.36
12/11/2020 2:45:00 PM 2.29 36.122 0.162 8.12 1.81 14.36
12/11/2020 3:00:00 PM 2.35 36.23 0.162 8.14 1.79 14.34
12/11/2020 3:15:00 PM 2.36 36.248 0.162 8.12 1.78 14.27
12/11/2020 3:30:00 PM 2.38 36.284 0.162 8.1 1.81 14.21
12/11/2020 3:45:00 PM 2.37 36.266 0.163 8.07 1.77 14.15
12/11/2020 4:00:00 PM 2.37 36.266 0.163 8.04 1.8 14.09
12/11/2020 4:15:00 PM 2.34 36.212 0.163 7.98 1.8 14.01
12/11/2020 4:30:00 PM 2.3 36.14 0.163 7.93 1.81 13.92
12/11/2020 4:45:00 PM 2.25 36.05 0.164 7.86 1.82 13.84
12/11/2020 5:00:00 PM 2.19 35.942 0.164 7.81 1.8 13.77
12/11/2020 5:15:00 PM 2.13 35.834 0.164 7.76 1.85 13.72
12/11/2020 5:30:00 PM 2.07 35.726 0.164 7.72 1.82 13.69
12/11/2020 5:45:00 PM 2.02 35.636 0.165 7.68 1.82 13.67
12/11/2020 6:00:00 PM 1.96 35.528 0.165 7.66 1.84 13.66
12/11/2020 6:15:00 PM 1.91 35.438 0.165 7.64 1.86 13.65
12/11/2020 6:30:00 PM 1.86 35.348 0.165 7.62 1.81 13.65
12/11/2020 6:45:00 PM 1.81 35.258 0.165 7.61 1.8 13.65
12/11/2020 7:00:00 PM 1.76 35.168 0.166 7.6 1.84 13.66
12/11/2020 7:15:00 PM 1.72 35.096 0.166 7.59 1.84 13.66
12/11/2020 7:30:00 PM 1.68 35.024 0.166 7.58 1.83 13.67
12/11/2020 7:45:00 PM 1.64 34.952 0.166 7.57 1.84 13.67
12/11/2020 8:00:00 PM 1.6 34.88 0.166 7.57 1.88 13.69
12/11/2020 8:15:00 PM 1.57 34.826 0.166 7.56 1.86 13.69
12/11/2020 8:30:00 PM 1.54 34.772 0.166 7.56 1.84 13.71
12/11/2020 8:45:00 PM 1.5 34.7 0.166 7.55 1.81 13.72
12/11/2020 9:00:00 PM 1.47 34.646 0.166 7.55 1.82 13.73
12/11/2020 9:15:00 PM 1.44 34.592 0.166 7.55 1.83 13.74
12/11/2020 9:30:00 PM 1.42 34.556 0.166 7.55 1.84 13.75
12/11/2020 9:45:00 PM 1.39 34.502 0.167 7.54 1.83 13.76
12/11/2020 10:00:00 PM 1.37 34.466 0.167 7.54 1.84 13.77
12/11/2020 10:15:00 PM 1.35 34.43 0.166 7.54 1.81 13.78
12/11/2020 10:30:00 PM 1.34 34.412 0.166 7.53 1.8 13.79
12/11/2020 10:45:00 PM 1.33 34.394 0.166 7.54 1.82 13.8
12/11/2020 11:00:00 PM 1.32 34.376 0.166 7.53 1.85 13.8
12/11/2020 11:15:00 PM 1.32 34.376 0.166 7.54 1.81 13.8
12/11/2020 11:30:00 PM 1.31 34.358 0.166 7.53 1.82 13.8
12/11/2020 11:45:00 PM 1.3 34.34 0.166 7.53 1.8 13.8
12/12/2020 12:00:00 AM 1.29 34.322 0.166 7.53 1.83 13.81
12/12/2020 12:15:00 AM 1.27 34.286 0.166 7.52 1.84 13.81
12/12/2020 12:30:00 AM 1.25 34.25 0.166 7.52 1.86 13.82
12/12/2020 12:45:00 AM 1.24 34.232 0.166 7.52 1.85 13.83
12/12/2020 1:00:00 AM 1.22 34.196 0.166 7.52 1.85 13.83
12/12/2020 1:15:00 AM 1.2 34.16 0.166 7.52 1.86 13.84
12/12/2020 1:30:00 AM 1.18 34.124 0.166 7.51 1.85 13.85
12/12/2020 1:45:00 AM 1.15 34.07 0.166 7.51 1.86 13.85
12/12/2020 2:00:00 AM 1.13 34.034 0.166 7.51 1.84 13.86
12/12/2020 2:15:00 AM 1.12 34.016 0.166 7.51 1.88 13.87
12/12/2020 2:30:00 AM 1.11 33.998 0.166 7.51 1.89 13.87
12/12/2020 2:45:00 AM 1.1 33.98 0.166 7.51 1.9 13.87
12/12/2020 3:00:00 AM 1.1 33.98 0.166 7.51 1.84 13.88
12/12/2020 3:15:00 AM 1.09 33.962 0.166 7.51 1.88 13.88
12/12/2020 3:30:00 AM 1.09 33.962 0.166 7.51 1.87 13.88
12/12/2020 3:45:00 AM 1.09 33.962 0.166 7.52 1.87 13.88
12/12/2020 4:00:00 AM 1.08 33.944 0.166 7.51 1.87 13.89
12/12/2020 4:15:00 AM 1.07 33.926 0.166 7.51 1.84 13.89
12/12/2020 4:30:00 AM 1.06 33.908 0.166 7.51 1.89 13.88
12/12/2020 4:45:00 AM 1.06 33.908 0.166 7.51 1.84 13.89
12/12/2020 5:00:00 AM 1.04 33.872 0.166 7.51 1.83 13.89
12/12/2020 5:15:00 AM 1.03 33.854 0.166 7.51 1.87 13.89
12/12/2020 5:30:00 AM 1.02 33.836 0.166 7.51 1.85 13.89
12/12/2020 5:45:00 AM 1.01 33.818 0.166 7.5 1.85 13.89
12/12/2020 6:00:00 AM 0.99 33.782 0.166 7.5 1.86 13.9
12/12/2020 6:15:00 AM 0.98 33.764 0.166 7.5 1.84 13.9
12/12/2020 6:30:00 AM 0.97 33.746 0.166 7.51 1.85 13.91
12/12/2020 6:45:00 AM 0.97 33.746 0.166 7.5 1.92 13.91
12/12/2020 7:00:00 AM 0.98 33.764 0.166 7.5 1.85 13.92
12/12/2020 7:15:00 AM 0.98 33.764 0.166 7.51 1.87 13.91
12/12/2020 7:30:00 AM 1 33.8 0.166 7.5 1.86 13.92
12/12/2020 7:45:00 AM 1.01 33.818 0.166 7.51 1.84 13.93
12/12/2020 8:00:00 AM 1.03 33.854 0.165 7.52 1.85 13.96
12/12/2020 8:15:00 AM 1.06 33.908 0.165 7.54 1.84 14.02
12/12/2020 8:30:00 AM 1.08 33.944 0.165 7.56 1.83 14.08
12/12/2020 8:45:00 AM 1.12 34.016 0.165 7.58 1.84 14.16
12/12/2020 9:00:00 AM 1.15 34.07 0.165 7.61 1.88 14.18
12/12/2020 9:15:00 AM 1.18 34.124 0.165 7.63 1.88 14.27
12/12/2020 9:30:00 AM 1.24 34.232 0.165 7.67 3.91 14.37
12/12/2020 9:45:00 AM 1.28 34.304 0.164 7.7 1.85 14.41
12/12/2020 10:00:00 AM 1.36 34.448 0.164 7.74 1.85 14.47
12/12/2020 10:15:00 AM 1.41 34.538 0.164 7.77 1.83 14.49
12/12/2020 10:30:00 AM 1.47 34.646 0.164 7.8 1.84 14.5
12/12/2020 10:45:00 AM 1.53 34.754 0.164 7.82 1.81 14.51
12/12/2020 11:00:00 AM 1.59 34.862 0.163 7.84 1.83 14.48
12/12/2020 11:15:00 AM 1.63 34.934 0.163 7.85 1.82 14.43
12/12/2020 11:30:00 AM 1.68 35.024 0.163 7.85 1.83 14.37
12/12/2020 11:45:00 AM 1.72 35.096 0.163 7.84 1.83 14.3
12/12/2020 12:00:00 PM 1.76 35.168 0.163 7.85 1.83 14.32
12/12/2020 12:15:00 PM 1.82 35.276 0.163 7.88 1.84 14.35
12/12/2020 12:30:00 PM 1.91 35.438 0.163 7.91 1.85 14.38
12/12/2020 12:45:00 PM 2.02 35.636 0.163 7.96 1.82 14.4
12/12/2020 1:00:00 PM 2.15 35.87 0.162 8 1.78 14.39
12/12/2020 1:15:00 PM 2.31 36.158 0.162 8.05 1.79 14.39
12/12/2020 1:30:00 PM 2.48 36.464 0.162 8.1 1.82 14.36
12/12/2020 1:45:00 PM 2.68 36.824 0.162 8.14 1.84 14.32
12/12/2020 2:00:00 PM 2.82 37.076 0.161 8.17 1.81 14.25
12/12/2020 2:15:00 PM 2.92 37.256 0.161 8.2 1.8 14.18
12/12/2020 2:30:00 PM 3.01 37.418 0.161 8.22 1.81 14.14
12/12/2020 2:45:00 PM 3.08 37.544 0.161 8.23 1.79 14.11
12/12/2020 3:00:00 PM 3.14 37.652 0.161 8.24 1.81 14.07
12/12/2020 3:15:00 PM 3.2 37.76 0.161 8.23 1.8 14.01
12/12/2020 3:30:00 PM 3.24 37.832 0.161 8.22 1.79 13.93
12/12/2020 3:45:00 PM 3.26 37.868 0.161 8.18 1.81 13.85
12/12/2020 4:00:00 PM 3.27 37.886 0.161 8.13 1.81 13.77
12/12/2020 4:15:00 PM 3.27 37.886 0.161 8.07 1.76 13.68
12/12/2020 4:30:00 PM 3.28 37.904 0.161 7.99 1.81 13.57
12/12/2020 4:45:00 PM 3.28 37.904 0.162 7.93 1.81 13.46
12/12/2020 5:00:00 PM 3.28 37.904 0.162 7.87 1.79 13.36
12/12/2020 5:15:00 PM 3.29 37.922 0.162 7.81 1.82 13.28
12/12/2020 5:30:00 PM 3.29 37.922 0.162 7.77 1.84 13.21
12/12/2020 5:45:00 PM 3.29 37.922 0.162 7.74 1.82 13.16
12/12/2020 6:00:00 PM 3.29 37.922 0.163 7.71 1.8 13.12
12/12/2020 6:15:00 PM 3.31 37.958 0.163 7.69 1.8 13.08
12/12/2020 6:30:00 PM 3.32 37.976 0.163 7.68 1.77 13.05
12/12/2020 6:45:00 PM 3.35 38.03 0.163 7.66 1.83 13.03
12/12/2020 7:00:00 PM 3.37 38.066 0.163 7.65 1.83 13
12/12/2020 7:15:00 PM 3.39 38.102 0.163 7.63 1.78 12.98
12/12/2020 7:30:00 PM 3.42 38.156 0.164 7.63 1.78 12.96
12/12/2020 7:45:00 PM 3.44 38.192 0.164 7.62 1.8 12.94
12/12/2020 8:00:00 PM 3.47 38.246 0.164 7.62 1.75 12.93
12/12/2020 8:15:00 PM 3.49 38.282 0.164 7.61 1.8 12.91
12/12/2020 8:30:00 PM 3.51 38.318 0.164 7.6 1.79 12.89
12/12/2020 8:45:00 PM 3.53 38.354 0.164 7.6 1.78 12.88
12/12/2020 9:00:00 PM 3.56 38.408 0.164 7.6 1.8 12.87
12/12/2020 9:15:00 PM 3.58 38.444 0.164 7.59 1.77 12.86
12/12/2020 9:30:00 PM 3.59 38.462 0.164 7.59 1.79 12.85
12/12/2020 9:45:00 PM 3.6 38.48 0.164 7.59 1.75 12.84
12/12/2020 10:00:00 PM 3.6 38.48 0.164 7.59 1.78 12.84
12/12/2020 10:15:00 PM 3.6 38.48 0.164 7.58 1.77 12.83
12/12/2020 10:30:00 PM 3.6 38.48 0.164 7.58 1.93 12.83
12/12/2020 10:45:00 PM 3.6 38.48 0.165 7.58 1.77 12.82
12/12/2020 11:00:00 PM 3.61 38.498 0.165 7.57 1.73 12.82
12/12/2020 11:15:00 PM 3.63 38.534 0.165 7.57 1.83 12.81
12/12/2020 11:30:00 PM 3.63 38.534 0.165 7.57 1.78 12.81
12/12/2020 11:45:00 PM 3.65 38.57 0.165 7.57 1.74 12.8
12/13/2020 12:00:00 AM 3.66 38.588 0.165 7.57 1.79 12.79
12/13/2020 12:15:00 AM 3.66 38.588 0.165 7.56 1.76 12.79
12/13/2020 12:30:00 AM 3.69 38.642 0.165 7.56 1.77 12.78
12/13/2020 12:45:00 AM 3.7 38.66 0.165 7.56 1.74 12.78
12/13/2020 1:00:00 AM 3.69 38.642 0.165 7.56 1.74 12.77
12/13/2020 1:15:00 AM 3.67 38.606 0.165 7.56 1.75 12.77
12/13/2020 1:30:00 AM 3.65 38.57 0.165 7.55 1.75 12.78
12/13/2020 1:45:00 AM 3.63 38.534 0.165 7.55 1.73 12.78
12/13/2020 2:00:00 AM 3.62 38.516 0.165 7.55 1.77 12.78
12/13/2020 2:15:00 AM 3.63 38.534 0.165 7.55 1.77 12.77
12/13/2020 2:30:00 AM 3.63 38.534 0.165 7.55 1.75 12.78
12/13/2020 2:45:00 AM 3.63 38.534 0.165 7.55 1.8 12.78
12/13/2020 3:00:00 AM 3.62 38.516 0.165 7.55 1.77 12.78
12/13/2020 3:15:00 AM 3.59 38.462 0.165 7.54 1.78 12.79
12/13/2020 3:30:00 AM 3.58 38.444 0.165 7.54 1.78 12.79
12/13/2020 3:45:00 AM 3.57 38.426 0.165 7.53 1.78 12.79
12/13/2020 4:00:00 AM 3.56 38.408 0.165 7.53 1.79 12.79
12/13/2020 4:15:00 AM 3.53 38.354 0.165 7.53 1.82 12.79
12/13/2020 4:30:00 AM 3.51 38.318 0.165 7.53 1.79 12.8
12/13/2020 4:45:00 AM 3.5 38.3 0.165 7.53 1.84 12.8
12/13/2020 5:00:00 AM 3.46 38.228 0.165 7.53 1.79 12.81
12/13/2020 5:15:00 AM 3.44 38.192 0.165 7.52 1.77 12.82
12/13/2020 5:30:00 AM 3.42 38.156 0.165 7.52 1.83 12.83
12/13/2020 5:45:00 AM 3.39 38.102 0.165 7.52 1.78 12.84
12/13/2020 6:00:00 AM 3.35 38.03 0.166 7.51 1.79 12.85
12/13/2020 6:15:00 AM 3.32 37.976 0.166 7.52 1.8 12.86
12/13/2020 6:30:00 AM 3.29 37.922 0.166 7.51 1.82 12.87
12/13/2020 6:45:00 AM 3.25 37.85 0.166 7.51 1.83 12.89
12/13/2020 7:00:00 AM 3.21 37.778 0.166 7.51 1.79 12.89
12/13/2020 7:15:00 AM 3.19 37.742 0.166 7.51 1.78 12.92
12/13/2020 7:30:00 AM 3.16 37.688 0.166 7.51 1.77 12.96
12/13/2020 7:45:00 AM 3.15 37.67 0.165 7.53 1.78 13.02
12/13/2020 8:00:00 AM 3.17 37.706 0.165 7.54 1.81 13.08
12/13/2020 8:15:00 AM 3.18 37.724 0.165 7.56 1.77 13.15
12/13/2020 8:30:00 AM 3.19 37.742 0.165 7.59 1.78 13.22
12/13/2020 8:45:00 AM 3.21 37.778 0.165 7.62 1.78 13.31
12/13/2020 9:00:00 AM 3.23 37.814 0.165 7.66 1.82 13.39
12/13/2020 9:15:00 AM 3.32 37.976 0.165 7.71 1.79 13.5
12/13/2020 9:30:00 AM 3.39 38.102 0.165 7.74 1.8 13.51
12/13/2020 9:45:00 AM 3.46 38.228 0.165 7.76 1.8 13.47
12/13/2020 10:00:00 AM 3.53 38.354 0.164 7.8 1.78 13.53
12/13/2020 10:15:00 AM 3.6 38.48 0.164 7.85 1.76 13.62
12/13/2020 10:30:00 AM 3.68 38.624 0.164 7.89 1.78 13.66
12/13/2020 10:45:00 AM 3.75 38.75 0.164 7.93 1.76 13.66
12/13/2020 11:00:00 AM 3.84 38.912 0.164 7.98 1.77 13.7
12/13/2020 11:15:00 AM 3.93 39.074 0.163 8.06 1.78 13.75
12/13/2020 11:30:00 AM 4.01 39.218 0.163 8.1 1.79 13.74
12/13/2020 11:45:00 AM 4.09 39.362 0.163 8.14 1.77 13.72
12/13/2020 12:00:00 PM 4.17 39.506 0.163 8.18 1.78 13.72
12/13/2020 12:15:00 PM 4.25 39.65 0.163 8.22 1.77 13.71
12/13/2020 12:30:00 PM 4.31 39.758 0.162 8.24 1.78 13.66
12/13/2020 12:45:00 PM 4.37 39.866 0.162 8.27 1.78 13.63
12/13/2020 1:00:00 PM 4.42 39.956 0.162 8.29 1.83 13.61
12/13/2020 1:15:00 PM 4.47 40.046 0.162 8.31 1.79 13.58
12/13/2020 1:30:00 PM 4.51 40.118 0.162 8.3 1.76 13.52
12/13/2020 1:45:00 PM 4.55 40.19 0.162 8.29 1.82 13.47
12/13/2020 2:00:00 PM 4.57 40.226 0.162 8.29 1.79 13.44
12/13/2020 2:15:00 PM 4.59 40.262 0.162 8.27 1.73 13.38
12/13/2020 2:30:00 PM 4.61 40.298 0.162 8.25 1.79 13.36
12/13/2020 2:45:00 PM 4.62 40.316 0.162 8.22 1.81 13.29
12/13/2020 3:00:00 PM 4.62 40.316 0.162 8.15 1.79 13.2
12/13/2020 3:15:00 PM 4.63 40.334 0.162 8.11 1.76 13.16
12/13/2020 3:30:00 PM 4.62 40.316 0.163 8.05 1.77 13.08
12/13/2020 3:45:00 PM 4.62 40.316 0.163 7.99 1.79 13.01
12/13/2020 4:00:00 PM 4.61 40.298 0.163 7.94 1.81 12.96
12/13/2020 4:15:00 PM 4.6 40.28 0.163 7.89 1.77 12.89
12/13/2020 4:30:00 PM 4.6 40.28 0.163 7.84 1.79 12.82
12/13/2020 4:45:00 PM 4.59 40.262 0.163 7.8 1.8 12.76
12/13/2020 5:00:00 PM 4.58 40.244 0.164 7.77 1.77 12.71
12/13/2020 5:15:00 PM 4.57 40.226 0.164 7.73 1.79 12.67
12/13/2020 5:30:00 PM 4.56 40.208 0.164 7.71 1.83 12.65
12/13/2020 5:45:00 PM 4.55 40.19 0.164 7.69 1.83 12.62
12/13/2020 6:00:00 PM 4.53 40.154 0.164 7.67 1.79 12.61
12/13/2020 6:15:00 PM 4.52 40.136 0.164 7.66 1.78 12.59
12/13/2020 6:30:00 PM 4.51 40.118 0.165 7.65 1.78 12.59
12/13/2020 6:45:00 PM 4.49 40.082 0.165 7.64 1.79 12.58
12/13/2020 7:00:00 PM 4.48 40.064 0.165 7.63 1.79 12.58
12/13/2020 7:15:00 PM 4.46 40.028 0.165 7.62 1.84 12.58
12/13/2020 7:30:00 PM 4.44 39.992 0.165 7.62 1.78 12.58
12/13/2020 7:45:00 PM 4.43 39.974 0.165 7.6 1.78 12.59
12/13/2020 8:00:00 PM 4.41 39.938 0.165 7.6 1.78 12.59
12/13/2020 8:15:00 PM 4.39 39.902 0.165 7.6 1.78 12.59
12/13/2020 8:30:00 PM 4.37 39.866 0.166 7.59 1.79 12.59
12/13/2020 8:45:00 PM 4.35 39.83 0.166 7.58 1.82 12.6
12/13/2020 9:00:00 PM 4.33 39.794 0.166 7.58 1.81 12.6
12/13/2020 9:15:00 PM 4.29 39.722 0.166 7.58 1.8 12.61
12/13/2020 9:30:00 PM 4.27 39.686 0.166 7.57 1.75 12.61
12/13/2020 9:45:00 PM 4.24 39.632 0.166 7.57 1.8 12.62
12/13/2020 10:00:00 PM 4.22 39.596 0.166 7.57 1.76 12.63
12/13/2020 10:15:00 PM 4.21 39.578 0.166 7.57 1.81 12.63
12/13/2020 10:30:00 PM 4.19 39.542 0.166 7.56 1.74 12.63
12/13/2020 10:45:00 PM 4.17 39.506 0.166 7.56 1.81 12.64
12/13/2020 11:00:00 PM 4.16 39.488 0.166 7.56 1.8 12.65
12/13/2020 11:15:00 PM 4.14 39.452 0.166 7.56 1.81 12.65
12/13/2020 11:30:00 PM 4.11 39.398 0.166 7.55 1.8 12.66
12/13/2020 11:45:00 PM 4.1 39.38 0.166 7.55 1.77 12.66
12/14/2020 12:00:00 AM 4.08 39.344 0.166 7.55 1.78 12.66
12/14/2020 12:15:00 AM 4.06 39.308 0.166 7.55 1.79 12.67
12/14/2020 12:30:00 AM 4.04 39.272 0.166 7.55 1.79 12.67
12/14/2020 12:45:00 AM 4.02 39.236 0.166 7.55 1.81 12.68
12/14/2020 1:00:00 AM 4.01 39.218 0.166 7.55 1.77 12.68
12/14/2020 1:15:00 AM 3.99 39.182 0.166 7.55 1.75 12.69
12/14/2020 1:30:00 AM 3.97 39.146 0.166 7.55 1.82 12.69
12/14/2020 1:45:00 AM 3.95 39.11 0.166 7.55 1.81 12.7
12/14/2020 2:00:00 AM 3.93 39.074 0.166 7.55 1.8 12.7
12/14/2020 2:15:00 AM 3.92 39.056 0.166 7.55 1.8 12.71
12/14/2020 2:30:00 AM 3.9 39.02 0.166 7.55 1.78 12.72
12/14/2020 2:45:00 AM 3.89 39.002 0.166 7.55 1.8 12.72
12/14/2020 3:00:00 AM 3.87 38.966 0.166 7.55 1.8 12.72
12/14/2020 3:15:00 AM 3.86 38.948 0.166 7.55 1.75 12.72
12/14/2020 3:30:00 AM 3.84 38.912 0.166 7.55 1.78 12.72
12/14/2020 3:45:00 AM 3.82 38.876 0.166 7.54 1.8 12.72
12/14/2020 4:00:00 AM 3.81 38.858 0.166 7.54 1.78 12.73
12/14/2020 4:15:00 AM 3.79 38.822 0.166 7.54 1.79 12.74
12/14/2020 4:30:00 AM 3.78 38.804 0.166 7.54 1.79 12.74
12/14/2020 4:45:00 AM 3.77 38.786 0.166 7.54 1.81 12.74
12/14/2020 5:00:00 AM 3.75 38.75 0.166 7.54 1.8 12.76
12/14/2020 5:15:00 AM 3.74 38.732 0.166 7.54 1.78 12.76
12/14/2020 5:30:00 AM 3.73 38.714 0.166 7.54 1.78 12.77
12/14/2020 5:45:00 AM 3.72 38.696 0.166 7.54 1.8 12.76
12/14/2020 6:00:00 AM 3.71 38.678 0.166 7.54 1.77 12.77
12/14/2020 6:15:00 AM 3.69 38.642 0.166 7.53 1.8 12.77
12/14/2020 6:30:00 AM 3.68 38.624 0.166 7.54 1.79 12.77
12/14/2020 6:45:00 AM 3.64 38.552 0.166 7.54 1.79 12.78
12/14/2020 7:00:00 AM 3.59 38.462 0.166 7.54 1.82 12.79
12/14/2020 7:15:00 AM 3.54 38.372 0.166 7.53 1.8 12.81
12/14/2020 7:30:00 AM 3.48 38.264 0.166 7.53 1.79 12.83
12/14/2020 7:45:00 AM 3.42 38.156 0.166 7.53 1.81 12.85
12/14/2020 8:00:00 AM 3.36 38.048 0.165 7.53 1.81 12.89
12/14/2020 8:15:00 AM 3.3 37.94 0.165 7.54 1.81 12.95
12/14/2020 8:30:00 AM 3.28 37.904 0.165 7.56 1.8 13.02
12/14/2020 8:45:00 AM 3.25 37.85 0.165 7.58 1.77 13.1
12/14/2020 9:00:00 AM 3.25 37.85 0.165 7.61 1.79 13.2
12/14/2020 9:15:00 AM 3.25 37.85 0.165 7.65 1.8 13.29
12/14/2020 9:30:00 AM 3.26 37.868 0.165 7.68 1.81 13.38
12/14/2020 9:45:00 AM 3.28 37.904 0.165 7.72 1.77 13.44
12/14/2020 10:00:00 AM 3.29 37.922 0.165 7.75 1.82 13.48
12/14/2020 10:15:00 AM 3.29 37.922 0.165 7.76 1.82 13.51
12/14/2020 10:30:00 AM 3.29 37.922 0.164 7.8 1.81 13.55
12/14/2020 10:45:00 AM 3.3 37.94 0.164 7.83 1.79 13.61
12/14/2020 11:00:00 AM 3.31 37.958 0.164 7.86 1.82 13.65
12/14/2020 11:15:00 AM 3.32 37.976 0.164 7.88 1.82 13.66
12/14/2020 11:30:00 AM 3.34 38.012 0.164 7.92 1.8 13.7
12/14/2020 11:45:00 AM 3.36 38.048 0.164 7.94 1.81 13.71
12/14/2020 12:00:00 PM 3.38 38.084 0.164 7.97 1.77 13.73
12/14/2020 12:15:00 PM 3.4 38.12 0.164 7.99 1.81 13.71
12/14/2020 12:30:00 PM 3.41 38.138 0.164 8 1.74 13.69
12/14/2020 12:45:00 PM 3.42 38.156 0.164 8 1.79 13.65
12/14/2020 1:00:00 PM 3.44 38.192 0.164 8.03 1.77 13.69
12/14/2020 1:15:00 PM 3.46 38.228 0.164 8.03 1.76 13.69
12/14/2020 1:30:00 PM 3.47 38.246 0.164 8.03 1.78 13.66
12/14/2020 1:45:00 PM 3.49 38.282 0.163 8.05 1.73 13.67
12/14/2020 2:00:00 PM 3.51 38.318 0.164 8.05 1.76 13.66
12/14/2020 2:15:00 PM 3.52 38.336 0.164 8.05 1.75 13.62
12/14/2020 2:30:00 PM 3.52 38.336 0.164 8.04 1.79 13.59
12/14/2020 2:45:00 PM 3.53 38.354 0.164 8.03 1.79 13.59
12/14/2020 3:00:00 PM 3.53 38.354 0.164 8.03 1.74 13.57
12/14/2020 3:15:00 PM 3.53 38.354 0.164 8.01 1.77 13.53
12/14/2020 3:30:00 PM 3.53 38.354 0.164 7.96 1.76 13.43
12/14/2020 3:45:00 PM 3.52 38.336 0.164 7.94 1.75 13.41
12/14/2020 4:00:00 PM 3.51 38.318 0.165 7.92 1.76 13.39
12/14/2020 4:15:00 PM 3.49 38.282 0.165 7.87 1.79 13.31
12/14/2020 4:30:00 PM 3.47 38.246 0.165 7.83 1.79 13.24
12/14/2020 4:45:00 PM 3.44 38.192 0.165 7.8 1.75 13.19
12/14/2020 5:00:00 PM 3.42 38.156 0.165 7.76 1.78 13.13
12/14/2020 5:15:00 PM 3.4 38.12 0.166 7.73 1.79 13.08
12/14/2020 5:30:00 PM 3.38 38.084 0.166 7.7 1.82 13.05
12/14/2020 5:45:00 PM 3.34 38.012 0.166 7.67 1.78 13.03
12/14/2020 6:00:00 PM 3.29 37.922 0.166 7.66 1.77 13.02
12/14/2020 6:15:00 PM 3.25 37.85 0.166 7.64 1.78 13.01
12/14/2020 6:30:00 PM 3.21 37.778 0.166 7.63 1.78 13.01
12/14/2020 6:45:00 PM 3.17 37.706 0.166 7.63 1.82 13.01
12/14/2020 7:00:00 PM 3.15 37.67 0.166 7.62 1.78 13.01
12/14/2020 7:15:00 PM 3.1 37.58 0.167 7.62 1.82 13.02
12/14/2020 7:30:00 PM 3.08 37.544 0.167 7.61 1.77 13.03
12/14/2020 7:45:00 PM 3.04 37.472 0.167 7.6 1.8 13.04
12/14/2020 8:00:00 PM 3.01 37.418 0.167 7.6 1.83 13.05
12/14/2020 8:15:00 PM 2.97 37.346 0.167 7.59 1.79 13.07
12/14/2020 8:30:00 PM 2.92 37.256 0.167 7.59 1.77 13.08
12/14/2020 8:45:00 PM 2.89 37.202 0.167 7.58 1.79 13.1
12/14/2020 9:00:00 PM 2.86 37.148 0.167 7.58 1.79 13.12
12/14/2020 9:15:00 PM 2.8 37.04 0.167 7.58 1.81 13.13
12/14/2020 9:30:00 PM 2.73 36.914 0.167 7.58 1.75 13.16
12/14/2020 9:45:00 PM 2.66 36.788 0.167 7.57 1.79 13.19
12/14/2020 10:00:00 PM 2.58 36.644 0.167 7.57 1.79 13.22
12/14/2020 10:15:00 PM 2.49 36.482 0.167 7.57 1.78 13.25
12/14/2020 10:30:00 PM 2.4 36.32 0.167 7.57 1.81 13.28
12/14/2020 10:45:00 PM 2.32 36.176 0.167 7.56 1.75 13.31
12/14/2020 11:00:00 PM 2.25 36.05 0.167 7.56 1.77 13.34
12/14/2020 11:15:00 PM 2.18 35.924 0.167 7.56 1.79 13.36
12/14/2020 11:30:00 PM 2.11 35.798 0.167 7.56 1.82 13.39
12/14/2020 11:45:00 PM 2.04 35.672 0.167 7.56 1.79 13.42
12/15/2020 12:00:00 AM 1.97 35.546 0.167 7.55 1.81 13.46
12/15/2020 12:15:00 AM 1.9 35.42 0.167 7.55 1.81 13.49
12/15/2020 12:30:00 AM 1.85 35.33 0.167 7.55 1.83 13.52
12/15/2020 12:45:00 AM 1.79 35.222 0.167 7.55 1.76 13.54
12/15/2020 1:00:00 AM 1.76 35.168 0.167 7.55 1.79 13.57
12/15/2020 1:15:00 AM 1.73 35.114 0.167 7.55 1.8 13.58
12/15/2020 1:30:00 AM 1.71 35.078 0.167 7.56 1.8 13.6
12/15/2020 1:45:00 AM 1.68 35.024 0.167 7.56 1.83 13.62
12/15/2020 2:00:00 AM 1.64 34.952 0.167 7.56 1.81 13.63
12/15/2020 2:15:00 AM 1.59 34.862 0.167 7.55 1.8 13.65
12/15/2020 2:30:00 AM 1.54 34.772 0.167 7.55 1.83 13.67
12/15/2020 2:45:00 AM 1.51 34.718 0.167 7.55 1.77 13.69
12/15/2020 3:00:00 AM 1.47 34.646 0.167 7.55 1.78 13.71
12/15/2020 3:15:00 AM 1.41 34.538 0.167 7.55 1.83 13.73
12/15/2020 3:30:00 AM 1.37 34.466 0.167 7.55 1.84 13.75
12/15/2020 3:45:00 AM 1.33 34.394 0.167 7.55 1.84 13.77
12/15/2020 4:00:00 AM 1.27 34.286 0.167 7.55 1.82 13.8
12/15/2020 4:15:00 AM 1.23 34.214 0.167 7.55 1.82 13.81
12/15/2020 4:30:00 AM 1.19 34.142 0.167 7.55 1.82 13.84
12/15/2020 4:45:00 AM 1.15 34.07 0.167 7.55 1.86 13.85
12/15/2020 5:00:00 AM 1.1 33.98 0.167 7.55 1.83 13.87
12/15/2020 5:15:00 AM 1.06 33.908 0.168 7.55 1.87 13.9
12/15/2020 5:30:00 AM 1.01 33.818 0.168 7.55 1.83 13.92
12/15/2020 5:45:00 AM 0.98 33.764 0.168 7.55 1.82 13.95
12/15/2020 6:00:00 AM 0.94 33.692 0.168 7.55 1.84 13.97
12/15/2020 6:15:00 AM 0.92 33.656 0.168 7.55 1.84 13.98
12/15/2020 6:30:00 AM 0.9 33.62 0.168 7.55 1.82 13.99
12/15/2020 6:45:00 AM 0.87 33.566 0.168 7.55 1.81 14.02
12/15/2020 7:00:00 AM 0.85 33.53 0.168 7.55 1.79 14.02
12/15/2020 7:15:00 AM 0.81 33.458 0.168 7.55 1.83 14.05
12/15/2020 7:30:00 AM 0.78 33.404 0.168 7.55 1.85 14.08
12/15/2020 7:45:00 AM 0.76 33.368 0.168 7.57 1.83 14.15
12/15/2020 8:00:00 AM 0.73 33.314 0.168 7.58 1.86 14.23
12/15/2020 8:15:00 AM 0.71 33.278 0.168 7.61 1.82 14.31
12/15/2020 8:30:00 AM 0.69 33.242 0.168 7.63 1.81 14.38
12/15/2020 8:45:00 AM 0.67 33.206 0.167 7.66 1.84 14.46
12/15/2020 9:00:00 AM 0.65 33.17 0.167 7.68 1.81 14.54
12/15/2020 9:15:00 AM 0.63 33.134 0.167 7.7 1.83 14.61
12/15/2020 9:30:00 AM 0.63 33.134 0.167 7.73 1.84 14.66
12/15/2020 9:45:00 AM 0.64 33.152 0.167 7.76 1.85 14.72
12/15/2020 10:00:00 AM 0.66 33.188 0.167 7.79 1.81 14.78
12/15/2020 10:15:00 AM 0.71 33.278 0.167 7.82 1.82 14.82
12/15/2020 10:30:00 AM 0.77 33.386 0.167 7.85 1.88 14.84
12/15/2020 10:45:00 AM 0.88 33.584 0.167 7.89 1.85 14.88
12/15/2020 11:00:00 AM 0.99 33.782 0.166 7.93 1.82 14.9
12/15/2020 11:15:00 AM 1.06 33.908 0.166 7.95 1.77 14.89
12/15/2020 11:30:00 AM 1.13 34.034 0.166 7.98 1.81 14.88
12/15/2020 11:45:00 AM 1.14 34.052 0.166 7.99 1.8 14.88
12/15/2020 12:00:00 PM 1.15 34.07 0.166 8 1.83 14.86
12/15/2020 12:15:00 PM 1.19 34.142 0.166 8.01 1.83 14.87
12/15/2020 12:30:00 PM 1.24 34.232 0.166 8.04 1.82 14.9
12/15/2020 12:45:00 PM 1.28 34.304 0.166 8.05 1.78 14.87
12/15/2020 1:00:00 PM 1.32 34.376 0.166 8.06 1.84 14.84
12/15/2020 1:15:00 PM 1.37 34.466 0.166 8.07 1.86 14.84
12/15/2020 1:30:00 PM 1.39 34.502 0.165 8.09 1.85 14.82
12/15/2020 1:45:00 PM 1.41 34.538 0.165 8.1 1.79 14.8
12/15/2020 2:00:00 PM 1.45 34.61 0.165 8.11 1.78 14.79
12/15/2020 2:15:00 PM 1.48 34.664 0.165 8.13 1.8 14.78
12/15/2020 2:30:00 PM 1.49 34.682 0.165 8.14 1.77 14.77
12/15/2020 2:45:00 PM 1.49 34.682 0.165 8.14 1.84 14.75
12/15/2020 3:00:00 PM 1.49 34.682 0.165 8.14 1.79 14.73
12/15/2020 3:15:00 PM 1.45 34.61 0.165 8.13 1.8 14.68
12/15/2020 3:30:00 PM 1.43 34.574 0.165 8.11 1.82 14.65
12/15/2020 3:45:00 PM 1.39 34.502 0.166 8.08 1.78 14.62
12/15/2020 4:00:00 PM 1.34 34.412 0.166 8.04 1.83 14.57
12/15/2020 4:15:00 PM 1.28 34.304 0.166 7.99 1.8 14.51
12/15/2020 4:30:00 PM 1.21 34.178 0.166 7.93 1.81 14.45
12/15/2020 4:45:00 PM 1.15 34.07 0.167 7.88 1.79 14.39
12/15/2020 5:00:00 PM 1.07 33.926 0.167 7.83 1.8 14.34
12/15/2020 5:15:00 PM 1 33.8 0.167 7.78 1.78 14.31
12/15/2020 5:30:00 PM 0.92 33.656 0.167 7.75 1.84 14.28
12/15/2020 5:45:00 PM 0.85 33.53 0.168 7.72 1.8 14.27
12/15/2020 6:00:00 PM 0.79 33.422 0.168 7.7 1.81 14.26
12/15/2020 6:15:00 PM 0.73 33.314 0.168 7.68 1.83 14.26
12/15/2020 6:30:00 PM 0.68 33.224 0.168 7.66 1.82 14.26
12/15/2020 6:45:00 PM 0.62 33.116 0.168 7.65 1.78 14.27
12/15/2020 7:00:00 PM 0.57 33.026 0.169 7.64 1.79 14.27
12/15/2020 7:15:00 PM 0.52 32.936 0.169 7.63 1.83 14.27
12/15/2020 7:30:00 PM 0.47 32.846 0.169 7.62 1.81 14.29
12/15/2020 7:45:00 PM 0.43 32.774 0.169 7.61 1.82 14.3
12/15/2020 8:00:00 PM 0.38 32.684 0.169 7.6 1.85 14.32
12/15/2020 8:15:00 PM 0.33 32.594 0.169 7.6 1.79 14.34
12/15/2020 8:30:00 PM 0.28 32.504 0.169 7.6 1.8 14.36
12/15/2020 8:45:00 PM 0.23 32.414 0.169 7.59 1.85 14.38
12/15/2020 9:00:00 PM 0.19 32.342 0.169 7.59 1.83 14.39
12/15/2020 9:15:00 PM 0.14 32.252 0.17 7.59 1.83 14.41
12/15/2020 9:30:00 PM 0.1 32.18 0.17 7.58 1.85 14.43
12/15/2020 9:45:00 PM 0.06 32.108 0.17 7.58 1.78 14.45
12/15/2020 10:00:00 PM 0.02 32.036 0.17 7.58 1.82 14.47
12/15/2020 10:15:00 PM -0.02 31.964 0.17 7.57 1.84 14.49
12/15/2020 10:30:00 PM -0.06 31.892 0.17 7.57 1.85 14.5
12/15/2020 10:45:00 PM -0.1 31.82 0.17 7.58 1.8 14.51
12/15/2020 11:00:00 PM -0.13 31.766 0.168 7.57 1.82 14.52
12/15/2020 11:15:00 PM -0.1 31.82 0.17 7.58 1.91 14.54
12/15/2020 11:30:00 PM -0.09 31.838 0.17 7.58 1.88 14.55
12/15/2020 11:45:00 PM -0.09 31.838 0.17 7.59 1.86 14.55
12/16/2020 12:00:00 AM -0.09 31.838 0.17 7.59 1.89 14.55
12/16/2020 12:15:00 AM -0.09 31.838 0.17 7.59 1.88 14.55
12/16/2020 12:30:00 AM -0.09 31.838 0.171 7.59 1.85 14.55
12/16/2020 12:45:00 AM -0.09 31.838 0.171 7.59 1.9 14.54
12/16/2020 1:00:00 AM -0.09 31.838 0.171 7.58 1.89 14.54
12/16/2020 1:15:00 AM -0.09 31.838 0.171 7.58 1.86 14.53
12/16/2020 1:30:00 AM -0.09 31.838 0.171 7.58 1.82 14.54
12/16/2020 1:45:00 AM -0.09 31.838 0.171 7.58 1.81 14.54
12/16/2020 2:00:00 AM -0.09 31.838 0.171 7.58 1.88 14.54
12/16/2020 2:15:00 AM -0.09 31.838 0.171 7.58 1.81 14.54
12/16/2020 2:30:00 AM -0.09 31.838 0.172 7.58 1.87 14.54
12/16/2020 2:45:00 AM -0.09 31.838 0.172 7.58 1.83 14.53
12/16/2020 3:00:00 AM -0.09 31.838 0.172 7.57 1.83 14.53
12/16/2020 3:15:00 AM -0.09 31.838 0.172 7.57 1.85 14.53
12/16/2020 3:30:00 AM -0.09 31.838 0.172 7.57 1.82 14.53
12/16/2020 3:45:00 AM -0.09 31.838 0.172 7.56 1.83 14.51
12/16/2020 4:00:00 AM -0.09 31.838 0.172 7.56 1.83 14.5
12/16/2020 4:15:00 AM -0.09 31.838 0.172 7.56 1.87 14.49
12/16/2020 4:30:00 AM -0.09 31.838 0.173 7.56 1.81 14.48
12/16/2020 4:45:00 AM -0.09 31.838 0.173 7.55 1.86 14.47
12/16/2020 5:00:00 AM -0.09 31.838 0.173 7.55 1.89 14.46
12/16/2020 5:15:00 AM -0.09 31.838 0.173 7.55 1.91 14.46
12/16/2020 5:30:00 AM -0.09 31.838 0.173 7.54 1.84 14.45
12/16/2020 5:45:00 AM -0.09 31.838 0.173 7.54 1.89 14.44
12/16/2020 6:00:00 AM -0.09 31.838 0.173 7.54 1.88 14.42
12/16/2020 6:15:00 AM -0.09 31.838 0.174 7.53 1.86 14.43
12/16/2020 6:30:00 AM -0.09 31.838 0.174 7.53 1.87 14.41
12/16/2020 6:45:00 AM -0.09 31.838 0.174 7.53 1.95 14.4
12/16/2020 7:00:00 AM -0.09 31.838 0.174 7.53 1.81 14.4
12/16/2020 7:15:00 AM -0.09 31.838 0.174 7.52 1.88 14.4
12/16/2020 7:30:00 AM -0.09 31.838 0.174 7.52 1.88 14.4
12/16/2020 7:45:00 AM -0.09 31.838 0.174 7.52 1.88 14.41
12/16/2020 8:00:00 AM -0.09 31.838 0.174 7.53 1.88 14.45
12/16/2020 8:15:00 AM -0.08 31.856 0.174 7.53 1.84 14.51
12/16/2020 8:30:00 AM -0.09 31.838 0.174 7.54 1.87 14.58
12/16/2020 8:45:00 AM -0.09 31.838 0.174 7.55 1.87 14.67
12/16/2020 9:00:00 AM -0.08 31.856 0.174 7.56 1.87 14.7
12/16/2020 9:15:00 AM -0.09 31.838 0.174 7.57 1.83 14.76
12/16/2020 9:30:00 AM -0.04 31.928 0.177 7.52 1.14 14.74
12/16/2020 9:45:00 AM -0.04 31.928 0.177 7.49 1.14 14.8
12/16/2020 10:00:00 AM -0.04 31.928 0.177 7.48 1.15 14.84
12/16/2020 10:15:00 AM -0.04 31.928 0.176 7.47 1.19 14.9
12/16/2020 10:30:00 AM -0.04 31.928 0.176 7.48 1.18 14.96
12/16/2020 10:45:00 AM -0.03 31.946 0.176 7.51 1.17 15.01
12/16/2020 11:00:00 AM -0.03 31.946 0.175 7.53 1.18 15.03
12/16/2020 11:15:00 AM -0.03 31.946 0.175 7.55 1.19 15.04
12/16/2020 11:30:00 AM -0.03 31.946 0.17 7.55 44.04 15.05
12/16/2020 11:45:00 AM -0.02 31.964 0.175 7.57 1.21 15.06
12/16/2020 12:00:00 PM -0.01 31.982 0.175 7.6 1.21 15.08
12/16/2020 12:15:00 PM 0 32 0.174 7.63 1.83 15.09
12/16/2020 12:30:00 PM 0 32 0.174 7.66 420.85 15.09
12/16/2020 12:45:00 PM 0.02 32.036 0.174 7.68 67.51 15.11
12/16/2020 1:00:00 PM 0.02 32.036 0.174 7.7 2.65 15.13
12/16/2020 1:15:00 PM 0.01 32.018 0.174 7.69 1.29 15.12
12/16/2020 1:30:00 PM 0 32 0.174 7.71 2.06 15.09
12/16/2020 1:45:00 PM 0 32 0.174 7.7 1.56 15.04
12/16/2020 2:00:00 PM -0.02 31.964 0.173 7.71 1.28 15
12/16/2020 2:15:00 PM -0.02 31.964 0.173 7.7 1.29 14.97
12/16/2020 2:30:00 PM -0.03 31.946 0.173 7.68 1.35 14.94
12/16/2020 2:45:00 PM -0.04 31.928 0.173 7.67 1.37 14.9
12/16/2020 3:00:00 PM -0.04 31.928 0.173 7.65 1.46 14.88
12/16/2020 3:15:00 PM -0.04 31.928 0.173 7.64 1.52 14.84
12/16/2020 3:30:00 PM -0.04 31.928 0.173 7.62 1.71 14.81
12/16/2020 3:45:00 PM -0.04 31.928 0.173 7.6 1.75 14.76
12/16/2020 4:00:00 PM -0.04 31.928 0.173 7.54 2.34 14.74
12/16/2020 4:15:00 PM -0.04 31.928 0.172 7.54 2.63 14.69
12/16/2020 4:30:00 PM -0.04 31.928 0.173 7.53 2.32 14.66
12/16/2020 4:45:00 PM -0.04 31.928 0.173 7.56 1.99 14.64
12/16/2020 5:00:00 PM -0.04 31.928 0.173 7.53 1.85 14.62
12/16/2020 5:15:00 PM -0.04 31.928 0.173 7.54 1.83 14.6
12/16/2020 5:30:00 PM -0.04 31.928 0.173 7.54 1.82 14.58
12/16/2020 5:45:00 PM -0.04 31.928 0.173 7.53 1.81 14.57
12/16/2020 6:00:00 PM -0.04 31.928 0.174 7.53 1.89 14.54
12/16/2020 6:15:00 PM -0.04 31.928 0.174 7.52 1.64 14.52
12/16/2020 6:30:00 PM -0.04 31.928 0.174 7.52 1.85 14.51
12/16/2020 6:45:00 PM -0.04 31.928 0.174 7.51 1.63 14.49
12/16/2020 7:00:00 PM -0.04 31.928 0.174 7.5 1.64 14.47
12/16/2020 7:15:00 PM -0.04 31.928 0.174 7.49 1.77 14.44
12/16/2020 7:30:00 PM -0.04 31.928 0.174 7.48 2.02 14.42
12/16/2020 7:45:00 PM -0.04 31.928 0.174 7.48 2.04 14.4
12/16/2020 8:00:00 PM -0.04 31.928 0.174 7.47 2.17 14.38
12/16/2020 8:15:00 PM -0.04 31.928 0.174 7.47 2.33 14.34
12/16/2020 8:30:00 PM -0.04 31.928 0.175 7.46 1.91 14.31
12/16/2020 8:45:00 PM -0.04 31.928 0.175 7.45 2.09 14.27
12/16/2020 9:00:00 PM -0.04 31.928 0.175 7.44 1.68 14.24
12/16/2020 9:15:00 PM -0.04 31.928 0.175 7.43 1.82 14.22
12/16/2020 9:30:00 PM -0.04 31.928 0.176 7.41 1.75 14.19
12/16/2020 9:45:00 PM -0.04 31.928 0.176 7.4 1.74 14.17
12/16/2020 10:00:00 PM -0.04 31.928 0.176 7.39 1.82 14.14
12/16/2020 10:15:00 PM -0.04 31.928 0.176 7.38 1.78 14.11
12/16/2020 10:30:00 PM -0.04 31.928 0.176 7.37 1.76 14.08
12/16/2020 10:45:00 PM -0.04 31.928 0.176 7.36 1.83 14.06
12/16/2020 11:00:00 PM -0.04 31.928 0.177 7.34 1.6 14.02
12/16/2020 11:15:00 PM -0.04 31.928 0.177 7.31 1.95 13.93
12/16/2020 11:30:00 PM -0.04 31.928 0.177 7.3 1.64 13.89
12/16/2020 11:45:00 PM -0.04 31.928 0.177 7.29 1.62 13.89
12/17/2020 12:00:00 AM -0.04 31.928 0.177 7.29 1.59 13.87
12/17/2020 12:15:00 AM -0.04 31.928 0.177 7.28 1.5 13.84
12/17/2020 12:30:00 AM -0.04 31.928 0.177 7.27 1.55 13.81
12/17/2020 12:45:00 AM -0.04 31.928 0.178 7.27 1.56 13.79
12/17/2020 1:00:00 AM -0.04 31.928 0.178 7.26 1.63 13.77
12/17/2020 1:15:00 AM -0.04 31.928 0.178 7.26 1.52 13.76
12/17/2020 1:30:00 AM -0.04 31.928 0.178 7.26 1.53 13.74
12/17/2020 1:45:00 AM -0.04 31.928 0.178 7.25 1.55 13.71
12/17/2020 2:00:00 AM -0.03 31.946 0.178 7.25 1.5 13.68
12/17/2020 2:15:00 AM -0.03 31.946 0.178 7.24 1.63 13.65
12/17/2020 2:30:00 AM -0.03 31.946 0.178 7.23 1.46 13.64
12/17/2020 2:45:00 AM -0.03 31.946 0.179 7.24 1.5 13.64
12/17/2020 3:00:00 AM -0.03 31.946 0.179 7.23 1.5 13.62
12/17/2020 3:15:00 AM -0.03 31.946 0.179 7.23 1.51 13.58
12/17/2020 3:30:00 AM -0.03 31.946 0.179 7.21 1.49 13.55
12/17/2020 3:45:00 AM -0.03 31.946 0.179 7.21 1.46 13.52
12/17/2020 4:00:00 AM -0.03 31.946 0.179 7.21 1.43 13.49
12/17/2020 4:15:00 AM -0.03 31.946 0.179 7.2 1.4 13.45
12/17/2020 4:30:00 AM -0.03 31.946 0.179 7.2 1.45 13.43
12/17/2020 4:45:00 AM -0.03 31.946 0.179 7.2 1.4 13.4
12/17/2020 5:00:00 AM -0.03 31.946 0.179 7.19 1.43 13.37
12/17/2020 5:15:00 AM -0.03 31.946 0.179 7.18 1.35 13.34
12/17/2020 5:30:00 AM -0.03 31.946 0.179 7.18 1.35 13.31
12/17/2020 5:45:00 AM -0.03 31.946 0.179 7.17 1.35 13.31
12/17/2020 6:00:00 AM -0.03 31.946 0.18 7.18 1.36 13.31
12/17/2020 6:15:00 AM -0.03 31.946 0.18 7.18 1.41 13.35
12/17/2020 6:30:00 AM -0.03 31.946 0.179 7.18 1.39 13.36
12/17/2020 6:45:00 AM -0.03 31.946 0.179 7.18 1.36 13.37
12/17/2020 7:00:00 AM -0.03 31.946 0.179 7.18 1.4 13.39
12/17/2020 7:15:00 AM -0.03 31.946 0.179 7.19 1.31 13.4
12/17/2020 7:30:00 AM -0.03 31.946 0.179 7.19 1.34 13.41
12/17/2020 7:45:00 AM -0.03 31.946 0.178 7.19 1.28 13.43
12/17/2020 8:00:00 AM -0.03 31.946 0.178 7.19 1.31 13.45
12/17/2020 8:15:00 AM -0.03 31.946 0.178 7.19 1.25 13.49
12/17/2020 8:30:00 AM -0.03 31.946 0.178 7.2 1.25 13.57
12/17/2020 8:45:00 AM -0.03 31.946 0.178 7.2 1.21 13.65
12/17/2020 9:00:00 AM -0.03 31.946 0.178 7.21 1.29 13.73
12/17/2020 9:15:00 AM -0.03 31.946 0.178 7.22 1.24 13.81
12/17/2020 9:30:00 AM -0.03 31.946 0.178 7.24 1.25 13.89
12/17/2020 9:45:00 AM -0.03 31.946 0.177 7.25 1.2 13.95
12/17/2020 10:00:00 AM -0.03 31.946 0.177 7.26 1.21 14.02
12/17/2020 10:15:00 AM -0.03 31.946 0.177 7.28 1.21 14.11
12/17/2020 10:30:00 AM -0.03 31.946 0.177 7.29 1.18 14.17
12/17/2020 10:45:00 AM -0.03 31.946 0.177 7.3 1.17 14.23
12/17/2020 11:00:00 AM -0.03 31.946 0.176 7.31 1.2 14.3
12/17/2020 11:15:00 AM -0.03 31.946 0.176 7.33 1.19 14.38
12/17/2020 11:30:00 AM -0.03 31.946 0.176 7.35 1.18 14.43
12/17/2020 11:45:00 AM -0.03 31.946 0.176 7.36 1.16 14.46
12/17/2020 12:00:00 PM -0.03 31.946 0.176 7.37 1.23 14.5
12/17/2020 12:15:00 PM -0.03 31.946 0.175 7.39 1.23 14.53
12/17/2020 12:30:00 PM -0.03 31.946 0.175 7.4 1.14 14.57
12/17/2020 12:45:00 PM -0.03 31.946 0.175 7.42 1.2 14.6
12/17/2020 1:00:00 PM -0.03 31.946 0.175 7.43 1.16 14.62
12/17/2020 1:15:00 PM -0.04 31.928 0.175 7.43 1.19 14.63
12/17/2020 1:30:00 PM -0.04 31.928 0.175 7.46 1.12 14.66
12/17/2020 1:45:00 PM -0.04 31.928 0.175 7.47 1.09 14.69
12/17/2020 2:00:00 PM -0.04 31.928 0.174 7.48 1.13 14.7
12/17/2020 2:15:00 PM -0.04 31.928 0.174 7.49 1.09 14.71
12/17/2020 2:30:00 PM -0.04 31.928 0.174 7.49 1.13 14.72
12/17/2020 2:45:00 PM -0.04 31.928 0.174 7.5 1.13 14.72
12/17/2020 3:00:00 PM -0.04 31.928 0.174 7.5 1.1 14.71
12/17/2020 3:15:00 PM -0.04 31.928 0.174 7.5 1.12 14.7
12/17/2020 3:30:00 PM -0.04 31.928 0.174 7.49 1.14 14.67
12/17/2020 3:45:00 PM -0.04 31.928 0.175 7.48 1.11 14.65
12/17/2020 4:00:00 PM -0.04 31.928 0.175 7.48 1.11 14.62
12/17/2020 4:15:00 PM -0.04 31.928 0.175 7.47 1.14 14.59
12/17/2020 4:30:00 PM -0.04 31.928 0.175 7.46 1.12 14.55
12/17/2020 4:45:00 PM -0.04 31.928 0.175 7.44 1.09 14.5
12/17/2020 5:00:00 PM -0.04 31.928 0.175 7.42 1.15 14.45
12/17/2020 5:15:00 PM -0.04 31.928 0.175 7.41 1.21 14.39
12/17/2020 5:30:00 PM -0.04 31.928 0.176 7.39 1.13 14.36
12/17/2020 5:45:00 PM -0.04 31.928 0.176 7.38 1.12 14.32
12/17/2020 6:00:00 PM -0.04 31.928 0.176 7.36 1.11 14.3
12/17/2020 6:15:00 PM -0.04 31.928 0.176 7.35 1.11 14.27
12/17/2020 6:30:00 PM -0.04 31.928 0.176 7.34 1.13 14.26
12/17/2020 6:45:00 PM -0.04 31.928 0.176 7.33 1.11 14.24
12/17/2020 7:00:00 PM -0.04 31.928 0.176 7.32 1.13 14.22
12/17/2020 7:15:00 PM -0.04 31.928 0.177 7.32 1.11 14.22
12/17/2020 7:30:00 PM -0.04 31.928 0.176 7.32 1.19 14.25
12/17/2020 7:45:00 PM -0.04 31.928 0.176 7.31 1.27 14.25
12/17/2020 8:00:00 PM -0.04 31.928 0.176 7.3 1.45 14.25
12/17/2020 8:15:00 PM -0.04 31.928 0.176 7.29 1.51 14.26
12/17/2020 8:30:00 PM -0.04 31.928 0.176 7.29 1.51 14.27
12/17/2020 8:45:00 PM -0.04 31.928 0.176 7.29 1.55 14.27
12/17/2020 9:00:00 PM -0.04 31.928 0.176 7.28 1.48 14.27
12/17/2020 9:15:00 PM -0.04 31.928 0.176 7.28 1.39 14.26
12/17/2020 9:30:00 PM -0.04 31.928 0.176 7.28 1.38 14.25
12/17/2020 9:45:00 PM -0.04 31.928 0.177 7.28 1.56 14.25
12/17/2020 10:00:00 PM -0.04 31.928 0.177 7.28 1.53 14.23
12/17/2020 10:15:00 PM -0.04 31.928 0.177 7.28 1.37 14.22
12/17/2020 10:30:00 PM -0.04 31.928 0.177 7.28 1.42 14.21
12/17/2020 10:45:00 PM -0.04 31.928 0.178 7.27 1.69 14.2
12/17/2020 11:00:00 PM -0.04 31.928 0.178 7.27 1.49 14.19
12/17/2020 11:15:00 PM -0.04 31.928 0.178 7.27 1.45 14.18
12/17/2020 11:30:00 PM -0.04 31.928 0.178 7.27 1.63 14.17
12/17/2020 11:45:00 PM -0.04 31.928 0.178 7.27 1.48 14.16
12/18/2020 12:00:00 AM -0.04 31.928 0.178 7.27 1.46 14.14
12/18/2020 12:15:00 AM -0.04 31.928 0.178 7.27 1.49 14.11
12/18/2020 12:30:00 AM -0.04 31.928 0.178 7.27 1.44 14.1
12/18/2020 12:45:00 AM -0.04 31.928 0.178 7.27 1.45 14.07
12/18/2020 1:00:00 AM -0.04 31.928 0.178 7.27 1.46 14.07
12/18/2020 1:15:00 AM -0.04 31.928 0.178 7.26 1.46 14.05
12/18/2020 1:30:00 AM -0.04 31.928 0.178 7.26 1.4 14.04
12/18/2020 1:45:00 AM -0.04 31.928 0.178 7.26 1.36 14.03
12/18/2020 2:00:00 AM -0.04 31.928 0.177 7.25 1.38 14.03
12/18/2020 2:15:00 AM -0.04 31.928 0.177 7.25 1.41 14.04
12/18/2020 2:30:00 AM -0.04 31.928 0.177 7.25 1.38 14.03
12/18/2020 2:45:00 AM -0.04 31.928 0.177 7.24 1.61 14.02
12/18/2020 3:00:00 AM -0.04 31.928 0.177 7.24 1.38 14.01
12/18/2020 3:15:00 AM -0.04 31.928 0.177 7.24 1.45 14
12/18/2020 3:30:00 AM -0.04 31.928 0.177 7.24 1.41 14
12/18/2020 3:45:00 AM -0.04 31.928 0.177 7.23 1.37 14
12/18/2020 4:00:00 AM -0.04 31.928 0.177 7.23 1.4 13.99
12/18/2020 4:15:00 AM -0.04 31.928 0.177 7.23 1.4 13.98
12/18/2020 4:30:00 AM -0.04 31.928 0.177 7.23 1.43 13.99
12/18/2020 4:45:00 AM -0.04 31.928 0.177 7.22 1.56 13.99
12/18/2020 5:00:00 AM -0.04 31.928 0.177 7.22 1.78 13.98
12/18/2020 5:15:00 AM -0.04 31.928 0.177 7.22 1.47 13.98
12/18/2020 5:30:00 AM -0.04 31.928 0.177 7.21 1.46 13.97
12/18/2020 5:45:00 AM -0.04 31.928 0.177 7.21 1.49 13.97
12/18/2020 6:00:00 AM -0.04 31.928 0.177 7.21 1.51 13.97
12/18/2020 6:15:00 AM -0.04 31.928 0.177 7.21 1.44 13.97
12/18/2020 6:30:00 AM -0.04 31.928 0.177 7.21 1.45 13.97
12/18/2020 6:45:00 AM -0.04 31.928 0.177 7.21 1.48 13.96
12/18/2020 7:00:00 AM -0.04 31.928 0.177 7.21 1.44 13.96
12/18/2020 7:15:00 AM -0.04 31.928 0.177 7.21 1.61 13.96
12/18/2020 7:30:00 AM -0.04 31.928 0.177 7.21 1.47 13.96
12/18/2020 7:45:00 AM -0.04 31.928 0.177 7.21 1.47 13.95
12/18/2020 8:00:00 AM -0.04 31.928 0.177 7.21 1.6 13.99
12/18/2020 8:15:00 AM -0.04 31.928 0.177 7.21 1.46 14.02
12/18/2020 8:30:00 AM -0.04 31.928 0.176 7.22 1.51 14.03
12/18/2020 8:45:00 AM -0.04 31.928 0.176 7.22 1.53 14.07
12/18/2020 9:00:00 AM -0.04 31.928 0.176 7.23 1.57 14.1
12/18/2020 9:15:00 AM -0.04 31.928 0.176 7.23 1.46 14.13
12/18/2020 9:30:00 AM -0.04 31.928 0.175 7.24 1.39 14.17
12/18/2020 9:45:00 AM -0.04 31.928 0.175 7.25 1.42 14.23
12/18/2020 10:00:00 AM -0.04 31.928 0.175 7.27 1.43 14.31
12/18/2020 10:15:00 AM -0.04 31.928 0.174 7.28 1.51 14.36
12/18/2020 10:30:00 AM -0.04 31.928 0.174 7.29 1.52 14.39
12/18/2020 10:45:00 AM -0.04 31.928 0.174 7.3 1.47 14.42
12/18/2020 11:00:00 AM -0.04 31.928 0.173 7.3 1.55 14.44
12/18/2020 11:15:00 AM -0.04 31.928 0.173 7.31 1.55 14.46
12/18/2020 11:30:00 AM -0.04 31.928 0.173 7.31 1.43 14.48
12/18/2020 11:45:00 AM -0.04 31.928 0.173 7.32 1.43 14.49
12/18/2020 12:00:00 PM -0.04 31.928 0.172 7.33 1.41 14.5
12/18/2020 12:15:00 PM -0.04 31.928 0.172 7.33 1.44 14.51
12/18/2020 12:30:00 PM -0.04 31.928 0.172 7.34 1.43 14.54
12/18/2020 12:45:00 PM -0.04 31.928 0.172 7.35 1.57 14.55
12/18/2020 1:00:00 PM -0.04 31.928 0.172 7.35 1.45 14.56
12/18/2020 1:15:00 PM -0.04 31.928 0.171 7.36 1.46 14.56
12/18/2020 1:30:00 PM -0.04 31.928 0.171 7.37 1.44 14.57
12/18/2020 1:45:00 PM -0.04 31.928 0.171 7.37 1.43 14.58
12/18/2020 2:00:00 PM -0.04 31.928 0.171 7.38 1.42 14.59
12/18/2020 2:15:00 PM -0.04 31.928 0.171 7.38 1.45 14.61
12/18/2020 2:30:00 PM -0.04 31.928 0.171 7.38 1.49 14.61
12/18/2020 2:45:00 PM -0.04 31.928 0.17 7.39 1.45 14.63
12/18/2020 3:00:00 PM -0.04 31.928 0.17 7.39 1.46 14.64
12/18/2020 3:15:00 PM -0.04 31.928 0.17 7.39 1.53 14.64
12/18/2020 3:30:00 PM -0.04 31.928 0.17 7.39 1.46 14.64
12/18/2020 3:45:00 PM -0.04 31.928 0.17 7.39 1.45 14.65
12/18/2020 4:00:00 PM -0.04 31.928 0.17 7.39 1.48 14.64
12/18/2020 4:15:00 PM -0.04 31.928 0.17 7.39 1.41 14.62
12/18/2020 4:30:00 PM -0.04 31.928 0.17 7.38 1.45 14.6
12/18/2020 4:45:00 PM -0.04 31.928 0.17 7.37 1.42 14.57
12/18/2020 5:00:00 PM -0.04 31.928 0.17 7.36 1.43 14.53
12/18/2020 5:15:00 PM -0.04 31.928 0.17 7.35 1.41 14.51
12/18/2020 5:30:00 PM -0.04 31.928 0.17 7.34 1.37 14.49
12/18/2020 5:45:00 PM -0.04 31.928 0.171 7.33 1.42 14.48
12/18/2020 6:00:00 PM -0.04 31.928 0.171 7.32 1.38 14.46
12/18/2020 6:15:00 PM -0.04 31.928 0.171 7.31 1.41 14.45
12/18/2020 6:30:00 PM -0.04 31.928 0.171 7.3 1.36 14.44
12/18/2020 6:45:00 PM -0.04 31.928 0.171 7.29 1.36 14.42
12/18/2020 7:00:00 PM -0.04 31.928 0.171 7.29 1.39 14.41
12/18/2020 7:15:00 PM -0.04 31.928 0.171 7.28 1.33 14.39
12/18/2020 7:30:00 PM -0.04 31.928 0.171 7.27 1.33 14.37
12/18/2020 7:45:00 PM -0.04 31.928 0.172 7.27 1.31 14.36
12/18/2020 8:00:00 PM -0.04 31.928 0.172 7.27 1.42 14.35
12/18/2020 8:15:00 PM -0.04 31.928 0.172 7.26 1.36 14.33
12/18/2020 8:30:00 PM -0.04 31.928 0.172 7.25 1.32 14.33
12/18/2020 8:45:00 PM -0.04 31.928 0.172 7.25 1.36 14.32
12/18/2020 9:00:00 PM -0.04 31.928 0.172 7.25 1.33 14.3
12/18/2020 9:15:00 PM -0.04 31.928 0.172 7.24 1.39 14.28
12/18/2020 9:30:00 PM -0.04 31.928 0.172 7.24 1.46 14.27
12/18/2020 9:45:00 PM -0.04 31.928 0.173 7.23 1.36 14.26
12/18/2020 10:00:00 PM -0.04 31.928 0.173 7.23 1.34 14.24
12/18/2020 10:15:00 PM -0.04 31.928 0.173 7.23 1.31 14.22
12/18/2020 10:30:00 PM -0.04 31.928 0.173 7.23 1.31 14.2
12/18/2020 10:45:00 PM -0.04 31.928 0.173 7.23 1.33 14.19
12/18/2020 11:00:00 PM -0.04 31.928 0.174 7.23 1.3 14.18
12/18/2020 11:15:00 PM -0.04 31.928 0.174 7.23 1.31 14.16
12/18/2020 11:30:00 PM -0.04 31.928 0.174 7.22 1.33 14.15
12/18/2020 11:45:00 PM -0.04 31.928 0.174 7.22 1.32 14.15
12/19/2020 12:00:00 AM -0.04 31.928 0.174 7.21 1.34 14.14
12/19/2020 12:15:00 AM -0.04 31.928 0.175 7.21 1.42 14.12
12/19/2020 12:30:00 AM -0.04 31.928 0.175 7.21 1.36 14.11
12/19/2020 12:45:00 AM -0.04 31.928 0.175 7.2 1.37 14.1
12/19/2020 1:00:00 AM -0.04 31.928 0.175 7.2 1.31 14.1
12/19/2020 1:15:00 AM -0.04 31.928 0.175 7.19 1.32 14.09
12/19/2020 1:30:00 AM -0.04 31.928 0.175 7.19 1.39 14.07
12/19/2020 1:45:00 AM -0.04 31.928 0.175 7.19 1.33 14.06
12/19/2020 2:00:00 AM -0.04 31.928 0.176 7.18 1.43 14.04
12/19/2020 2:15:00 AM -0.04 31.928 0.176 7.17 1.44 14.03
12/19/2020 2:30:00 AM -0.04 31.928 0.176 7.17 1.45 14.02
12/19/2020 2:45:00 AM -0.04 31.928 0.176 7.17 1.48 14.01
12/19/2020 3:00:00 AM -0.04 31.928 0.176 7.17 1.44 14
12/19/2020 3:15:00 AM -0.04 31.928 0.176 7.16 1.69 13.99
12/19/2020 3:30:00 AM -0.04 31.928 0.177 7.16 1.4 13.98
12/19/2020 3:45:00 AM -0.04 31.928 0.177 7.16 1.49 13.97
12/19/2020 4:00:00 AM -0.04 31.928 0.177 7.15 1.45 13.96
12/19/2020 4:15:00 AM -0.04 31.928 0.177 7.15 1.44 13.95
12/19/2020 4:30:00 AM -0.04 31.928 0.177 7.15 1.44 13.94
12/19/2020 4:45:00 AM -0.04 31.928 0.177 7.15 1.45 13.93
12/19/2020 5:00:00 AM -0.04 31.928 0.178 7.15 1.44 13.93
12/19/2020 5:15:00 AM -0.04 31.928 0.178 7.14 1.46 13.93
12/19/2020 5:30:00 AM -0.04 31.928 0.178 7.14 1.42 13.92
12/19/2020 5:45:00 AM -0.04 31.928 0.178 7.13 1.47 13.91
12/19/2020 6:00:00 AM -0.04 31.928 0.178 7.13 1.51 13.9
12/19/2020 6:15:00 AM -0.04 31.928 0.178 7.13 1.5 13.88
12/19/2020 6:30:00 AM -0.04 31.928 0.178 7.13 1.51 13.88
12/19/2020 6:45:00 AM -0.04 31.928 0.178 7.12 1.55 13.86
12/19/2020 7:00:00 AM -0.04 31.928 0.178 7.13 1.5 13.84
12/19/2020 7:15:00 AM -0.04 31.928 0.178 7.13 1.5 13.84
12/19/2020 7:30:00 AM -0.04 31.928 0.178 7.13 1.49 13.83
12/19/2020 7:45:00 AM -0.04 31.928 0.178 7.13 1.49 13.84
12/19/2020 8:00:00 AM -0.04 31.928 0.178 7.12 1.52 13.85
12/19/2020 8:15:00 AM -0.04 31.928 0.178 7.12 1.57 13.88
12/19/2020 8:30:00 AM -0.04 31.928 0.178 7.13 1.54 13.91
12/19/2020 8:45:00 AM -0.04 31.928 0.178 7.13 1.56 13.95
12/19/2020 9:00:00 AM -0.04 31.928 0.178 7.14 1.7 13.99
12/19/2020 9:15:00 AM -0.04 31.928 0.178 7.15 1.63 14.04
12/19/2020 9:30:00 AM -0.04 31.928 0.178 7.16 1.54 14.08
12/19/2020 9:45:00 AM -0.03 31.946 0.177 7.17 1.52 14.14
12/19/2020 10:00:00 AM -0.04 31.928 0.177 7.18 1.73 14.19
12/19/2020 10:15:00 AM -0.04 31.928 0.177 7.19 1.68 14.23
12/19/2020 10:30:00 AM -0.04 31.928 0.177 7.2 1.66 14.29
12/19/2020 10:45:00 AM -0.04 31.928 0.176 7.21 1.67 14.33
12/19/2020 11:00:00 AM -0.04 31.928 0.176 7.22 1.75 14.39
12/19/2020 11:15:00 AM -0.04 31.928 0.176 7.23 1.64 14.44
12/19/2020 11:30:00 AM -0.04 31.928 0.175 7.24 1.71 14.48
12/19/2020 11:45:00 AM -0.04 31.928 0.175 7.25 1.77 14.52
12/19/2020 12:00:00 PM -0.03 31.946 0.175 7.26 1.66 14.57
12/19/2020 12:15:00 PM -0.03 31.946 0.175 7.27 1.69 14.61
12/19/2020 12:30:00 PM -0.03 31.946 0.174 7.28 1.79 14.65
12/19/2020 12:45:00 PM -0.03 31.946 0.174 7.29 1.71 14.67
12/19/2020 1:00:00 PM -0.03 31.946 0.174 7.3 1.7 14.71
12/19/2020 1:15:00 PM -0.04 31.928 0.173 7.31 1.73 14.73
12/19/2020 1:30:00 PM -0.04 31.928 0.173 7.32 1.79 14.75
12/19/2020 1:45:00 PM -0.04 31.928 0.173 7.33 1.73 14.77
12/19/2020 2:00:00 PM -0.04 31.928 0.173 7.34 1.7 14.8
12/19/2020 2:15:00 PM -0.03 31.946 0.173 7.35 1.73 14.82
12/19/2020 2:30:00 PM -0.04 31.928 0.172 7.35 1.84 14.84
12/19/2020 2:45:00 PM -0.04 31.928 0.172 7.36 1.67 14.84
12/19/2020 3:00:00 PM -0.04 31.928 0.172 7.36 1.69 14.85
12/19/2020 3:15:00 PM -0.04 31.928 0.172 7.37 1.67 14.86
12/19/2020 3:30:00 PM -0.04 31.928 0.172 7.37 1.68 14.85
12/19/2020 3:45:00 PM -0.04 31.928 0.172 7.37 1.65 14.84
12/19/2020 4:00:00 PM -0.04 31.928 0.172 7.36 1.63 14.82
12/19/2020 4:15:00 PM -0.04 31.928 0.172 7.35 1.6 14.79
12/19/2020 4:30:00 PM -0.04 31.928 0.172 7.35 1.55 14.75
12/19/2020 4:45:00 PM -0.04 31.928 0.172 7.33 1.58 14.7
12/19/2020 5:00:00 PM -0.04 31.928 0.172 7.32 1.61 14.66
12/19/2020 5:15:00 PM -0.04 31.928 0.172 7.31 1.61 14.62
12/19/2020 5:30:00 PM -0.04 31.928 0.172 7.3 1.6 14.59
12/19/2020 5:45:00 PM -0.04 31.928 0.172 7.29 1.62 14.56
12/19/2020 6:00:00 PM -0.04 31.928 0.172 7.28 1.63 14.53
12/19/2020 6:15:00 PM -0.04 31.928 0.172 7.28 1.6 14.5
12/19/2020 6:30:00 PM -0.04 31.928 0.172 7.27 1.6 14.47
12/19/2020 6:45:00 PM -0.04 31.928 0.172 7.26 1.62 14.45
12/19/2020 7:00:00 PM -0.04 31.928 0.172 7.25 1.56 14.41
12/19/2020 7:15:00 PM -0.04 31.928 0.172 7.25 1.54 14.39
12/19/2020 7:30:00 PM -0.04 31.928 0.172 7.24 1.57 14.36
12/19/2020 7:45:00 PM -0.04 31.928 0.172 7.24 1.6 14.34
12/19/2020 8:00:00 PM -0.04 31.928 0.172 7.23 1.57 14.32
12/19/2020 8:15:00 PM -0.04 31.928 0.173 7.23 1.58 14.31
12/19/2020 8:30:00 PM -0.04 31.928 0.173 7.22 1.57 14.28
12/19/2020 8:45:00 PM -0.04 31.928 0.173 7.22 1.55 14.26
12/19/2020 9:00:00 PM -0.04 31.928 0.173 7.22 1.53 14.24
12/19/2020 9:15:00 PM -0.04 31.928 0.173 7.21 1.59 14.22
12/19/2020 9:30:00 PM -0.04 31.928 0.173 7.21 1.57 14.21
12/19/2020 9:45:00 PM -0.04 31.928 0.173 7.21 1.59 14.19
12/19/2020 10:00:00 PM -0.04 31.928 0.173 7.2 1.58 14.18
12/19/2020 10:15:00 PM -0.04 31.928 0.173 7.2 1.57 14.16
12/19/2020 10:30:00 PM -0.04 31.928 0.174 7.19 1.59 14.15
12/19/2020 10:45:00 PM -0.04 31.928 0.174 7.19 1.57 14.14
12/19/2020 11:00:00 PM -0.04 31.928 0.174 7.19 1.61 14.12
12/19/2020 11:15:00 PM -0.04 31.928 0.174 7.19 1.56 14.11
12/19/2020 11:30:00 PM -0.04 31.928 0.174 7.18 1.61 14.1
12/19/2020 11:45:00 PM -0.04 31.928 0.174 7.18 1.76 14.09
12/20/2020 12:00:00 AM -0.04 31.928 0.174 7.18 1.73 14.06
12/20/2020 12:15:00 AM -0.04 31.928 0.174 7.18 1.72 14.06
12/20/2020 12:30:00 AM -0.04 31.928 0.174 7.18 1.72 14.05
12/20/2020 12:45:00 AM -0.04 31.928 0.174 7.17 1.7 14.04
12/20/2020 1:00:00 AM -0.04 31.928 0.174 7.17 1.76 14.03
12/20/2020 1:15:00 AM -0.04 31.928 0.174 7.17 1.82 14.02
12/20/2020 1:30:00 AM -0.04 31.928 0.174 7.17 1.74 14.01
12/20/2020 1:45:00 AM -0.04 31.928 0.174 7.16 1.79 14
12/20/2020 2:00:00 AM -0.04 31.928 0.174 7.16 1.74 13.99
12/20/2020 2:15:00 AM -0.04 31.928 0.175 7.16 1.73 13.99
12/20/2020 2:30:00 AM -0.04 31.928 0.175 7.16 1.74 13.98
12/20/2020 2:45:00 AM -0.04 31.928 0.174 7.16 1.75 13.98
12/20/2020 3:00:00 AM -0.04 31.928 0.174 7.15 1.74 13.97
12/20/2020 3:15:00 AM -0.04 31.928 0.174 7.15 1.74 13.97
12/20/2020 3:30:00 AM -0.04 31.928 0.174 7.15 1.73 13.96
12/20/2020 3:45:00 AM -0.04 31.928 0.174 7.15 1.72 13.96
12/20/2020 4:00:00 AM -0.04 31.928 0.174 7.15 1.71 13.95
12/20/2020 4:15:00 AM -0.04 31.928 0.174 7.15 1.7 13.95
12/20/2020 4:30:00 AM -0.04 31.928 0.174 7.14 1.82 13.95
12/20/2020 4:45:00 AM -0.04 31.928 0.174 7.14 1.79 13.95
12/20/2020 5:00:00 AM -0.04 31.928 0.174 7.14 1.77 13.94
12/20/2020 5:15:00 AM -0.04 31.928 0.174 7.14 1.73 13.93
12/20/2020 5:30:00 AM -0.04 31.928 0.174 7.14 1.72 13.93
12/20/2020 5:45:00 AM -0.04 31.928 0.174 7.14 1.76 13.92
12/20/2020 6:00:00 AM -0.04 31.928 0.174 7.14 1.77 13.92
12/20/2020 6:15:00 AM -0.04 31.928 0.173 7.14 1.91 13.91
12/20/2020 6:30:00 AM -0.03 31.946 0.173 7.14 1.9 13.91
12/20/2020 6:45:00 AM -0.04 31.928 0.173 7.14 2.08 13.9
12/20/2020 7:00:00 AM -0.04 31.928 0.173 7.14 2.09 13.9
12/20/2020 7:15:00 AM -0.04 31.928 0.173 7.13 1.77 13.9
12/20/2020 7:30:00 AM -0.04 31.928 0.173 7.13 1.69 13.9
12/20/2020 7:45:00 AM -0.04 31.928 0.173 7.14 1.79 13.9
12/20/2020 8:00:00 AM -0.04 31.928 0.173 7.14 1.86 13.92
12/20/2020 8:15:00 AM -0.04 31.928 0.172 7.14 1.93 13.93
12/20/2020 8:30:00 AM -0.04 31.928 0.172 7.15 1.88 13.94
12/20/2020 8:45:00 AM -0.04 31.928 0.172 7.15 1.89 13.96
12/20/2020 9:00:00 AM -0.04 31.928 0.172 7.16 1.88 14
12/20/2020 9:15:00 AM -0.04 31.928 0.172 7.17 1.95 14.04
12/20/2020 9:30:00 AM -0.04 31.928 0.172 7.18 2.02 14.09
12/20/2020 9:45:00 AM -0.04 31.928 0.172 7.19 1.99 14.12
12/20/2020 10:00:00 AM -0.04 31.928 0.171 7.2 1.88 14.17
12/20/2020 10:15:00 AM -0.03 31.946 0.171 7.21 2.13 14.21
12/20/2020 10:30:00 AM -0.04 31.928 0.171 7.22 1.88 14.25
12/20/2020 10:45:00 AM -0.04 31.928 0.171 7.23 1.96 14.27
12/20/2020 11:00:00 AM -0.03 31.946 0.171 7.23 2.22 14.3
12/20/2020 11:15:00 AM -0.03 31.946 0.171 7.25 2.47 14.34
12/20/2020 11:30:00 AM -0.03 31.946 0.17 7.25 2.35 14.36
12/20/2020 11:45:00 AM -0.03 31.946 0.17 7.26 2.27 14.39
12/20/2020 12:00:00 PM -0.03 31.946 0.17 7.27 2.23 14.4
12/20/2020 12:15:00 PM -0.03 31.946 0.17 7.28 2.19 14.43
12/20/2020 12:30:00 PM -0.03 31.946 0.17 7.28 2.21 14.43
12/20/2020 12:45:00 PM -0.03 31.946 0.17 7.29 2.16 14.45
12/20/2020 1:00:00 PM -0.03 31.946 0.17 7.3 2.22 14.48
12/20/2020 1:15:00 PM -0.03 31.946 0.17 7.31 2.2 14.51
12/20/2020 1:30:00 PM -0.03 31.946 0.169 7.31 2.22 14.51
12/20/2020 1:45:00 PM -0.03 31.946 0.169 7.31 2.23 14.49
12/20/2020 2:00:00 PM -0.03 31.946 0.169 7.32 2.23 14.5
12/20/2020 2:15:00 PM -0.03 31.946 0.169 7.32 2.22 14.5
12/20/2020 2:30:00 PM -0.03 31.946 0.169 7.32 2.29 14.52
12/20/2020 2:45:00 PM -0.03 31.946 0.169 7.33 2.22 14.53
12/20/2020 3:00:00 PM -0.03 31.946 0.169 7.33 2.2 14.52
12/20/2020 3:15:00 PM -0.04 31.928 0.169 7.33 2.19 14.53
12/20/2020 3:30:00 PM -0.04 31.928 0.169 7.33 2.23 14.51
12/20/2020 3:45:00 PM -0.04 31.928 0.169 7.33 2.2 14.49
12/20/2020 4:00:00 PM -0.03 31.946 0.169 7.31 2.15 14.47
12/20/2020 4:15:00 PM -0.04 31.928 0.169 7.3 2.14 14.43
12/20/2020 4:30:00 PM -0.04 31.928 0.169 7.29 2.1 14.4
12/20/2020 4:45:00 PM -0.04 31.928 0.169 7.29 2.07 14.36
12/20/2020 5:00:00 PM -0.04 31.928 0.169 7.29 2.03 14.33
12/20/2020 5:15:00 PM -0.04 31.928 0.169 7.28 2.08 14.29
12/20/2020 5:30:00 PM -0.04 31.928 0.169 7.28 2.1 14.27
12/20/2020 5:45:00 PM -0.04 31.928 0.169 7.27 2.1 14.24
12/20/2020 6:00:00 PM -0.04 31.928 0.169 7.27 2.19 14.21
12/20/2020 6:15:00 PM -0.04 31.928 0.169 7.26 2.08 14.19
12/20/2020 6:30:00 PM -0.04 31.928 0.168 7.25 2.04 14.16
12/20/2020 6:45:00 PM -0.04 31.928 0.168 7.25 2.1 14.15
12/20/2020 7:00:00 PM -0.04 31.928 0.168 7.24 2.11 14.13
12/20/2020 7:15:00 PM -0.04 31.928 0.168 7.24 2.11 14.11
12/20/2020 7:30:00 PM -0.04 31.928 0.168 7.23 2.11 14.1
12/20/2020 7:45:00 PM -0.04 31.928 0.168 7.23 2.12 14.08
12/20/2020 8:00:00 PM -0.04 31.928 0.168 7.23 2.16 14.06
12/20/2020 8:15:00 PM -0.04 31.928 0.168 7.22 2.14 14.05
12/20/2020 8:30:00 PM -0.04 31.928 0.168 7.22 2.24 14.04
12/20/2020 8:45:00 PM -0.04 31.928 0.168 7.22 2.22 14.03
12/20/2020 9:00:00 PM -0.04 31.928 0.168 7.21 2.14 14.02
12/20/2020 9:15:00 PM -0.04 31.928 0.168 7.21 2.25 14.02
12/20/2020 9:30:00 PM -0.04 31.928 0.168 7.2 2.23 14.01
12/20/2020 9:45:00 PM -0.04 31.928 0.168 7.2 2.17 14.01
12/20/2020 10:00:00 PM -0.04 31.928 0.168 7.2 2.23 14
12/20/2020 10:15:00 PM -0.04 31.928 0.168 7.2 2.15 13.99
12/20/2020 10:30:00 PM -0.04 31.928 0.168 7.2 2.22 13.98
12/20/2020 10:45:00 PM -0.04 31.928 0.168 7.19 2.25 13.97
12/20/2020 11:00:00 PM -0.04 31.928 0.168 7.19 2.24 13.97
12/20/2020 11:15:00 PM -0.04 31.928 0.168 7.19 2.2 13.96
12/20/2020 11:30:00 PM -0.04 31.928 0.168 7.19 2.17 13.95
12/20/2020 11:45:00 PM -0.04 31.928 0.168 7.19 2.02 13.95
12/21/2020 12:00:00 AM -0.04 31.928 0.168 7.19 2.14 13.94
12/21/2020 12:15:00 AM -0.04 31.928 0.168 7.18 2.07 13.94
12/21/2020 12:30:00 AM -0.04 31.928 0.167 7.18 2.11 13.93
12/21/2020 12:45:00 AM -0.04 31.928 0.167 7.18 2.09 13.93
12/21/2020 1:00:00 AM -0.04 31.928 0.167 7.18 1.88 13.92
12/21/2020 1:15:00 AM -0.04 31.928 0.167 7.18 1.9 13.92
12/21/2020 1:30:00 AM -0.04 31.928 0.167 7.17 1.95 13.92
12/21/2020 1:45:00 AM -0.04 31.928 0.167 7.17 1.95 13.91
12/21/2020 2:00:00 AM -0.04 31.928 0.167 7.17 1.7 13.92
12/21/2020 2:15:00 AM -0.04 31.928 0.167 7.17 1.7 13.91
12/21/2020 2:30:00 AM -0.04 31.928 0.167 7.17 1.7 13.91
12/21/2020 2:45:00 AM -0.04 31.928 0.167 7.17 1.9 13.92
12/21/2020 3:00:00 AM -0.04 31.928 0.167 7.17 1.68 13.92
12/21/2020 3:15:00 AM -0.04 31.928 0.167 7.17 1.78 13.91
12/21/2020 3:30:00 AM -0.04 31.928 0.167 7.17 2.09 13.91
12/21/2020 3:45:00 AM -0.04 31.928 0.167 7.17 1.63 13.91
12/21/2020 4:00:00 AM -0.04 31.928 0.167 7.17 1.63 13.9
12/21/2020 4:15:00 AM -0.04 31.928 0.167 7.17 2.04 13.91
12/21/2020 4:30:00 AM -0.04 31.928 0.167 7.17 2.31 13.9
12/21/2020 4:45:00 AM -0.04 31.928 0.167 7.17 2.12 13.9
12/21/2020 5:00:00 AM -0.04 31.928 0.167 7.16 2.3 13.9
12/21/2020 5:15:00 AM -0.04 31.928 0.167 7.17 1.89 13.9
12/21/2020 5:30:00 AM -0.04 31.928 0.167 7.17 2.15 13.9
12/21/2020 5:45:00 AM -0.04 31.928 0.167 7.17 2.19 13.9
12/21/2020 6:00:00 AM -0.04 31.928 0.167 7.17 2.09 13.9
12/21/2020 6:15:00 AM -0.04 31.928 0.167 7.16 1.9 13.9
12/21/2020 6:30:00 AM -0.04 31.928 0.167 7.16 1.43 13.9
12/21/2020 6:45:00 AM -0.04 31.928 0.167 7.16 1.92 13.9
12/21/2020 7:00:00 AM -0.04 31.928 0.167 7.16 1.77 13.9
12/21/2020 7:15:00 AM -0.04 31.928 0.167 7.16 1.76 13.9
12/21/2020 7:30:00 AM -0.04 31.928 0.167 7.16 1.66 13.9
12/21/2020 7:45:00 AM -0.04 31.928 0.167 7.16 1.43 13.9
12/21/2020 8:00:00 AM -0.04 31.928 0.167 7.17 1.39 13.92
12/21/2020 8:15:00 AM -0.03 31.946 0.167 7.17 1.39 13.96
12/21/2020 8:30:00 AM -0.03 31.946 0.167 7.18 1.37 14
12/21/2020 8:45:00 AM -0.03 31.946 0.167 7.19 1.38 14.04
12/21/2020 9:00:00 AM -0.03 31.946 0.167 7.19 1.4 14.07
12/21/2020 9:15:00 AM -0.03 31.946 0.167 7.21 1.36 14.11
12/21/2020 9:30:00 AM -0.03 31.946 0.167 7.21 1.4 14.15
12/21/2020 9:45:00 AM -0.03 31.946 0.167 7.22 1.42 14.19
12/21/2020 10:00:00 AM -0.03 31.946 0.167 7.24 1.45 14.25
12/21/2020 10:15:00 AM -0.03 31.946 0.167 7.25 1.5 14.29
12/21/2020 10:30:00 AM -0.02 31.964 0.166 7.27 1.51 14.34
12/21/2020 10:45:00 AM -0.02 31.964 0.166 7.28 1.56 14.37
12/21/2020 11:00:00 AM -0.02 31.964 0.166 7.29 1.52 14.4
12/21/2020 11:15:00 AM -0.02 31.964 0.166 7.3 1.44 14.44
12/21/2020 11:30:00 AM -0.01 31.982 0.166 7.32 1.46 14.46
12/21/2020 11:45:00 AM -0.01 31.982 0.166 7.33 1.56 14.49
12/21/2020 12:00:00 PM -0.01 31.982 0.166 7.34 1.81 14.52
12/21/2020 12:15:00 PM -0.01 31.982 0.165 7.36 1.59 14.54
12/21/2020 12:30:00 PM -0.01 31.982 0.165 7.37 1.53 14.57
12/21/2020 12:45:00 PM -0.01 31.982 0.165 7.38 1.59 14.58
12/21/2020 1:00:00 PM -0.01 31.982 0.165 7.39 1.56 14.6
12/21/2020 1:15:00 PM -0.01 31.982 0.165 7.41 1.49 14.64
12/21/2020 1:30:00 PM -0.01 31.982 0.165 7.42 1.68 14.67
12/21/2020 1:45:00 PM -0.01 31.982 0.165 7.43 1.46 14.68
12/21/2020 2:00:00 PM 0 32 0.165 7.44 1.51 14.7
12/21/2020 2:15:00 PM -0.01 31.982 0.164 7.45 1.47 14.71
12/21/2020 2:30:00 PM -0.01 31.982 0.164 7.46 1.52 14.73
12/21/2020 2:45:00 PM -0.01 31.982 0.164 7.47 1.45 14.74
12/21/2020 3:00:00 PM -0.01 31.982 0.164 7.47 1.53 14.74
12/21/2020 3:15:00 PM -0.01 31.982 0.164 7.48 1.61 14.74
12/21/2020 3:30:00 PM -0.01 31.982 0.164 7.48 1.54 14.72
12/21/2020 3:45:00 PM -0.02 31.964 0.164 7.48 1.47 14.72
12/21/2020 4:00:00 PM -0.02 31.964 0.164 7.48 1.57 14.69
12/21/2020 4:15:00 PM -0.02 31.964 0.164 7.46 1.35 14.65
12/21/2020 4:30:00 PM -0.02 31.964 0.164 7.45 1.48 14.62
12/21/2020 4:45:00 PM -0.02 31.964 0.165 7.44 1.39 14.58
12/21/2020 5:00:00 PM -0.02 31.964 0.165 7.42 1.39 14.53
12/21/2020 5:15:00 PM -0.02 31.964 0.165 7.41 1.43 14.5
12/21/2020 5:30:00 PM -0.02 31.964 0.165 7.4 1.57 14.46
12/21/2020 5:45:00 PM -0.02 31.964 0.165 7.39 1.6 14.44
12/21/2020 6:00:00 PM -0.02 31.964 0.165 7.38 1.42 14.4
12/21/2020 6:15:00 PM -0.03 31.946 0.165 7.37 1.43 14.38
12/21/2020 6:30:00 PM -0.03 31.946 0.165 7.36 1.36 14.36
12/21/2020 6:45:00 PM -0.03 31.946 0.165 7.35 1.37 14.33
12/21/2020 7:00:00 PM -0.03 31.946 0.165 7.34 1.38 14.31
12/21/2020 7:15:00 PM -0.03 31.946 0.165 7.34 1.32 14.29
12/21/2020 7:30:00 PM -0.02 31.964 0.165 7.33 1.35 14.26
12/21/2020 7:45:00 PM -0.02 31.964 0.166 7.32 1.4 14.23
12/21/2020 8:00:00 PM -0.02 31.964 0.166 7.32 1.34 14.21
12/21/2020 8:15:00 PM -0.02 31.964 0.166 7.31 1.45 14.19
12/21/2020 8:30:00 PM -0.02 31.964 0.166 7.31 1.32 14.17
12/21/2020 8:45:00 PM -0.02 31.964 0.166 7.3 1.32 14.15
12/21/2020 9:00:00 PM -0.02 31.964 0.166 7.3 1.35 14.14
12/21/2020 9:15:00 PM -0.02 31.964 0.166 7.29 1.35 14.13
12/21/2020 9:30:00 PM -0.02 31.964 0.166 7.29 1.33 14.11
12/21/2020 9:45:00 PM -0.02 31.964 0.166 7.28 1.35 14.1
12/21/2020 10:00:00 PM -0.02 31.964 0.166 7.28 1.4 14.09
12/21/2020 10:15:00 PM -0.02 31.964 0.166 7.26 1.3 14.08
12/21/2020 10:30:00 PM -0.02 31.964 0.166 7.26 1.35 14.07
12/21/2020 10:45:00 PM -0.02 31.964 0.166 7.26 1.32 14.06
12/21/2020 11:00:00 PM -0.02 31.964 0.166 7.25 1.32 14.06
12/21/2020 11:15:00 PM -0.02 31.964 0.166 7.25 1.3 14.05
12/21/2020 11:30:00 PM -0.02 31.964 0.166 7.25 1.32 14.04
12/21/2020 11:45:00 PM -0.02 31.964 0.166 7.25 1.46 14.03
12/22/2020 12:00:00 AM -0.02 31.964 0.165 7.24 1.3 14.03
12/22/2020 12:15:00 AM -0.02 31.964 0.165 7.24 1.32 14.02
12/22/2020 12:30:00 AM -0.02 31.964 0.165 7.24 1.42 14.01
12/22/2020 12:45:00 AM -0.02 31.964 0.165 7.24 1.33 14.01
12/22/2020 1:00:00 AM -0.02 31.964 0.165 7.24 1.32 14
12/22/2020 1:15:00 AM -0.02 31.964 0.165 7.24 1.33 13.99
12/22/2020 1:30:00 AM -0.02 31.964 0.165 7.23 1.35 13.99
12/22/2020 1:45:00 AM -0.02 31.964 0.165 7.23 1.31 13.99
12/22/2020 2:00:00 AM -0.02 31.964 0.165 7.23 1.98 13.99
12/22/2020 2:15:00 AM -0.02 31.964 0.165 7.23 1.33 13.99
12/22/2020 2:30:00 AM -0.02 31.964 0.165 7.23 1.32 13.98
12/22/2020 2:45:00 AM -0.02 31.964 0.165 7.22 1.33 13.98
12/22/2020 3:00:00 AM -0.02 31.964 0.165 7.22 1.32 13.98
12/22/2020 3:15:00 AM -0.02 31.964 0.165 7.22 1.28 13.99
12/22/2020 3:30:00 AM -0.03 31.946 0.165 7.21 1.32 13.99
12/22/2020 3:45:00 AM -0.03 31.946 0.165 7.22 1.34 13.98
12/22/2020 4:00:00 AM -0.03 31.946 0.165 7.21 1.29 13.98
12/22/2020 4:15:00 AM -0.03 31.946 0.165 7.21 1.3 13.98
12/22/2020 4:30:00 AM -0.03 31.946 0.165 7.21 1.32 13.98
12/22/2020 4:45:00 AM -0.03 31.946 0.165 7.21 1.33 13.98
12/22/2020 5:00:00 AM -0.02 31.964 0.165 7.21 1.32 13.97
12/22/2020 5:15:00 AM -0.02 31.964 0.165 7.21 1.31 13.98
12/22/2020 5:30:00 AM -0.02 31.964 0.165 7.21 1.34 13.97
12/22/2020 5:45:00 AM -0.02 31.964 0.165 7.2 1.32 13.97
12/22/2020 6:00:00 AM -0.02 31.964 0.165 7.2 1.33 13.97
12/22/2020 6:15:00 AM -0.02 31.964 0.165 7.2 1.3 13.97
12/22/2020 6:30:00 AM -0.02 31.964 0.165 7.2 1.34 13.97
12/22/2020 6:45:00 AM -0.02 31.964 0.165 7.2 1.32 13.97
12/22/2020 7:00:00 AM -0.02 31.964 0.165 7.2 1.33 13.96
12/22/2020 7:15:00 AM -0.02 31.964 0.165 7.2 1.3 13.96
12/22/2020 7:30:00 AM -0.02 31.964 0.165 7.2 1.33 13.97
12/22/2020 7:45:00 AM -0.02 31.964 0.165 7.2 1.33 13.98
12/22/2020 8:00:00 AM -0.02 31.964 0.165 7.2 1.33 14
12/22/2020 8:15:00 AM -0.01 31.982 0.165 7.2 1.35 14.03
12/22/2020 8:30:00 AM -0.01 31.982 0.165 7.22 1.35 14.09
12/22/2020 8:45:00 AM 0 32 0.165 7.23 1.32 14.13
12/22/2020 9:00:00 AM 0 32 0.165 7.24 1.33 14.16
12/22/2020 9:15:00 AM 0 32 0.165 7.25 1.7 14.19
12/22/2020 9:30:00 AM 0 32 0.165 7.25 1.37 14.23
12/22/2020 9:45:00 AM 0 32 0.165 7.26 1.4 14.28
12/22/2020 10:00:00 AM 0.01 32.018 0.165 7.27 1.37 14.33
12/22/2020 10:15:00 AM 0.02 32.036 0.165 7.29 1.42 14.37
12/22/2020 10:30:00 AM 0.03 32.054 0.164 7.3 1.4 14.42
12/22/2020 10:45:00 AM 0.04 32.072 0.164 7.32 1.44 14.46
12/22/2020 11:00:00 AM 0.04 32.072 0.164 7.35 3274.87 14.49
12/22/2020 11:15:00 AM 0.05 32.09 0.164 7.37 3033.13 14.54
12/22/2020 11:30:00 AM 0.06 32.108 0.164 7.38 3148.81 14.57
12/22/2020 11:45:00 AM 0.06 32.108 0.164 7.4 2755.98 14.6
12/22/2020 12:00:00 PM 0.05 32.09 0.164 7.4 1.91 14.62
12/22/2020 12:15:00 PM 0.06 32.108 0.164 7.41 1.37 14.65
12/22/2020 12:30:00 PM 0.05 32.09 0.164 7.43 1.39 14.68
12/22/2020 12:45:00 PM 0.04 32.072 0.164 7.44 1.41 14.68
12/22/2020 1:00:00 PM 0.04 32.072 0.164 7.45 1.44 14.7
12/22/2020 1:15:00 PM 0.04 32.072 0.164 7.46 1.44 14.74
12/22/2020 1:30:00 PM 0.04 32.072 0.164 7.48 1.42 14.74
12/22/2020 1:45:00 PM 0.03 32.054 0.164 7.48 1.7 14.75
12/22/2020 2:00:00 PM 0.02 32.036 0.164 7.49 1.42 14.74
12/22/2020 2:15:00 PM 0.02 32.036 0.164 7.49 1.39 14.76
12/22/2020 2:30:00 PM 0.02 32.036 0.164 7.5 1.4 14.78
12/22/2020 2:45:00 PM 0.02 32.036 0.164 7.5 1.36 14.77
12/22/2020 3:00:00 PM 0.03 32.054 0.164 7.52 1.32 14.79
12/22/2020 3:15:00 PM 0.03 32.054 0.164 7.52 1.35 14.79
12/22/2020 3:30:00 PM 0.02 32.036 0.164 7.52 1.35 14.79
12/22/2020 3:45:00 PM 0.02 32.036 0.164 7.52 1.4 14.78
12/22/2020 4:00:00 PM 0.01 32.018 0.164 7.52 1.36 14.76
12/22/2020 4:15:00 PM 0.01 32.018 0.164 7.51 1.41 14.74
12/22/2020 4:30:00 PM 0 32 0.164 7.5 1.35 14.71
12/22/2020 4:45:00 PM 0 32 0.164 7.49 1.36 14.67
12/22/2020 5:00:00 PM 0 32 0.164 7.47 1.32 14.63
12/22/2020 5:15:00 PM 0 32 0.164 7.46 1.37 14.6
12/22/2020 5:30:00 PM 0 32 0.164 7.45 1.4 14.57
12/22/2020 5:45:00 PM 0 32 0.164 7.43 1.4 14.54
12/22/2020 6:00:00 PM 0 32 0.164 7.42 1.4 14.52
12/22/2020 6:15:00 PM 0 32 0.164 7.41 1.41 14.5
12/22/2020 6:30:00 PM 0 32 0.164 7.4 1.32 14.47
12/22/2020 6:45:00 PM 0 32 0.165 7.4 1.35 14.45
12/22/2020 7:00:00 PM 0 32 0.165 7.39 1.35 14.44
12/22/2020 7:15:00 PM 0 32 0.165 7.38 1.32 14.43
12/22/2020 7:30:00 PM 0 32 0.165 7.37 1.38 14.4
12/22/2020 7:45:00 PM 0 32 0.165 7.37 1.34 14.39
12/22/2020 8:00:00 PM 0 32 0.165 7.36 1.28 14.38
12/22/2020 8:15:00 PM 0 32 0.165 7.36 1.36 14.37
12/22/2020 8:30:00 PM 0 32 0.165 7.35 1.43 14.36
12/22/2020 8:45:00 PM 0 32 0.165 7.35 1.36 14.35
12/22/2020 9:00:00 PM 0 32 0.165 7.34 1.36 14.34
12/22/2020 9:15:00 PM 0 32 0.165 7.34 1.39 14.33
12/22/2020 9:30:00 PM 0 32 0.165 7.33 1.33 14.33
12/22/2020 9:45:00 PM 0 32 0.165 7.33 1.35 14.33
12/22/2020 10:00:00 PM -0.01 31.982 0.165 7.32 1.37 14.32
12/22/2020 10:15:00 PM -0.01 31.982 0.165 7.31 1.36 14.33
12/22/2020 10:30:00 PM -0.01 31.982 0.165 7.31 1.29 14.32
12/22/2020 10:45:00 PM -0.01 31.982 0.165 7.31 1.32 14.32
12/22/2020 11:00:00 PM -0.01 31.982 0.165 7.31 1.35 14.31
12/22/2020 11:15:00 PM -0.01 31.982 0.165 7.3 1.3 14.31
12/22/2020 11:30:00 PM -0.01 31.982 0.165 7.3 1.35 14.3
12/22/2020 11:45:00 PM -0.01 31.982 0.165 7.3 1.32 14.31
12/23/2020 12:00:00 AM -0.01 31.982 0.165 7.29 1.32 14.3
12/23/2020 12:15:00 AM -0.02 31.964 0.165 7.3 1.34 14.3
12/23/2020 12:30:00 AM -0.02 31.964 0.165 7.29 1.35 14.29
12/23/2020 12:45:00 AM -0.02 31.964 0.165 7.29 1.32 14.3
12/23/2020 1:00:00 AM -0.02 31.964 0.165 7.28 1.31 14.29
12/23/2020 1:15:00 AM -0.02 31.964 0.165 7.28 1.31 14.29
12/23/2020 1:30:00 AM -0.02 31.964 0.165 7.28 1.34 14.3
12/23/2020 1:45:00 AM -0.03 31.946 0.165 7.28 1.3 14.3
12/23/2020 2:00:00 AM -0.03 31.946 0.165 7.28 1.29 14.3
12/23/2020 2:15:00 AM -0.03 31.946 0.165 7.28 1.31 14.31
12/23/2020 2:30:00 AM -0.03 31.946 0.165 7.28 1.3 14.31
12/23/2020 2:45:00 AM -0.03 31.946 0.165 7.28 1.93 14.32
12/23/2020 3:00:00 AM -0.03 31.946 0.165 7.27 2.9 14.32
12/23/2020 3:15:00 AM -0.02 31.964 0.165 7.28 1.31 14.32
12/23/2020 3:30:00 AM -0.02 31.964 0.165 7.27 1.28 14.31
12/23/2020 3:45:00 AM -0.02 31.964 0.165 7.27 1.37 14.31
12/23/2020 4:00:00 AM -0.02 31.964 0.165 7.26 1.32 14.31
12/23/2020 4:15:00 AM -0.02 31.964 0.165 7.27 1.29 14.32
12/23/2020 4:30:00 AM -0.02 31.964 0.165 7.26 1.33 14.32
12/23/2020 4:45:00 AM -0.02 31.964 0.165 7.26 1.35 14.32
12/23/2020 5:00:00 AM -0.02 31.964 0.165 7.26 1.35 14.32
12/23/2020 5:15:00 AM -0.02 31.964 0.165 7.26 1.29 14.32
12/23/2020 5:30:00 AM -0.02 31.964 0.165 7.27 1.34 14.32
12/23/2020 5:45:00 AM -0.02 31.964 0.165 7.26 1.33 14.32
12/23/2020 6:00:00 AM -0.02 31.964 0.165 7.25 1.3 14.33
12/23/2020 6:15:00 AM -0.03 31.946 0.165 7.25 1.35 14.33
12/23/2020 6:30:00 AM -0.03 31.946 0.165 7.25 1.32 14.33
12/23/2020 6:45:00 AM -0.04 31.928 0.165 7.25 1.34 14.34
12/23/2020 7:00:00 AM -0.04 31.928 0.165 7.25 1.33 14.34
12/23/2020 7:15:00 AM -0.05 31.91 0.165 7.25 1.3 14.34
12/23/2020 7:30:00 AM -0.05 31.91 0.165 7.25 1.3 14.36
12/23/2020 7:45:00 AM -0.05 31.91 0.165 7.25 1.32 14.38
12/23/2020 8:00:00 AM -0.04 31.928 0.165 7.26 1.33 14.42
12/23/2020 8:15:00 AM -0.03 31.946 0.166 7.27 1.34 14.47
12/23/2020 8:30:00 AM -0.02 31.964 0.165 7.28 1.31 14.52
12/23/2020 8:45:00 AM -0.01 31.982 0.166 7.29 1.32 14.56
12/23/2020 9:00:00 AM -0.01 31.982 0.166 7.3 1.27 14.58
12/23/2020 9:15:00 AM -0.01 31.982 0.166 7.31 1.3 14.62
12/23/2020 9:30:00 AM 0 32 0.166 7.33 1.32 14.65
12/23/2020 9:45:00 AM 0.02 32.036 0.166 7.34 1.34 14.69
12/23/2020 10:00:00 AM 0.04 32.072 0.166 7.36 1.35 14.72
12/23/2020 10:15:00 AM 0.05 32.09 0.165 7.38 1.34 14.75
12/23/2020 10:30:00 AM 0.06 32.108 0.165 7.39 1.35 14.78
12/23/2020 10:45:00 AM 0.07 32.126 0.165 7.41 1.35 14.82
12/23/2020 11:00:00 AM 0.09 32.162 0.165 7.42 1.4 14.85
12/23/2020 11:15:00 AM 0.1 32.18 0.165 7.44 1.37 14.87
12/23/2020 11:30:00 AM 0.12 32.216 0.165 7.46 1.39 14.89
12/23/2020 11:45:00 AM 0.13 32.234 0.165 7.47 1.39 14.91
12/23/2020 12:00:00 PM 0.13 32.234 0.165 7.48 1.37 14.92
12/23/2020 12:15:00 PM 0.13 32.234 0.164 7.5 1.41 14.94
12/23/2020 12:30:00 PM 0.13 32.234 0.164 7.51 1.37 14.96
12/23/2020 12:45:00 PM 0.14 32.252 0.164 7.52 1.41 14.97
12/23/2020 1:00:00 PM 0.13 32.234 0.164 7.53 1.39 14.99
12/23/2020 1:15:00 PM 0.12 32.216 0.164 7.55 1.38 15.01
12/23/2020 1:30:00 PM 0.12 32.216 0.164 7.56 1.39 15.01
12/23/2020 1:45:00 PM 0.11 32.198 0.164 7.56 1.4 15.03
12/23/2020 2:00:00 PM 0.1 32.18 0.163 7.57 1.38 15.04
12/23/2020 2:15:00 PM 0.1 32.18 0.163 7.58 1.38 15.05
12/23/2020 2:30:00 PM 0.09 32.162 0.163 7.59 1.45 15.05
12/23/2020 2:45:00 PM 0.08 32.144 0.163 7.59 1.39 15.06
12/23/2020 3:00:00 PM 0.07 32.126 0.163 7.6 1.4 15.05
12/23/2020 3:15:00 PM 0.06 32.108 0.163 7.6 1.34 15.05
12/23/2020 3:30:00 PM 0.06 32.108 0.163 7.6 1.37 15.04
12/23/2020 3:45:00 PM 0.05 32.09 0.164 7.6 1.35 15.02
12/23/2020 4:00:00 PM 0.04 32.072 0.164 7.59 1.35 14.99
12/23/2020 4:15:00 PM 0.03 32.054 0.164 7.58 1.35 14.96
12/23/2020 4:30:00 PM 0.02 32.036 0.164 7.56 1.36 14.91
12/23/2020 4:45:00 PM 0.01 32.018 0.164 7.55 1.35 14.86
12/23/2020 5:00:00 PM 0.01 32.018 0.164 7.53 1.55 14.8
12/23/2020 5:15:00 PM 0.01 32.018 0.165 7.51 1.38 14.77
12/23/2020 5:30:00 PM 0.01 32.018 0.165 7.49 1.37 14.73
12/23/2020 5:45:00 PM 0 32 0.165 7.48 1.4 14.71
12/23/2020 6:00:00 PM 0 32 0.165 7.47 1.37 14.68
12/23/2020 6:15:00 PM 0 32 0.165 7.46 1.33 14.65
12/23/2020 6:30:00 PM -0.01 31.982 0.165 7.45 1.33 14.63
12/23/2020 6:45:00 PM -0.01 31.982 0.166 7.44 1.3 14.61
12/23/2020 7:00:00 PM -0.01 31.982 0.166 7.43 1.3 14.6
12/23/2020 7:15:00 PM -0.01 31.982 0.166 7.42 1.34 14.57
12/23/2020 7:30:00 PM 0 32 0.166 7.41 1.32 14.55
12/23/2020 7:45:00 PM 0 32 0.166 7.4 1.31 14.55
12/23/2020 8:00:00 PM 0 32 0.166 7.39 1.34 14.52
12/23/2020 8:15:00 PM 0 32 0.166 7.39 1.36 14.5
12/23/2020 8:30:00 PM 0 32 0.166 7.38 1.33 14.49
12/23/2020 8:45:00 PM 0.01 32.018 0.166 7.38 1.34 14.48
12/23/2020 9:00:00 PM 0.01 32.018 0.166 7.37 1.3 14.46
12/23/2020 9:15:00 PM 0.01 32.018 0.167 7.37 1.3 14.45
12/23/2020 9:30:00 PM 0.01 32.018 0.167 7.36 1.36 14.44
12/23/2020 9:45:00 PM 0.01 32.018 0.167 7.36 1.34 14.43
12/23/2020 10:00:00 PM 0.01 32.018 0.167 7.35 1.32 14.42
12/23/2020 10:15:00 PM 0.01 32.018 0.167 7.35 1.33 14.42
12/23/2020 10:30:00 PM 0.01 32.018 0.167 7.34 1.3 14.41
12/23/2020 10:45:00 PM 0.01 32.018 0.167 7.34 1.33 14.4
12/23/2020 11:00:00 PM 0.01 32.018 0.167 7.34 1.35 14.39
12/23/2020 11:15:00 PM 0.02 32.036 0.167 7.34 1.32 14.39
12/23/2020 11:30:00 PM 0.01 32.018 0.167 7.33 1.32 14.38
12/23/2020 11:45:00 PM 0.02 32.036 0.167 7.33 1.33 14.37
12/24/2020 12:00:00 AM 0.02 32.036 0.167 7.33 1.32 14.37
12/24/2020 12:15:00 AM 0.02 32.036 0.167 7.33 1.33 14.36
12/24/2020 12:30:00 AM 0.02 32.036 0.167 7.32 1.36 14.35
12/24/2020 12:45:00 AM 0.02 32.036 0.167 7.32 1.35 14.35
12/24/2020 1:00:00 AM 0.02 32.036 0.167 7.32 1.33 14.34
12/24/2020 1:15:00 AM 0.01 32.018 0.167 7.32 1.35 14.34
12/24/2020 1:30:00 AM 0.01 32.018 0.167 7.33 1.39 14.33
12/24/2020 1:45:00 AM 0.01 32.018 0.167 7.32 1.44 14.32
12/24/2020 2:00:00 AM 0.02 32.036 0.167 7.32 1.47 14.32
12/24/2020 2:15:00 AM 0.02 32.036 0.166 7.32 1.37 14.31
12/24/2020 2:30:00 AM 0.03 32.054 0.166 7.32 1.37 14.31
12/24/2020 2:45:00 AM 0.03 32.054 0.166 7.32 1.46 14.3
12/24/2020 3:00:00 AM 0.03 32.054 0.166 7.32 1.39 14.3
12/24/2020 3:15:00 AM 0.04 32.072 0.166 7.32 1.33 14.3
12/24/2020 3:30:00 AM 0.04 32.072 0.166 7.32 1.35 14.29
12/24/2020 3:45:00 AM 0.04 32.072 0.166 7.31 1.34 14.29
12/24/2020 4:00:00 AM 0.04 32.072 0.166 7.32 1.33 14.28
12/24/2020 4:15:00 AM 0.04 32.072 0.166 7.31 1.33 14.28
12/24/2020 4:30:00 AM 0.05 32.09 0.166 7.31 1.35 14.27
12/24/2020 4:45:00 AM 0.05 32.09 0.166 7.31 1.33 14.27
12/24/2020 5:00:00 AM 0.05 32.09 0.166 7.31 1.66 14.27
12/24/2020 5:15:00 AM 0.05 32.09 0.166 7.31 1.37 14.26
12/24/2020 5:30:00 AM 0.05 32.09 0.166 7.31 1.36 14.26
12/24/2020 5:45:00 AM 0.05 32.09 0.166 7.31 1.37 14.25
12/24/2020 6:00:00 AM 0.05 32.09 0.166 7.31 1.39 14.25
12/24/2020 6:15:00 AM 0.06 32.108 0.166 7.31 1.36 14.24
12/24/2020 6:30:00 AM 0.06 32.108 0.166 7.3 1.35 14.24
12/24/2020 6:45:00 AM 0.06 32.108 0.166 7.3 1.32 14.23
12/24/2020 7:00:00 AM 0.06 32.108 0.166 7.3 1.38 14.22
12/24/2020 7:15:00 AM 0.07 32.126 0.166 7.3 1.35 14.22
12/24/2020 7:30:00 AM 0.07 32.126 0.166 7.3 1.37 14.22
12/24/2020 7:45:00 AM 0.07 32.126 0.166 7.3 1.39 14.22
12/24/2020 8:00:00 AM 0.07 32.126 0.165 7.3 1.46 14.22
12/24/2020 8:15:00 AM 0.07 32.126 0.165 7.3 1.38 14.23
12/24/2020 8:30:00 AM 0.07 32.126 0.165 7.31 1.39 14.24
12/24/2020 8:45:00 AM 0.07 32.126 0.165 7.31 1.4 14.25
12/24/2020 9:00:00 AM 0.07 32.126 0.165 7.32 1.44 14.29
12/24/2020 9:15:00 AM 0.07 32.126 0.165 7.33 1.41 14.32
12/24/2020 9:30:00 AM 0.08 32.144 0.165 7.34 1.45 14.37
12/24/2020 9:45:00 AM 0.09 32.162 0.165 7.35 1.42 14.41
12/24/2020 10:00:00 AM 0.1 32.18 0.165 7.36 1.42 14.44
12/24/2020 10:15:00 AM 0.1 32.18 0.165 7.37 1.54 14.46
12/24/2020 10:30:00 AM 0.1 32.18 0.164 7.38 1.89 14.49
12/24/2020 10:45:00 AM 0.1 32.18 0.164 7.38 2.25 14.51
12/24/2020 11:00:00 AM 0.1 32.18 0.164 7.39 3.07 14.52
12/24/2020 11:15:00 AM 0.1 32.18 0.164 7.4 1.66 14.53
12/24/2020 11:30:00 AM 0.12 32.216 0.163 7.41 1.67 14.55
12/24/2020 11:45:00 AM 0.14 32.252 0.163 7.41 1.82 14.56
12/24/2020 12:00:00 PM 0.15 32.27 0.163 7.42 1.84 14.56
12/24/2020 12:15:00 PM 0.15 32.27 0.163 7.42 1.98 14.55
12/24/2020 12:30:00 PM 0.15 32.27 0.163 7.43 2.1 14.55
12/24/2020 12:45:00 PM 0.15 32.27 0.163 7.42 2.28 14.54
12/24/2020 1:00:00 PM 0.14 32.252 0.163 7.42 2.89 14.53
12/24/2020 1:15:00 PM 0.13 32.234 0.163 7.42 3.23 14.52
12/24/2020 1:30:00 PM 0.12 32.216 0.164 7.42 3.56 14.5
12/24/2020 1:45:00 PM 0.1 32.18 0.165 7.41 4.65 14.49
12/24/2020 2:00:00 PM 0.09 32.162 0.165 7.4 5.18 14.46
12/24/2020 2:15:00 PM 0.07 32.126 0.165 7.39 6.44 14.44
12/24/2020 2:30:00 PM 0.06 32.108 0.164 7.37 6.47 14.41
12/24/2020 2:45:00 PM 0.05 32.09 0.164 7.36 10.66 14.38
12/24/2020 3:00:00 PM 0.05 32.09 0.163 7.34 12.28 14.35
12/24/2020 3:15:00 PM 0.05 32.09 0.162 7.31 14.61 14.31
12/24/2020 3:30:00 PM 0.04 32.072 0.16 7.3 22.22 14.27
12/24/2020 3:45:00 PM 0.04 32.072 0.159 7.24 24.65 14.24
12/24/2020 4:00:00 PM 0.02 32.036 0.157 7.23 39.41 14.2
12/24/2020 4:15:00 PM -0.02 31.964 0.155 7.19 83.87 14.15
12/24/2020 4:30:00 PM 0.01 32.018 0.154 7.16 54.03 14.13
12/24/2020 4:45:00 PM 0.03 32.054 0.152 7.13 69.78 14.11
12/24/2020 5:00:00 PM 0.06 32.108 0.15 7.11 75.5 14.08
12/24/2020 5:15:00 PM 0.02 32.036 0.146 7.06 162.05 14.03
12/24/2020 5:30:00 PM 0.04 32.072 0.147 7.04 148.46 14.01
12/24/2020 5:45:00 PM 0.06 32.108 0.149 7.03 122.42 14.01
12/24/2020 6:00:00 PM 0.08 32.144 0.151 7.03 163.91 14.02
12/24/2020 6:15:00 PM 0.1 32.18 0.152 7 190.04 14.01
12/24/2020 6:30:00 PM 0.13 32.234 0.121 6.99 217.35 14.02
12/24/2020 6:45:00 PM 0.12 32.216 0.152 6.98 159.21 14.03
12/24/2020 7:00:00 PM 0.13 32.234 0.146 6.93 180.04 14.04
12/24/2020 7:15:00 PM 0.01 32.018 0.045 6.91 241.48 14.08
12/24/2020 7:30:00 PM 0.19 32.342 0.138 6.94 256.87 14.09
12/24/2020 7:45:00 PM 0.27 32.486 0.133 6.97 216.28 14.07
12/24/2020 8:00:00 PM 0.04 32.072 0.126 6.91 393.36 14.1
12/24/2020 8:15:00 PM 0.1 32.18 0.09 6.89 396.49 14.11
12/24/2020 8:30:00 PM 0.33 32.594 0.08 6.88 122.62 14.1
12/24/2020 8:45:00 PM 0.39 32.702 0.08 6.85 332.69 14.09
12/24/2020 9:00:00 PM 0.26 32.468 0.109 6.84 48.02 14.08
12/24/2020 9:15:00 PM 0.29 32.522 0.109 6.81 65.81 14.06
12/24/2020 9:30:00 PM 0.22 32.396 0.112 6.85 66.83 14.04
12/24/2020 9:45:00 PM 0.36 32.648 0.109 6.86 28.54 14.03
12/24/2020 10:00:00 PM 0.41 32.738 0.108 6.87 13.18 14.02
12/24/2020 10:15:00 PM 0.47 32.846 0.105 6.86 16.22 14.02
12/24/2020 10:30:00 PM 0.44 32.792 0.102 6.87 14.35 14.01
12/24/2020 10:45:00 PM 0.54 32.972 0.096 6.82 31.15 13.99
12/24/2020 11:00:00 PM 0.6 33.08 0.093 6.85 121.89 13.96
12/24/2020 11:15:00 PM 0.72 33.296 0.09 6.84 124.8 13.94
12/24/2020 11:30:00 PM 0.66 33.188 0.087 6.8 84.53 13.92
12/24/2020 11:45:00 PM 0.67 33.206 0.085 6.8 133.36 13.9
12/25/2020 12:00:00 AM 0.77 33.386 0.085 6.8 87.72 13.88
12/25/2020 12:15:00 AM 0.83 33.494 0.085 6.8 117.02 13.87
12/25/2020 12:30:00 AM 0.85 33.53 0.083 6.75 132.56 13.85
12/25/2020 12:45:00 AM 0.88 33.584 0.083 6.73 253.81 13.85
12/25/2020 1:00:00 AM 0.89 33.602 0.082 6.74 49.14 13.84
12/25/2020 1:15:00 AM 0.89 33.602 0.081 6.79 203.53 13.83
12/25/2020 1:30:00 AM 0.85 33.53 0.08 6.75 68.39 13.83
12/25/2020 1:45:00 AM 0.94 33.692 0.08 6.74 59.99 13.82
12/25/2020 2:00:00 AM 1.02 33.836 0.079 6.72 135.45 13.8
12/25/2020 2:15:00 AM 1.1 33.98 0.078 6.74 115.59 13.78
12/25/2020 2:30:00 AM 1.22 34.196 0.077 6.72 258 13.75
12/25/2020 2:45:00 AM 1.31 34.358 0.076 6.72 317.27 13.73
12/25/2020 3:00:00 AM 1.41 34.538 0.075 6.75 229.78 13.69
12/25/2020 3:15:00 AM 1.52 34.736 0.074 6.72 264.8 13.66
12/25/2020 3:30:00 AM 1.66 34.988 0.071 6.69 122.31 13.61
12/25/2020 3:45:00 AM 1.72 35.096 0.07 6.73 51.84 13.58
12/25/2020 4:00:00 AM 1.78 35.204 0.068 6.68 49.67 13.57
12/25/2020 4:15:00 AM 1.82 35.276 0.066 6.68 62.03 13.56
12/25/2020 4:30:00 AM 1.84 35.312 0.066 6.62 159.38 13.54
12/25/2020 4:45:00 AM 1.85 35.33 0.065 6.64 166.22 13.55
12/25/2020 5:00:00 AM 1.87 35.366 0.063 6.7 238.8 13.53
12/25/2020 5:15:00 AM 1.9 35.42 0.063 6.69 504.48 13.53
12/25/2020 5:30:00 AM 1.94 35.492 0.061 6.7 200.32 13.51
12/25/2020 5:45:00 AM 1.98 35.564 0.061 6.67 165.82 13.5
12/25/2020 6:00:00 AM 1.98 35.564 0.059 6.62 66.76 13.49
12/25/2020 6:15:00 AM 1.97 35.546 0.058 6.63 117.92 13.49
12/25/2020 6:30:00 AM 1.91 35.438 0.057 6.67 232.54 13.5
12/25/2020 6:45:00 AM 1.85 35.33 0.056 6.7 243.04 13.52
12/25/2020 7:00:00 AM 1.75 35.15 0.055 6.7 220.82 13.53
12/25/2020 7:15:00 AM 1.67 35.006 0.055 6.67 241.52 13.55
12/25/2020 7:30:00 AM 1.6 34.88 0.054 6.66 205.82 13.57
12/25/2020 7:45:00 AM 1.53 34.754 0.052 6.65 190.13 13.59
12/25/2020 8:00:00 AM 1.45 34.61 0.052 6.66 183.5 13.62
12/25/2020 8:15:00 AM 1.4 34.52 0.048 6.68 193.16 13.64
12/25/2020 8:30:00 AM 1.35 34.43 0.042 6.68 211.31 13.66
12/25/2020 8:45:00 AM 1.32 34.376 0.04 6.75 502.37 13.67
12/25/2020 9:00:00 AM 1.33 34.394 0.038 6.67 540.31 13.67
12/25/2020 9:15:00 AM 1.33 34.394 0.036 6.75 739.48 13.68
12/25/2020 9:30:00 AM 1.35 34.43 0.031 6.72 625.7 13.7
12/25/2020 9:45:00 AM 1.35 34.43 0.031 6.8 304.51 13.7
12/25/2020 10:00:00 AM 1.35 34.43 0.056 6.78 323.92 13.71
12/25/2020 10:15:00 AM 1.34 34.412 0.07 6.75 271.22 13.73
12/25/2020 10:30:00 AM 1.34 34.412 0.056 6.8 287.91 13.73
12/25/2020 10:45:00 AM 1.33 34.394 0.056 6.71 200.92 13.74
12/25/2020 11:00:00 AM 1.33 34.394 0.053 6.75 382.33 13.75
12/25/2020 11:15:00 AM 1.33 34.394 0.046 6.81 496.67 13.75
12/25/2020 11:30:00 AM 1.33 34.394 0.042 6.82 128.9 13.75
12/25/2020 11:45:00 AM 1.34 34.412 0.057 6.73 299.14 13.75
12/25/2020 12:00:00 PM 1.35 34.43 0.057 6.77 233.92 13.75
12/25/2020 12:15:00 PM 1.37 34.466 0.051 6.73 350.03 13.74
12/25/2020 12:30:00 PM 1.38 34.484 0.056 6.82 288.4 13.75
12/25/2020 12:45:00 PM 1.4 34.52 0.057 6.85 276.99 13.74
12/25/2020 1:00:00 PM 1.43 34.574 0.055 6.79 219.55 13.74
12/25/2020 1:15:00 PM 1.45 34.61 0.052 6.85 203.8 13.73
12/25/2020 1:30:00 PM 1.47 34.646 0.053 6.75 95.55 13.73
12/25/2020 1:45:00 PM 1.48 34.664 0.052 6.83 172.36 13.72
12/25/2020 2:00:00 PM 1.5 34.7 0.051 6.81 133.25 13.72
12/25/2020 2:15:00 PM 1.52 34.736 0.052 6.84 114.45 13.72
12/25/2020 2:30:00 PM 1.53 34.754 0.053 6.89 110.46 13.72
12/25/2020 2:45:00 PM 1.55 34.79 0.052 6.81 153.32 13.7
12/25/2020 3:00:00 PM 1.58 34.844 0.051 6.85 87.73 13.7
12/25/2020 3:15:00 PM 1.61 34.898 0.051 6.89 146.57 13.69
12/25/2020 3:30:00 PM 1.64 34.952 0.051 6.84 123.26 13.68
12/25/2020 3:45:00 PM 1.67 35.006 0.051 6.73 109.84 13.66
12/25/2020 4:00:00 PM 1.71 35.078 0.051 6.85 83.39 13.65
12/25/2020 4:15:00 PM 1.76 35.168 0.051 6.81 113.82 13.63
12/25/2020 4:30:00 PM 1.8 35.24 0.049 6.88 93.3 13.61
12/25/2020 4:45:00 PM 1.84 35.312 0.05 6.98 103.3 13.6
12/25/2020 5:00:00 PM 1.88 35.384 0.05 6.84 98.39 13.58
12/25/2020 5:15:00 PM 1.92 35.456 0.05 6.86 104.91 13.57
12/25/2020 5:30:00 PM 1.96 35.528 0.05 6.88 220.73 13.55
12/25/2020 5:45:00 PM 2 35.6 0.05 6.9 195.18 13.54
12/25/2020 6:00:00 PM 2.04 35.672 0.05 6.87 192.05 13.52
12/25/2020 6:15:00 PM 2.08 35.744 0.05 6.87 358.58 13.51
12/25/2020 6:30:00 PM 2.11 35.798 0.05 6.87 274.55 13.5
12/25/2020 6:45:00 PM 2.15 35.87 0.05 6.9 515.26 13.48
12/25/2020 7:00:00 PM 2.18 35.924 0.049 6.85 180.37 13.48
12/25/2020 7:15:00 PM 2.21 35.978 0.049 6.88 173.21 13.46
12/25/2020 7:30:00 PM 2.23 36.014 0.049 6.88 189.04 13.45
12/25/2020 7:45:00 PM 2.25 36.05 0.049 6.85 372.53 13.45
12/25/2020 8:00:00 PM 2.26 36.068 0.049 6.92 312.28 13.45
12/25/2020 8:15:00 PM 2.27 36.086 0.049 6.86 404.3 13.44
12/25/2020 8:30:00 PM 2.28 36.104 0.048 6.87 360.95 13.44
12/25/2020 8:45:00 PM 2.29 36.122 0.049 6.96 476.94 13.43
12/25/2020 9:00:00 PM 2.3 36.14 0.049 6.92 301.74 13.43
12/25/2020 9:15:00 PM 2.3 36.14 0.048 6.92 404.41 13.43
12/25/2020 9:30:00 PM 2.3 36.14 0.048 6.93 557.78 13.43
12/25/2020 9:45:00 PM 2.3 36.14 0.048 6.93 634.09 13.43
12/25/2020 10:00:00 PM 2.29 36.122 0.048 6.92 773.58 13.43
12/25/2020 10:15:00 PM 2.29 36.122 0.046 6.94 870.25 13.43
12/25/2020 10:30:00 PM 2.29 36.122 0.045 6.93 496.33 13.44
12/25/2020 10:45:00 PM 2.28 36.104 0.044 6.94 961.11 13.44
12/25/2020 11:00:00 PM 2.27 36.086 0.044 6.95 243.41 13.44
12/25/2020 11:15:00 PM 2.27 36.086 0.042 6.96 252.02 13.45
12/25/2020 11:30:00 PM 2.26 36.068 0.041 6.95 734.75 13.45
12/25/2020 11:45:00 PM 2.25 36.05 0.04 6.96 219.58 13.45
12/26/2020 12:00:00 AM 2.25 36.05 0.038 6.98 179.62 13.46
12/26/2020 12:15:00 AM 2.23 36.014 0.037 6.98 177.41 13.46
12/26/2020 12:30:00 AM 2.22 35.996 0.036 6.97 335.02 13.47
12/26/2020 12:45:00 AM 2.2 35.96 0.035 6.97 424.03 13.48
12/26/2020 1:00:00 AM 2.18 35.924 0.074 6.97 989.92 13.46
12/26/2020 1:15:00 AM 2.16 35.888 0.07 6.98 80.95 13.49
12/26/2020 1:30:00 AM 2.15 35.87 0.069 6.99 82.19 13.49
12/26/2020 1:45:00 AM 2.12 35.816 0.068 6.98 92.05 13.5
12/26/2020 2:00:00 AM 2.1 35.78 0.067 6.96 128.83 13.51
12/26/2020 2:15:00 AM 2.07 35.726 0.065 6.98 134.66 13.52
12/26/2020 2:30:00 AM 2.04 35.672 0.064 6.98 114.05 13.52
12/26/2020 2:45:00 AM 2.01 35.618 0.062 6.98 88.21 13.54
12/26/2020 3:00:00 AM 1.99 35.582 0.059 6.99 131.26 13.55
12/26/2020 3:15:00 AM 1.96 35.528 0.055 6.99 101.79 13.56
12/26/2020 3:30:00 AM 1.94 35.492 0.05 7 95.76 13.57
12/26/2020 3:45:00 AM 1.91 35.438 0.044 7 66.05 13.58
12/26/2020 4:00:00 AM 1.89 35.402 0.078 7.01 69.8 13.58
12/26/2020 4:15:00 AM 1.86 35.348 0.074 7 44.77 13.6
12/26/2020 4:30:00 AM 1.82 35.276 0.073 6.99 70.59 13.61
12/26/2020 4:45:00 AM 1.79 35.222 0.07 7 102.55 13.62
12/26/2020 5:00:00 AM 1.77 35.186 0.067 6.99 82.32 13.63
12/26/2020 5:15:00 AM 1.74 35.132 0.063 7 82.61 13.64
12/26/2020 5:30:00 AM 1.7 35.06 0.058 7 56.23 13.66
12/26/2020 5:45:00 AM 1.68 35.024 0.079 7 82.35 13.66
12/26/2020 6:00:00 AM 1.65 34.97 0.075 7 62.16 13.68
12/26/2020 6:15:00 AM 1.63 34.934 0.074 7 72.37 13.69
12/26/2020 6:30:00 AM 1.6 34.88 0.072 7 88.42 13.71
12/26/2020 6:45:00 AM 1.57 34.826 0.068 6.99 212.63 13.72
12/26/2020 7:00:00 AM 1.54 34.772 0.066 7.01 177.19 13.72
12/26/2020 7:15:00 AM 1.5 34.7 0.062 7.01 147.75 13.75
12/26/2020 7:30:00 AM 1.47 34.646 0.08 7.01 41.9 13.75
12/26/2020 7:45:00 AM 1.44 34.592 0.072 7.01 43.51 13.77
12/26/2020 8:00:00 AM 1.41 34.538 0.07 7.02 54.56 13.78
12/26/2020 8:15:00 AM 1.38 34.484 0.064 7.02 108.92 13.79
12/26/2020 8:30:00 AM 1.35 34.43 0.081 7.03 31.21 13.8
12/26/2020 8:45:00 AM 1.34 34.412 0.075 7.03 72.77 13.82
12/26/2020 9:00:00 AM 1.32 34.376 0.073 7.01 135.09 13.83
12/26/2020 9:15:00 AM 1.29 34.322 0.08 7.02 55.25 13.84
12/26/2020 9:30:00 AM 1.27 34.286 0.068 7.02 240.53 13.85
12/26/2020 9:45:00 AM 1.27 34.286 0.073 7.02 44.16 13.86
12/26/2020 10:00:00 AM 1.25 34.25 0.075 7.01 34.77 13.87
12/26/2020 10:15:00 AM 1.24 34.232 0.083 7.02 50.56 13.87
12/26/2020 10:30:00 AM 1.24 34.232 0.082 7.01 46.45 13.88
12/26/2020 10:45:00 AM 1.22 34.196 0.082 7.01 42.51 13.89
12/26/2020 11:00:00 AM 1.22 34.196 0.077 7.02 31.21 13.89
12/26/2020 11:15:00 AM 1.21 34.178 0.078 7.01 42.1 13.9
12/26/2020 11:30:00 AM 1.2 34.16 0.062 7.01 49.12 13.9
12/26/2020 11:45:00 AM 1.19 34.142 0.063 7.02 46.88 13.91
12/26/2020 12:00:00 PM 1.19 34.142 0.06 7.01 42.12 13.9
12/26/2020 12:15:00 PM 1.19 34.142 0.085 7.02 45.88 13.91
12/26/2020 12:30:00 PM 1.19 34.142 0.085 7.02 51.97 13.9
12/26/2020 12:45:00 PM 1.18 34.124 0.085 7.03 36.33 13.91
12/26/2020 1:00:00 PM 1.17 34.106 0.085 7.03 38.63 13.92
12/26/2020 1:15:00 PM 1.17 34.106 0.086 7.04 40.13 13.91
12/26/2020 1:30:00 PM 1.16 34.088 0.086 7.03 40.75 13.91
12/26/2020 1:45:00 PM 1.16 34.088 0.086 7.03 524.06 13.91
12/26/2020 2:00:00 PM 1.15 34.07 0.086 7.03 45.77 13.92
12/26/2020 2:15:00 PM 1.15 34.07 0.086 7.03 58.46 13.92
12/26/2020 2:30:00 PM 1.15 34.07 0.085 7.03 738.11 13.92
12/26/2020 2:45:00 PM 1.13 34.034 0.087 7.03 48.91 13.93
12/26/2020 3:00:00 PM 1.12 34.016 0.087 7.03 44.78 13.93
12/26/2020 3:15:00 PM 1.1 33.98 0.087 7.03 80.49 13.94
12/26/2020 3:30:00 PM 1.09 33.962 0.087 7.02 552.45 13.94
12/26/2020 3:45:00 PM 1.07 33.926 0.087 7.03 36.76 13.95
12/26/2020 4:00:00 PM 1.05 33.89 0.088 7.04 39.66 13.96
12/26/2020 4:15:00 PM 1.03 33.854 0.088 7.04 44.85 13.97
12/26/2020 4:30:00 PM 1.01 33.818 0.088 7.04 36.59 13.97
12/26/2020 4:45:00 PM 0.99 33.782 0.088 7.04 35.35 13.98
12/26/2020 5:00:00 PM 0.96 33.728 0.088 7.04 26.5 13.99
12/26/2020 5:15:00 PM 0.94 33.692 0.088 7.04 34.58 14
12/26/2020 5:30:00 PM 0.92 33.656 0.089 7.04 46.06 14.01
12/26/2020 5:45:00 PM 0.89 33.602 0.089 7.04 43.47 14.02
12/26/2020 6:00:00 PM 0.86 33.548 0.089 7.04 37 14.03
12/26/2020 6:15:00 PM 0.84 33.512 0.089 7.04 37.3 14.04
12/26/2020 6:30:00 PM 0.82 33.476 0.09 7.05 40.91 14.04
12/26/2020 6:45:00 PM 0.81 33.458 0.09 7.05 39.77 14.05
12/26/2020 7:00:00 PM 0.78 33.404 0.09 7.05 26.59 14.06
12/26/2020 7:15:00 PM 0.75 33.35 0.09 7.05 34.44 14.07
12/26/2020 7:30:00 PM 0.73 33.314 0.09 7.05 30.72 14.08
12/26/2020 7:45:00 PM 0.7 33.26 0.091 7.05 26.88 14.09
12/26/2020 8:00:00 PM 0.68 33.224 0.091 7.05 38.72 14.09
12/26/2020 8:15:00 PM 0.65 33.17 0.091 7.05 48.72 14.11
12/26/2020 8:30:00 PM 0.63 33.134 0.091 7.06 27.17 14.11
12/26/2020 8:45:00 PM 0.6 33.08 0.091 7.06 30.25 14.13
12/26/2020 9:00:00 PM 0.57 33.026 0.092 7.06 44.06 14.13
12/26/2020 9:15:00 PM 0.55 32.99 0.092 7.06 35.7 14.15
12/26/2020 9:30:00 PM 0.53 32.954 0.092 7.06 29.89 14.15
12/26/2020 9:45:00 PM 0.5 32.9 0.092 7.06 28.56 14.17
12/26/2020 10:00:00 PM 0.49 32.882 0.092 7.06 30.07 14.18
12/26/2020 10:15:00 PM 0.48 32.864 0.092 7.07 27.7 14.18
12/26/2020 10:30:00 PM 0.46 32.828 0.092 7.06 26.45 14.19
12/26/2020 10:45:00 PM 0.44 32.792 0.093 7.07 27.79 14.2
12/26/2020 11:00:00 PM 0.42 32.756 0.093 7.07 42.88 14.21
12/26/2020 11:15:00 PM 0.41 32.738 0.093 7.07 28.85 14.22
12/26/2020 11:30:00 PM 0.4 32.72 0.093 7.07 32.72 14.23
12/26/2020 11:45:00 PM 0.39 32.702 0.093 7.07 29.11 14.23
12/27/2020 12:00:00 AM 0.38 32.684 0.093 7.08 27.31 14.24
12/27/2020 12:15:00 AM 0.37 32.666 0.094 7.08 26.73 14.25
12/27/2020 12:30:00 AM 0.36 32.648 0.094 7.08 24.23 14.26
12/27/2020 12:45:00 AM 0.35 32.63 0.094 7.08 29.43 14.26
12/27/2020 1:00:00 AM 0.34 32.612 0.094 7.09 26.31 14.27
12/27/2020 1:15:00 AM 0.34 32.612 0.094 7.09 38.6 14.27
12/27/2020 1:30:00 AM 0.34 32.612 0.094 7.09 26.81 14.27
12/27/2020 1:45:00 AM 0.33 32.594 0.094 7.09 26.45 14.28
12/27/2020 2:00:00 AM 0.33 32.594 0.095 7.08 31.5 14.29
12/27/2020 2:15:00 AM 0.32 32.576 0.095 7.08 43.1 14.29
12/27/2020 2:30:00 AM 0.32 32.576 0.095 7.09 43.13 14.3
12/27/2020 2:45:00 AM 0.32 32.576 0.095 7.08 28.77 14.3
12/27/2020 3:00:00 AM 0.31 32.558 0.095 7.09 34.45 14.31
12/27/2020 3:15:00 AM 0.31 32.558 0.095 7.08 29.18 14.32
12/27/2020 3:30:00 AM 0.31 32.558 0.095 7.09 28.17 14.32
12/27/2020 3:45:00 AM 0.31 32.558 0.096 7.09 22.74 14.32
12/27/2020 4:00:00 AM 0.3 32.54 0.096 7.09 29.36 14.33
12/27/2020 4:15:00 AM 0.3 32.54 0.096 7.09 49.12 14.33
12/27/2020 4:30:00 AM 0.29 32.522 0.096 7.09 21 14.33
12/27/2020 4:45:00 AM 0.29 32.522 0.096 7.1 25.32 14.34
12/27/2020 5:00:00 AM 0.29 32.522 0.096 7.09 25.19 14.34
12/27/2020 5:15:00 AM 0.29 32.522 0.096 7.09 19.89 14.35
12/27/2020 5:30:00 AM 0.28 32.504 0.097 7.1 19.13 14.36
12/27/2020 5:45:00 AM 0.28 32.504 0.097 7.1 42.56 14.36
12/27/2020 6:00:00 AM 0.28 32.504 0.097 7.1 20.53 14.36
12/27/2020 6:15:00 AM 0.27 32.486 0.097 7.1 24.26 14.37
12/27/2020 6:30:00 AM 0.27 32.486 0.097 7.1 21.95 14.38
12/27/2020 6:45:00 AM 0.27 32.486 0.097 7.1 22.11 14.38
12/27/2020 7:00:00 AM 0.27 32.486 0.097 7.11 25.03 14.38
12/27/2020 7:15:00 AM 0.27 32.486 0.098 7.11 19.85 14.39
12/27/2020 7:30:00 AM 0.27 32.486 0.098 7.11 22.77 14.39
12/27/2020 7:45:00 AM 0.27 32.486 0.098 7.11 23.57 14.39
12/27/2020 8:00:00 AM 0.27 32.486 0.098 7.11 19.67 14.4
12/27/2020 8:15:00 AM 0.28 32.504 0.098 7.11 19.41 14.4
12/27/2020 8:30:00 AM 0.29 32.522 0.098 7.11 15.9 14.4
12/27/2020 8:45:00 AM 0.29 32.522 0.098 7.11 17.06 14.4
12/27/2020 9:00:00 AM 0.3 32.54 0.099 7.11 21.21 14.41
12/27/2020 9:15:00 AM 0.32 32.576 0.099 7.11 19.82 14.41
12/27/2020 9:30:00 AM 0.34 32.612 0.099 7.12 20.46 14.41
12/27/2020 9:45:00 AM 0.37 32.666 0.099 7.12 17.04 14.4
12/27/2020 10:00:00 AM 0.4 32.72 0.099 7.12 28.57 14.4
12/27/2020 10:15:00 AM 0.43 32.774 0.099 7.12 19.53 14.4
12/27/2020 10:30:00 AM 0.46 32.828 0.099 7.12 19.16 14.39
12/27/2020 10:45:00 AM 0.5 32.9 0.099 7.12 30.64 14.37
12/27/2020 11:00:00 AM 0.53 32.954 0.1 7.12 19.03 14.37
12/27/2020 11:15:00 AM 0.57 33.026 0.1 7.12 21.66 14.36
12/27/2020 11:30:00 AM 0.61 33.098 0.1 7.12 22.98 14.34
12/27/2020 11:45:00 AM 0.66 33.188 0.1 7.13 20.01 14.33
12/27/2020 12:00:00 PM 0.72 33.296 0.1 7.13 20.21 14.32
12/27/2020 12:15:00 PM 0.76 33.368 0.1 7.13 18.31 14.3
12/27/2020 12:30:00 PM 0.8 33.44 0.1 7.13 21.56 14.28
12/27/2020 12:45:00 PM 0.83 33.494 0.1 7.13 23.38 14.27
12/27/2020 1:00:00 PM 0.88 33.584 0.1 7.14 23.81 14.26
12/27/2020 1:15:00 PM 0.91 33.638 0.101 7.14 23.58 14.25
12/27/2020 1:30:00 PM 0.93 33.674 0.101 7.14 20.72 14.23
12/27/2020 1:45:00 PM 0.94 33.692 0.101 7.14 19.67 14.23
12/27/2020 2:00:00 PM 0.96 33.728 0.101 7.14 32.02 14.22
12/27/2020 2:15:00 PM 0.98 33.764 0.101 7.14 19.07 14.21
12/27/2020 2:30:00 PM 1 33.8 0.101 7.14 26.24 14.2
12/27/2020 2:45:00 PM 1.02 33.836 0.101 7.14 18.67 14.19
12/27/2020 3:00:00 PM 1.04 33.872 0.101 7.14 19.33 14.18
12/27/2020 3:15:00 PM 1.05 33.89 0.102 7.15 26.06 14.17
12/27/2020 3:30:00 PM 1.06 33.908 0.102 7.15 18.86 14.16
12/27/2020 3:45:00 PM 1.08 33.944 0.102 7.14 17.56 14.15
12/27/2020 4:00:00 PM 1.08 33.944 0.102 7.15 18.6 14.15
12/27/2020 4:15:00 PM 1.08 33.944 0.102 7.15 21.86 14.14
12/27/2020 4:30:00 PM 1.07 33.926 0.102 7.15 19.19 14.14
12/27/2020 4:45:00 PM 1.06 33.908 0.102 7.15 20.03 14.15
12/27/2020 5:00:00 PM 1.05 33.89 0.102 7.15 27.14 14.14
12/27/2020 5:15:00 PM 1.04 33.872 0.102 7.15 25.49 14.14
12/27/2020 5:30:00 PM 1.02 33.836 0.102 7.15 21.71 14.15
12/27/2020 5:45:00 PM 0.99 33.782 0.103 7.15 22.29 14.16
12/27/2020 6:00:00 PM 0.97 33.746 0.103 7.15 17.42 14.17
12/27/2020 6:15:00 PM 0.94 33.692 0.103 7.15 19.09 14.18
12/27/2020 6:30:00 PM 0.91 33.638 0.103 7.15 18.06 14.18
12/27/2020 6:45:00 PM 0.89 33.602 0.103 7.15 24.19 14.19
12/27/2020 7:00:00 PM 0.87 33.566 0.103 7.15 16.86 14.19
12/27/2020 7:15:00 PM 0.84 33.512 0.103 7.14 19.56 14.21
12/27/2020 7:30:00 PM 0.81 33.458 0.103 7.15 18.84 14.21
12/27/2020 7:45:00 PM 0.79 33.422 0.103 7.15 19.2 14.22
12/27/2020 8:00:00 PM 0.77 33.386 0.103 7.15 18.03 14.23
12/27/2020 8:15:00 PM 0.74 33.332 0.103 7.15 19.62 14.24
12/27/2020 8:30:00 PM 0.72 33.296 0.103 7.15 16.55 14.25
12/27/2020 8:45:00 PM 0.7 33.26 0.103 7.14 18.47 14.26
12/27/2020 9:00:00 PM 0.68 33.224 0.104 7.15 19.96 14.26
12/27/2020 9:15:00 PM 0.66 33.188 0.104 7.15 21.39 14.27
12/27/2020 9:30:00 PM 0.65 33.17 0.104 7.15 20.26 14.27
12/27/2020 9:45:00 PM 0.64 33.152 0.104 7.15 27.17 14.28
12/27/2020 10:00:00 PM 0.63 33.134 0.104 7.15 19.48 14.28
12/27/2020 10:15:00 PM 0.62 33.116 0.104 7.15 27.83 14.28
12/27/2020 10:30:00 PM 0.61 33.098 0.104 7.15 17.05 14.29
12/27/2020 10:45:00 PM 0.61 33.098 0.104 7.15 24.28 14.29
12/27/2020 11:00:00 PM 0.6 33.08 0.104 7.15 21.23 14.3
12/27/2020 11:15:00 PM 0.59 33.062 0.104 7.15 23.03 14.3
12/27/2020 11:30:00 PM 0.58 33.044 0.104 7.15 18.07 14.3
12/27/2020 11:45:00 PM 0.58 33.044 0.104 7.15 19.29 14.3
12/28/2020 12:00:00 AM 0.58 33.044 0.104 7.15 21.07 14.3
12/28/2020 12:15:00 AM 0.58 33.044 0.104 7.15 20.63 14.3
12/28/2020 12:30:00 AM 0.57 33.026 0.104 7.15 18.56 14.3
12/28/2020 12:45:00 AM 0.56 33.008 0.104 7.15 16.82 14.3
12/28/2020 1:00:00 AM 0.57 33.026 0.104 7.15 16.94 14.3
12/28/2020 1:15:00 AM 0.57 33.026 0.104 7.15 19.33 14.29
12/28/2020 1:30:00 AM 0.57 33.026 0.105 7.15 18.68 14.29
12/28/2020 1:45:00 AM 0.58 33.044 0.105 7.16 17.95 14.29
12/28/2020 2:00:00 AM 0.58 33.044 0.105 7.16 17.63 14.28
12/28/2020 2:15:00 AM 0.58 33.044 0.105 7.16 15.79 14.28
12/28/2020 2:30:00 AM 0.58 33.044 0.105 7.16 18.12 14.28
12/28/2020 2:45:00 AM 0.59 33.062 0.105 7.16 15.93 14.28
12/28/2020 3:00:00 AM 0.59 33.062 0.105 7.16 19.54 14.27
12/28/2020 3:15:00 AM 0.6 33.08 0.105 7.16 17.54 14.27
12/28/2020 3:30:00 AM 0.6 33.08 0.105 7.16 15.96 14.27
12/28/2020 3:45:00 AM 0.61 33.098 0.105 7.16 17.59 14.26
12/28/2020 4:00:00 AM 0.62 33.116 0.105 7.16 19.49 14.25
12/28/2020 4:15:00 AM 0.63 33.134 0.105 7.16 18.38 14.25
12/28/2020 4:30:00 AM 0.64 33.152 0.105 7.16 21.22 14.24
12/28/2020 4:45:00 AM 0.65 33.17 0.105 7.16 20.38 14.24
12/28/2020 5:00:00 AM 0.66 33.188 0.105 7.16 17.01 14.23
12/28/2020 5:15:00 AM 0.68 33.224 0.105 7.16 17.56 14.23
12/28/2020 5:30:00 AM 0.7 33.26 0.105 7.17 17.15 14.22
12/28/2020 5:45:00 AM 0.72 33.296 0.106 7.17 18.24 14.22
12/28/2020 6:00:00 AM 0.74 33.332 0.106 7.17 17.68 14.21
12/28/2020 6:15:00 AM 0.76 33.368 0.106 7.17 14.85 14.21
12/28/2020 6:30:00 AM 0.78 33.404 0.106 7.17 22.89 14.19
12/28/2020 6:45:00 AM 0.8 33.44 0.106 7.16 19.99 14.19
12/28/2020 7:00:00 AM 0.82 33.476 0.106 7.17 13.55 14.18
12/28/2020 7:15:00 AM 0.84 33.512 0.106 7.17 30.95 14.17
12/28/2020 7:30:00 AM 0.86 33.548 0.106 7.17 17.88 14.16
12/28/2020 7:45:00 AM 0.88 33.584 0.106 7.17 18.53 14.16
12/28/2020 8:00:00 AM 0.9 33.62 0.106 7.17 16.13 14.15
12/28/2020 8:15:00 AM 0.92 33.656 0.106 7.17 16.93 14.14
12/28/2020 8:30:00 AM 0.95 33.71 0.106 7.17 17.13 14.13
12/28/2020 8:45:00 AM